Provisional Data: Portage Creek near Emporium, PA


Please select a monitoring station.
Please select start date.
Please select start date.

Toggle Unit: C/F Toggle Unit: C/F
Sample Time Temperature (C) Temperature (F) Specific Conductivity (mS/cm) pH   Turbidity (NTU+) DO (mg/L)
9/6/2021 12:00:00 AM 17.33 63.194 0.083 7.47 4.81 8.78
9/6/2021 12:15:00 AM 17.28 63.104 0.083 7.45 4.8 8.8
9/6/2021 12:30:00 AM 17.25 63.05 0.083 7.46 4.59 8.8
9/6/2021 12:45:00 AM 17.21 62.978 0.083 7.47 4.47 8.82
9/6/2021 1:00:00 AM 17.17 62.906 0.083 7.46 4.53 8.82
9/6/2021 1:15:00 AM 17.13 62.834 0.083 7.45 4.44 8.83
9/6/2021 1:30:00 AM 17.09 62.762 0.083 7.45 4.43 8.84
9/6/2021 1:45:00 AM 17.05 62.69 0.083 7.46 4.4 8.85
9/6/2021 2:00:00 AM 17.01 62.618 0.083 7.45 4.61 8.86
9/6/2021 2:15:00 AM 16.96 62.528 0.083 7.45 4.39 8.87
9/6/2021 2:30:00 AM 16.92 62.456 0.083 7.45 4.32 8.87
9/6/2021 2:45:00 AM 16.87 62.366 0.083 7.44 4.39 8.88
9/6/2021 3:00:00 AM 16.82 62.276 0.083 7.45 4.27 8.89
9/6/2021 3:15:00 AM 16.78 62.204 0.083 7.45 4.1 8.9
9/6/2021 3:30:00 AM 16.74 62.132 0.083 7.46 4.28 8.9
9/6/2021 3:45:00 AM 16.71 62.078 0.083 7.44 4.13 8.91
9/6/2021 4:00:00 AM 16.68 62.024 0.083 7.44 4.12 8.92
9/6/2021 4:15:00 AM 16.65 61.97 0.082 7.43 4.32 8.92
9/6/2021 4:30:00 AM 16.62 61.916 0.082 7.45 4.39 8.93
9/6/2021 4:45:00 AM 16.59 61.862 0.082 7.42 5.22 8.94
9/6/2021 5:00:00 AM 16.55 61.79 0.082 7.44 5.56 8.94
9/6/2021 5:15:00 AM 16.52 61.736 0.082 7.42 6.5 8.95
9/6/2021 5:30:00 AM 16.48 61.664 0.082 7.43 7.17 8.95
9/6/2021 5:45:00 AM 16.43 61.574 0.082 7.44 7.83 8.96
9/6/2021 6:00:00 AM 16.4 61.52 0.082 7.44 8.57 8.97
9/6/2021 6:15:00 AM 16.36 61.448 0.082 7.42 7.92 8.98
9/6/2021 6:30:00 AM 16.33 61.394 0.082 7.44 8.13 8.99
9/6/2021 6:45:00 AM 16.3 61.34 0.082 7.45 8.31 8.99
9/6/2021 7:00:00 AM 16.26 61.268 0.082 7.45 7.74 9.02
9/6/2021 7:15:00 AM 16.23 61.214 0.082 7.43 7.3 9.06
9/6/2021 7:30:00 AM 16.21 61.178 0.079 7.47 7 9.13
9/6/2021 7:45:00 AM 16.2 61.16 0.082 7.5 6.96 9.2
9/6/2021 8:00:00 AM 16.19 61.142 0.082 7.51 5.76 9.27
9/6/2021 8:15:00 AM 16.17 61.106 0.082 7.54 5.36 9.29
9/6/2021 8:30:00 AM 16.16 61.088 0.082 7.52 5.03 9.32
9/6/2021 8:45:00 AM 16.16 61.088 0.082 7.55 4.79 9.37
9/6/2021 9:00:00 AM 16.16 61.088 0.081 7.58 4.61 9.49
9/6/2021 9:15:00 AM 16.18 61.124 0.081 7.61 4.48 9.55
9/6/2021 9:30:00 AM 16.2 61.16 0.081 7.64 4.47 9.58
9/6/2021 9:45:00 AM 16.25 61.25 0.081 7.67 5.32 9.62
9/6/2021 10:00:00 AM 16.31 61.358 0.081 7.71 4.45 9.71
9/6/2021 10:15:00 AM 16.4 61.52 0.081 7.77 4.26 9.75
9/6/2021 10:30:00 AM 16.49 61.682 0.081 7.8 4 9.76
9/6/2021 10:45:00 AM 16.58 61.844 0.081 7.83 3.89 9.77
9/6/2021 11:00:00 AM 16.68 62.024 0.081 7.85 3.83 9.79
9/6/2021 11:15:00 AM 16.8 62.24 0.08 7.89 3.81 9.79
9/6/2021 11:30:00 AM 16.95 62.51 0.08 7.92 3.91 9.8
9/6/2021 11:45:00 AM 17.12 62.816 0.08 7.96 3.81 9.8
9/6/2021 12:00:00 PM 17.33 63.194 0.08 8.02 3.67 9.82
9/6/2021 12:15:00 PM 17.6 63.68 0.08 8.1 3.63 9.85
9/6/2021 12:30:00 PM 17.81 64.058 0.08 8.18 3.55 9.83
9/6/2021 12:45:00 PM 17.95 64.31 0.08 8.22 3.6 9.79
9/6/2021 1:00:00 PM 18.02 64.436 0.08 8.26 3.57 9.76
9/6/2021 1:15:00 PM 18.29 64.922 0.08 8.31 3.35 9.76
9/6/2021 1:30:00 PM 18.64 65.552 0.08 8.36 3.27 9.75
9/6/2021 1:45:00 PM 18.94 66.092 0.08 8.42 3.47 9.74
9/6/2021 2:00:00 PM 19.23 66.614 0.08 8.49 3.39 9.72
9/6/2021 2:15:00 PM 19.37 66.866 0.08 8.49 3.23 9.66
9/6/2021 2:30:00 PM 19.44 66.992 0.08 8.5 3.26 9.56
9/6/2021 2:45:00 PM 19.4 66.92 0.08 8.41 3.29 9.45
9/6/2021 3:00:00 PM 19.64 67.352 0.08 8.45 3.4 9.48
9/6/2021 3:15:00 PM 19.91 67.838 0.08 8.53 3.21 9.47
9/6/2021 3:30:00 PM 20 68 0.08 8.51 3.26 9.37
9/6/2021 3:45:00 PM 20.03 68.054 0.08 8.48 3.23 9.3
9/6/2021 4:00:00 PM 20.08 68.144 0.08 8.46 4.73 9.24
9/6/2021 4:15:00 PM 20.09 68.162 0.079 8.39 4.72 9.16
9/6/2021 4:30:00 PM 20.08 68.144 0.079 8.33 3.29 9.11
9/6/2021 4:45:00 PM 20.06 68.108 0.079 8.32 4.72 9.11
9/6/2021 5:00:00 PM 20 68 0.079 8.26 4.5 9.05
9/6/2021 5:15:00 PM 19.91 67.838 0.079 8.15 5.5 8.97
9/6/2021 5:30:00 PM 19.81 67.658 0.079 8.02 10.22 8.91
9/6/2021 5:45:00 PM 19.69 67.442 0.079 7.92 3.27 8.84
9/6/2021 6:00:00 PM 19.59 67.262 0.079 7.86 3.72 8.78
9/6/2021 6:15:00 PM 19.5 67.1 0.079 7.78 4.67 8.74
9/6/2021 6:30:00 PM 19.42 66.956 0.079 7.75 3.37 8.69
9/6/2021 6:45:00 PM 19.35 66.83 0.08 7.71 3.33 8.67
9/6/2021 7:00:00 PM 19.29 66.722 0.08 7.67 3.3 8.64
9/6/2021 7:15:00 PM 19.23 66.614 0.08 7.64 3.65 8.61
9/6/2021 7:30:00 PM 19.16 66.488 0.08 7.62 3.28 8.57
9/6/2021 7:45:00 PM 19.09 66.362 0.08 7.6 4.81 8.54
9/6/2021 8:00:00 PM 19 66.2 0.081 7.55 4 8.5
9/6/2021 8:15:00 PM 18.9 66.02 0.081 7.54 4.22 8.49
9/6/2021 8:30:00 PM 18.8 65.84 0.081 7.53 4.43 8.48
9/6/2021 8:45:00 PM 18.69 65.642 0.082 7.51 4.37 8.5
9/6/2021 9:00:00 PM 18.58 65.444 0.082 7.51 4.51 8.5
9/6/2021 9:15:00 PM 18.46 65.228 0.082 7.5 4.65 8.52
9/6/2021 9:30:00 PM 18.35 65.03 0.082 7.49 4.58 8.54
9/6/2021 9:45:00 PM 18.23 64.814 0.082 7.5 4.48 8.56
9/6/2021 10:00:00 PM 18.11 64.598 0.082 7.5 4.44 8.59
9/6/2021 10:15:00 PM 17.98 64.364 0.082 7.5 4.41 8.61
9/6/2021 10:30:00 PM 17.86 64.148 0.082 7.48 4.46 8.64
9/6/2021 10:45:00 PM 17.73 63.914 0.082 7.47 4.43 8.66
9/6/2021 11:00:00 PM 17.61 63.698 0.082 7.48 4.57 8.69
9/6/2021 11:15:00 PM 17.48 63.464 0.082 7.45 4.49 8.71
9/6/2021 11:30:00 PM 17.34 63.212 0.083 7.46 4.5 8.75
9/6/2021 11:45:00 PM 17.21 62.978 0.083 7.45 4.47 8.77
9/7/2021 12:00:00 AM 17.09 62.762 0.083 7.42 4.51 8.8
9/7/2021 12:15:00 AM 16.97 62.546 0.083 7.44 4.4 8.83
9/7/2021 12:30:00 AM 16.86 62.348 0.083 7.45 4.47 8.85
9/7/2021 12:45:00 AM 16.77 62.186 0.083 7.45 4.53 8.87
9/7/2021 1:00:00 AM 16.66 61.988 0.083 7.45 4.55 8.9
9/7/2021 1:15:00 AM 16.56 61.808 0.083 7.43 4.42 8.92
9/7/2021 1:30:00 AM 16.46 61.628 0.083 7.45 4.41 8.94
9/7/2021 1:45:00 AM 16.38 61.484 0.084 7.43 4.44 8.96
9/7/2021 2:00:00 AM 16.3 61.34 0.084 7.43 4.44 8.98
9/7/2021 2:15:00 AM 16.22 61.196 0.084 7.43 4.49 8.99
9/7/2021 2:30:00 AM 16.15 61.07 0.084 7.43 4.36 9.01
9/7/2021 2:45:00 AM 16.08 60.944 0.083 7.44 4.56 9.03
9/7/2021 3:00:00 AM 16.02 60.836 0.083 7.43 4.42 9.04
9/7/2021 3:15:00 AM 15.96 60.728 0.083 7.44 4.43 9.06
9/7/2021 3:30:00 AM 15.9 60.62 0.083 7.44 4.39 9.07
9/7/2021 3:45:00 AM 15.84 60.512 0.083 7.44 4.37 9.08
9/7/2021 4:00:00 AM 15.79 60.422 0.083 7.45 4.33 9.09
9/7/2021 4:15:00 AM 15.74 60.332 0.083 7.43 4.44 9.1
9/7/2021 4:30:00 AM 15.7 60.26 0.083 7.46 4.39 9.11
9/7/2021 4:45:00 AM 15.65 60.17 0.083 7.46 4.29 9.13
9/7/2021 5:00:00 AM 15.6 60.08 0.083 7.43 4.58 9.14
9/7/2021 5:15:00 AM 15.55 59.99 0.083 7.45 4.27 9.15
9/7/2021 5:30:00 AM 15.51 59.918 0.083 7.43 4.28 9.15
9/7/2021 5:45:00 AM 15.45 59.81 0.083 7.44 4.33 9.17
9/7/2021 6:00:00 AM 15.41 59.738 0.083 7.43 4.26 9.18
9/7/2021 6:15:00 AM 15.36 59.648 0.083 7.42 4.47 9.19
9/7/2021 6:30:00 AM 15.32 59.576 0.083 7.44 4.47 9.2
9/7/2021 6:45:00 AM 15.27 59.486 0.083 7.46 4.44 9.21
9/7/2021 7:00:00 AM 15.22 59.396 0.083 7.44 4.41 9.24
9/7/2021 7:15:00 AM 15.17 59.306 0.083 7.46 4.44 9.28
9/7/2021 7:30:00 AM 15.12 59.216 0.083 7.47 4.38 9.33
9/7/2021 7:45:00 AM 15.09 59.162 0.083 7.5 4.3 9.39
9/7/2021 8:00:00 AM 15.06 59.108 0.083 7.48 4.31 9.48
9/7/2021 8:15:00 AM 15.04 59.072 0.083 7.54 4.27 9.59
9/7/2021 8:30:00 AM 15.03 59.054 0.083 7.55 4.35 9.69
9/7/2021 8:45:00 AM 15.02 59.036 0.083 7.6 4.02 9.78
9/7/2021 9:00:00 AM 15.03 59.054 0.083 7.6 4.09 9.88
9/7/2021 9:15:00 AM 15.05 59.09 0.083 7.67 4.01 9.99
9/7/2021 9:30:00 AM 15.08 59.144 0.082 7.76 3.96 10.1
9/7/2021 9:45:00 AM 15.13 59.234 0.082 7.79 3.94 10.18
9/7/2021 10:00:00 AM 15.12 59.216 0.082 7.81 3.97 10.14
9/7/2021 10:15:00 AM 15.16 59.288 0.082 7.84 4.01 10.1
9/7/2021 10:30:00 AM 15.26 59.468 0.082 7.83 3.95 10.09
9/7/2021 10:45:00 AM 15.37 59.666 0.082 7.86 3.97 10.07
9/7/2021 11:00:00 AM 15.51 59.918 0.081 7.88 3.91 10.07
9/7/2021 11:15:00 AM 15.67 60.206 0.082 7.9 3.88 10.06
9/7/2021 11:30:00 AM 15.84 60.512 0.082 7.93 3.88 10.06
9/7/2021 11:45:00 AM 16.01 60.818 0.082 7.94 3.87 10.05
9/7/2021 12:00:00 PM 16.22 61.196 0.082 7.98 3.85 10.04
9/7/2021 12:15:00 PM 16.47 61.646 0.082 8.05 3.83 10.02
9/7/2021 12:30:00 PM 16.78 62.204 0.082 8.08 3.84 10.01
9/7/2021 12:45:00 PM 17.11 62.798 0.082 8.14 3.75 9.97
9/7/2021 1:00:00 PM 17.45 63.41 0.082 8.23 3.78 9.95
9/7/2021 1:15:00 PM 17.83 64.094 0.082 8.29 3.78 9.92
9/7/2021 1:30:00 PM 18.27 64.886 0.081 8.38 3.67 9.91
9/7/2021 1:45:00 PM 18.53 65.354 0.081 8.42 3.77 9.82
9/7/2021 2:00:00 PM 18.81 65.858 0.082 8.46 3.77 9.76
9/7/2021 2:15:00 PM 19.11 66.398 0.082 8.49 3.7 9.72
9/7/2021 2:30:00 PM 19.44 66.992 0.082 8.57 3.4 9.67
9/7/2021 2:45:00 PM 19.79 67.622 0.082 8.61 3.1 9.64
9/7/2021 3:00:00 PM 19.96 67.92799 0.082 8.62 3.25 9.56
9/7/2021 3:15:00 PM 20.1 68.18 0.082 8.62 3.35 9.48
9/7/2021 3:30:00 PM 20.22 68.396 0.082 8.6 3.2 9.42
9/7/2021 3:45:00 PM 20.26 68.468 0.082 8.6 3.21 9.36
9/7/2021 4:00:00 PM 20.25 68.45 0.082 8.57 3.26 9.29
9/7/2021 4:15:00 PM 20.26 68.468 0.082 8.53 3.31 9.23
9/7/2021 4:30:00 PM 20.24 68.432 0.081 8.49 3.3 9.15
9/7/2021 4:45:00 PM 20.21 68.378 0.082 8.39 3.22 9.06
9/7/2021 5:00:00 PM 20.16 68.288 0.082 8.29 3.39 8.98
9/7/2021 5:15:00 PM 20.07 68.126 0.082 8.17 3.26 8.93
9/7/2021 5:30:00 PM 19.95 67.91 0.082 8.05 3.25 8.88
9/7/2021 5:45:00 PM 19.81 67.658 0.082 7.97 3.3 8.82
9/7/2021 6:00:00 PM 19.71 67.478 0.082 7.91 3.17 8.81
9/7/2021 6:15:00 PM 19.65 67.37 0.082 7.84 3.16 8.82
9/7/2021 6:30:00 PM 19.59 67.262 0.082 7.84 2.94 8.77
9/7/2021 6:45:00 PM 19.54 67.172 0.083 7.76 2.94 8.7
9/7/2021 7:00:00 PM 19.51 67.118 0.083 7.73 2.92 8.64
9/7/2021 7:15:00 PM 19.49 67.082 0.083 7.66 2.92 8.58
9/7/2021 7:30:00 PM 19.46 67.028 0.083 7.66 2.94 8.51
9/7/2021 7:45:00 PM 19.43 66.974 0.084 7.61 2.99 8.46
9/7/2021 8:00:00 PM 19.39 66.902 0.084 7.58 3.6 8.4
9/7/2021 8:15:00 PM 19.35 66.83 0.084 7.53 3.93 8.37
9/7/2021 8:30:00 PM 19.3 66.74 0.084 7.52 3.75 8.36
9/7/2021 8:45:00 PM 19.24 66.632 0.084 7.5 3.76 8.35
9/7/2021 9:00:00 PM 19.18 66.524 0.084 7.48 3.76 8.35
9/7/2021 9:15:00 PM 19.12 66.416 0.084 7.48 3.71 8.35
9/7/2021 9:30:00 PM 19.06 66.308 0.084 7.47 3.88 8.36
9/7/2021 9:45:00 PM 19 66.2 0.085 7.47 3.9 8.37
9/7/2021 10:00:00 PM 18.94 66.092 0.085 7.46 3.96 8.38
9/7/2021 10:15:00 PM 18.87 65.966 0.085 7.47 3.83 8.39
9/7/2021 10:30:00 PM 18.8 65.84 0.085 7.47 3.79 8.4
9/7/2021 10:45:00 PM 18.73 65.714 0.085 7.46 3.81 8.41
9/7/2021 11:00:00 PM 18.66 65.588 0.085 7.46 3.87 8.43
9/7/2021 11:15:00 PM 18.58 65.444 0.085 7.46 3.7 8.44
9/7/2021 11:30:00 PM 18.51 65.318 0.085 7.45 3.66 8.46
9/7/2021 11:45:00 PM 18.43 65.174 0.085 7.46 3.77 8.47
9/8/2021 12:00:00 AM 18.34 65.012 0.085 7.46 3.69 8.49
9/8/2021 12:15:00 AM 18.26 64.868 0.086 7.46 3.6 8.5
9/8/2021 12:30:00 AM 18.16 64.688 0.086 7.45 3.7 8.52
9/8/2021 12:45:00 AM 18.07 64.526 0.086 7.44 3.88 8.55
9/8/2021 1:00:00 AM 17.98 64.364 0.086 7.44 3.74 8.56
9/8/2021 1:15:00 AM 17.89 64.202 0.086 7.44 3.79 8.58
9/8/2021 1:30:00 AM 17.8 64.04 0.086 7.45 3.67 8.6
9/8/2021 1:45:00 AM 17.72 63.896 0.086 7.43 3.49 8.62
9/8/2021 2:00:00 AM 17.64 63.752 0.086 7.44 3.68 8.64
9/8/2021 2:15:00 AM 17.56 63.608 0.086 7.44 3.57 8.65
9/8/2021 2:30:00 AM 17.49 63.482 0.086 7.45 3.53 8.66
9/8/2021 2:45:00 AM 17.41 63.338 0.086 7.44 3.61 8.69
9/8/2021 3:00:00 AM 17.34 63.212 0.086 7.43 3.57 8.7
9/8/2021 3:15:00 AM 17.26 63.068 0.086 7.44 3.84 8.71
9/8/2021 3:30:00 AM 17.2 62.96 0.086 7.43 3.47 8.72
9/8/2021 3:45:00 AM 17.13 62.834 0.086 7.44 3.59 8.73
9/8/2021 4:00:00 AM 17.06 62.708 0.086 7.43 3.58 8.75
9/8/2021 4:15:00 AM 17 62.6 0.086 7.43 3.52 8.76
9/8/2021 4:30:00 AM 16.94 62.492 0.086 7.43 3.5 8.77
9/8/2021 4:45:00 AM 16.88 62.384 0.086 7.43 3.52 8.78
9/8/2021 5:00:00 AM 16.83 62.294 0.086 7.43 3.54 8.8
9/8/2021 5:15:00 AM 16.78 62.204 0.086 7.44 3.48 8.8
9/8/2021 5:30:00 AM 16.73 62.114 0.086 7.41 3.64 8.82
9/8/2021 5:45:00 AM 16.68 62.024 0.086 7.43 3.71 8.83
9/8/2021 6:00:00 AM 16.63 61.934 0.086 7.43 3.64 8.84
9/8/2021 6:15:00 AM 16.59 61.862 0.086 7.42 3.7 8.84
9/8/2021 6:30:00 AM 16.55 61.79 0.086 7.43 3.63 8.85
9/8/2021 6:45:00 AM 16.51 61.718 0.086 7.41 3.71 8.86
9/8/2021 7:00:00 AM 16.48 61.664 0.086 7.43 3.66 8.88
9/8/2021 7:15:00 AM 16.45 61.61 0.086 7.44 3.54 8.92
9/8/2021 7:30:00 AM 16.42 61.556 0.087 7.43 3.5 8.98
9/8/2021 7:45:00 AM 16.39 61.502 0.086 7.47 3.45 9.08
9/8/2021 8:00:00 AM 16.39 61.502 0.086 7.51 3.46 9.23
9/8/2021 8:15:00 AM 16.4 61.52 0.086 7.55 3.53 9.36
9/8/2021 8:30:00 AM 16.42 61.556 0.085 7.59 3.48 9.48
9/8/2021 8:45:00 AM 16.45 61.61 0.085 7.64 3.46 9.59
9/8/2021 9:00:00 AM 16.51 61.718 0.085 7.69 3.51 9.69
9/8/2021 9:15:00 AM 16.55 61.79 0.084 7.74 3.47 9.72
9/8/2021 9:30:00 AM 16.61 61.898 0.084 7.8 3.44 9.77
9/8/2021 9:45:00 AM 16.69 62.042 0.084 7.87 3.44 9.86
9/8/2021 10:00:00 AM 16.8 62.24 0.084 7.98 3.39 9.94
9/8/2021 10:15:00 AM 16.93 62.474 0.083 8.11 3.51 10.02
9/8/2021 10:30:00 AM 17.05 62.69 0.083 8.21 3.38 10.06
9/8/2021 10:45:00 AM 17.19 62.942 0.083 8.31 3.38 10.06
9/8/2021 11:00:00 AM 17.26 63.068 0.083 8.32 3.37 9.98
9/8/2021 11:15:00 AM 17.37 63.266 0.083 8.33 3.35 9.96
9/8/2021 11:30:00 AM 17.54 63.572 0.083 8.46 3.33 10.01
9/8/2021 11:45:00 AM 17.65 63.77 0.083 8.55 3.29 10.04
9/8/2021 12:00:00 PM 17.67 63.806 0.083 8.47 3.42 9.82
9/8/2021 12:15:00 PM 17.7 63.86 0.083 8.27 3.31 9.57
9/8/2021 12:30:00 PM 17.72 63.896 0.083 8.06 3.32 9.35
9/8/2021 12:45:00 PM 17.74 63.932 0.083 7.92 3.28 9.2
9/8/2021 1:00:00 PM 17.75 63.95 0.083 7.81 3.28 9.09
9/8/2021 1:15:00 PM 17.75 63.95 0.083 7.77 3.33 9.07
9/8/2021 1:30:00 PM 17.77 63.986 0.083 7.77 3.35 9.09
9/8/2021 1:45:00 PM 17.81 64.058 0.083 7.81 3.38 9.22
9/8/2021 2:00:00 PM 17.83 64.094 0.083 7.88 3.26 9.34
9/8/2021 2:15:00 PM 17.84 64.112 0.083 7.92 3.23 9.38
9/8/2021 2:30:00 PM 17.84 64.112 0.083 7.93 3.28 9.39
9/8/2021 2:45:00 PM 17.83 64.094 0.083 7.93 3.4 9.39
9/8/2021 3:00:00 PM 17.85 64.13 0.083 7.97 3.32 9.48
9/8/2021 3:15:00 PM 17.85 64.13 0.083 8.05 3.26 9.53
9/8/2021 3:30:00 PM 17.85 64.13 0.083 8.04 3.27 9.52
9/8/2021 3:45:00 PM 17.85 64.13 0.083 8.04 3.31 9.49
9/8/2021 4:00:00 PM 17.85 64.13 0.084 8.02 3.27 9.46
9/8/2021 4:15:00 PM 17.86 64.148 0.084 8.03 3.23 9.48
9/8/2021 4:30:00 PM 17.88 64.184 0.084 8.09 3.25 9.52
9/8/2021 4:45:00 PM 17.89 64.202 0.084 8.08 3.31 9.51
9/8/2021 5:00:00 PM 17.92 64.256 0.084 8.1 3.29 9.52
9/8/2021 5:15:00 PM 17.92 64.256 0.084 8.03 3.25 9.42
9/8/2021 5:30:00 PM 17.96 64.328 0.084 8.02 3.83 9.44
9/8/2021 5:45:00 PM 17.98 64.364 0.084 8.04 3.34 9.44
9/8/2021 6:00:00 PM 17.97 64.346 0.084 7.99 3.3 9.35
9/8/2021 6:15:00 PM 17.98 64.364 0.083 7.95 3.34 9.34
9/8/2021 6:30:00 PM 17.99 64.382 0.083 7.97 3.42 9.36
9/8/2021 6:45:00 PM 17.98 64.364 0.083 7.92 3.46 9.29
9/8/2021 7:00:00 PM 17.98 64.364 0.084 7.87 3.51 9.22
9/8/2021 7:15:00 PM 17.97 64.346 0.084 7.79 3.3 9.09
9/8/2021 7:30:00 PM 17.95 64.31 0.084 7.72 3.06 8.96
9/8/2021 7:45:00 PM 17.92 64.256 0.084 7.66 3.1 8.84
9/8/2021 8:00:00 PM 17.89 64.202 0.085 7.61 3.08 8.77
9/8/2021 8:15:00 PM 17.85 64.13 0.085 7.59 3.79 8.73
9/8/2021 8:30:00 PM 17.81 64.058 0.085 7.58 3.74 8.7
9/8/2021 8:45:00 PM 17.76 63.968 0.085 7.57 3.96 8.68
9/8/2021 9:00:00 PM 17.71 63.878 0.085 7.55 3.78 8.67
9/8/2021 9:15:00 PM 17.65 63.77 0.085 7.52 3.91 8.66
9/8/2021 9:30:00 PM 17.59 63.662 0.086 7.51 3.98 8.67
9/8/2021 9:45:00 PM 17.54 63.572 0.086 7.5 3.95 8.67
9/8/2021 10:00:00 PM 17.5 63.5 0.086 7.49 3.91 8.67
9/8/2021 10:15:00 PM 17.43 63.374 0.086 7.5 3.86 8.69
9/8/2021 10:30:00 PM 17.37 63.266 0.086 7.51 3.87 8.69
9/8/2021 10:45:00 PM 17.32 63.176 0.086 7.48 4.06 8.7
9/8/2021 11:00:00 PM 17.28 63.104 0.087 7.49 4.11 8.71
9/8/2021 11:15:00 PM 17.23 63.014 0.087 7.49 3.93 8.72
9/8/2021 11:30:00 PM 17.19 62.942 0.087 7.5 3.99 8.73
9/8/2021 11:45:00 PM 17.15 62.87 0.087 7.49 3.88 8.74
9/9/2021 12:00:00 AM 17.11 62.798 0.088 7.49 3.9 8.75
9/9/2021 12:15:00 AM 17.08 62.744 0.088 7.48 3.97 8.75
9/9/2021 12:30:00 AM 17.04 62.672 0.087 7.47 4.11 8.77
9/9/2021 12:45:00 AM 17 62.6 0.087 7.47 3.91 8.78
9/9/2021 1:00:00 AM 16.96 62.528 0.087 7.46 3.98 8.78
9/9/2021 1:15:00 AM 16.93 62.474 0.087 7.48 4.33 8.79
9/9/2021 1:30:00 AM 16.9 62.42 0.087 7.47 4 8.8
9/9/2021 1:45:00 AM 16.88 62.384 0.087 7.47 4.89 8.81
9/9/2021 2:00:00 AM 16.85 62.33 0.087 7.46 4.05 8.81
9/9/2021 2:15:00 AM 16.82 62.276 0.087 7.47 4.14 8.82
9/9/2021 2:30:00 AM 16.8 62.24 0.087 7.45 4.31 8.82
9/9/2021 2:45:00 AM 16.77 62.186 0.087 7.46 4.39 8.83
9/9/2021 3:00:00 AM 16.73 62.114 0.087 7.46 4.31 8.84
9/9/2021 3:15:00 AM 16.7 62.06 0.087 7.46 140.8 8.85
9/9/2021 3:30:00 AM 16.67 62.006 0.087 7.46 40.33 8.85
9/9/2021 3:45:00 AM 16.64 61.952 0.087 7.46 3.12 8.86
9/9/2021 4:00:00 AM 16.6 61.88 0.086 7.46 3.93 8.86
9/9/2021 4:15:00 AM 16.58 61.844 0.086 7.45 67.72 8.87
9/9/2021 4:30:00 AM 16.55 61.79 0.086 7.45 13.02 8.88
9/9/2021 4:45:00 AM 16.52 61.736 0.086 7.46 60.08 8.88
9/9/2021 5:00:00 AM 16.5 61.7 0.086 7.45 107.42 8.89
9/9/2021 5:15:00 AM 16.47 61.646 0.086 7.46 15.36 8.9
9/9/2021 5:30:00 AM 16.45 61.61 0.086 7.45 3.03 8.9
9/9/2021 5:45:00 AM 16.42 61.556 0.086 7.45 3.28 8.9
9/9/2021 6:00:00 AM 16.4 61.52 0.086 7.44 3.14 8.91
9/9/2021 6:15:00 AM 16.37 61.466 0.086 7.45 3.1 8.91
9/9/2021 6:30:00 AM 16.35 61.43 0.086 7.44 3.43 8.92
9/9/2021 6:45:00 AM 16.33 61.394 0.086 7.43 3.53 8.92
9/9/2021 7:00:00 AM 16.31 61.358 0.086 7.46 4.98 8.94
9/9/2021 7:15:00 AM 16.3 61.34 0.086 7.43 3.31 8.96
9/9/2021 7:30:00 AM 16.27 61.286 0.086 7.46 3.15 8.99
9/9/2021 7:45:00 AM 16.26 61.268 0.086 7.47 1801.73 9.02
9/9/2021 8:00:00 AM 16.24 61.232 0.086 7.47 32.8 9.05
9/9/2021 8:15:00 AM 16.24 61.232 0.086 7.48 4.2 9.12
9/9/2021 8:30:00 AM 16.25 61.25 0.086 7.52 4.18 9.28
9/9/2021 8:45:00 AM 16.28 61.304 0.086 7.54 3.04 9.44
9/9/2021 9:00:00 AM 16.31 61.358 0.085 7.61 3.03 9.56
9/9/2021 9:15:00 AM 16.34 61.412 0.085 7.67 9.98 9.67
9/9/2021 9:30:00 AM 16.4 61.52 0.085 7.73 2.94 9.79
9/9/2021 9:45:00 AM 16.47 61.646 0.084 7.84 4.04 9.89
9/9/2021 10:00:00 AM 16.53 61.754 0.084 7.9 3.63 9.92
9/9/2021 10:15:00 AM 16.62 61.916 0.084 7.97 3.6 9.94
9/9/2021 10:30:00 AM 16.75 62.15 0.084 8.04 3.78 9.99
9/9/2021 10:45:00 AM 16.82 62.276 0.084 8.12 3.66 10.01
9/9/2021 11:00:00 AM 16.92 62.456 0.084 8.17 3.67 10.01
9/9/2021 11:15:00 AM 17.1 62.78 0.084 8.24 3.68 10.02
9/9/2021 11:30:00 AM 17.19 62.942 0.084 8.31 2.71 10.02
9/9/2021 11:45:00 AM 17.3 63.14 0.084 8.32 2.9 9.96
9/9/2021 12:00:00 PM 17.3 63.14 0.083 8.31 3.04 9.92
9/9/2021 12:15:00 PM 17.4 63.32 0.083 8.39 2.88 9.94
9/9/2021 12:30:00 PM 17.62 63.716 0.083 8.48 2.96 9.98
9/9/2021 12:45:00 PM 17.82 64.076 0.082 8.56 2.93 9.99
9/9/2021 1:00:00 PM 17.89 64.202 0.082 8.56 2.82 9.84
9/9/2021 1:15:00 PM 18.04 64.472 0.082 8.55 2.59 9.77
9/9/2021 1:30:00 PM 18.36 65.048 0.082 8.62 2.62 9.81
9/9/2021 1:45:00 PM 18.79 65.82201 0.082 8.73 2.6 9.83
9/9/2021 2:00:00 PM 18.97 66.146 0.082 8.78 2.55 9.79
9/9/2021 2:15:00 PM 19.09 66.362 0.082 8.83 2.84 9.78
9/9/2021 2:30:00 PM 19.12 66.416 0.082 8.86 2.91 9.75
9/9/2021 2:45:00 PM 19.17 66.506 0.082 8.87 2.92 9.72
9/9/2021 3:00:00 PM 19.14 66.452 0.082 8.91 2.7 9.74
9/9/2021 3:15:00 PM 19.21 66.578 0.082 8.94 3.24 9.74
9/9/2021 3:30:00 PM 19.24 66.632 0.082 8.96 2.81 9.68
9/9/2021 3:45:00 PM 19.21 66.578 0.082 8.93 2.75 9.59
9/9/2021 4:00:00 PM 19.21 66.578 0.082 8.89 2.83 9.51
9/9/2021 4:15:00 PM 19.23 66.614 0.082 8.9 2.74 9.48
9/9/2021 4:30:00 PM 19.23 66.614 0.082 8.87 2.7 9.44
9/9/2021 4:45:00 PM 19.23 66.614 0.082 8.84 2.7 9.44
9/9/2021 5:00:00 PM 19.22 66.596 0.082 8.83 2.74 9.41
9/9/2021 5:15:00 PM 19.15 66.47 0.082 8.77 2.73 9.33
9/9/2021 5:30:00 PM 19.09 66.362 0.082 8.68 2.93 9.26
9/9/2021 5:45:00 PM 19.04 66.272 0.082 8.58 2.99 9.16
9/9/2021 6:00:00 PM 18.95 66.11 0.083 8.41 2.99 9.05
9/9/2021 6:15:00 PM 18.86 65.948 0.083 8.25 3.17 8.99
9/9/2021 6:30:00 PM 18.77 65.786 0.083 8.12 3.21 8.94
9/9/2021 6:45:00 PM 18.66 65.588 0.083 8.01 3.17 8.88
9/9/2021 7:00:00 PM 18.56 65.408 0.084 7.9 3.26 8.81
9/9/2021 7:15:00 PM 18.46 65.228 0.084 7.83 3.26 8.76
9/9/2021 7:30:00 PM 18.37 65.066 0.084 7.76 3.2 8.71
9/9/2021 7:45:00 PM 18.27 64.886 0.084 7.7 3.9 8.65
9/9/2021 8:00:00 PM 18.18 64.724 0.085 7.66 4.55 8.61
9/9/2021 8:15:00 PM 18.09 64.562 0.085 7.63 3.46 8.59
9/9/2021 8:30:00 PM 18 64.4 0.085 7.61 3.57 8.58
9/9/2021 8:45:00 PM 17.91 64.238 0.086 7.56 3.5 8.57
9/9/2021 9:00:00 PM 17.81 64.058 0.086 7.57 3.74 8.58
9/9/2021 9:15:00 PM 17.72 63.896 0.087 7.54 3.64 8.59
9/9/2021 9:30:00 PM 17.62 63.716 0.087 7.52 3.68 8.6
9/9/2021 9:45:00 PM 17.52 63.536 0.088 7.53 4.18 8.62
9/9/2021 10:00:00 PM 17.41 63.338 0.088 7.51 4.08 8.64
9/9/2021 10:15:00 PM 17.32 63.176 0.088 7.51 3.89 8.66
9/9/2021 10:30:00 PM 17.22 62.996 0.088 7.49 3.59 8.67
9/9/2021 10:45:00 PM 17.14 62.852 0.088 7.5 3.05 8.69
9/9/2021 11:00:00 PM 17.05 62.69 0.088 7.5 3.09 8.71
9/9/2021 11:15:00 PM 16.96 62.528 0.088 7.49 3.08 8.73
9/9/2021 11:30:00 PM 16.88 62.384 0.088 7.5 3.4 8.75
9/9/2021 11:45:00 PM 16.8 62.24 0.088 7.46 3.61 8.77
9/10/2021 12:00:00 AM 16.73 62.114 0.088 7.48 3.67 8.78
9/10/2021 12:15:00 AM 16.65 61.97 0.088 7.46 3.64 8.8
9/10/2021 12:30:00 AM 16.58 61.844 0.088 7.46 3.38 8.82
9/10/2021 12:45:00 AM 16.51 61.718 0.088 7.47 3.39 8.84
9/10/2021 1:00:00 AM 16.44 61.592 0.088 7.48 3.33 8.86
9/10/2021 1:15:00 AM 16.38 61.484 0.088 7.46 3.11 8.88
9/10/2021 1:30:00 AM 16.31 61.358 0.088 7.48 3.06 8.89
9/10/2021 1:45:00 AM 16.25 61.25 0.088 7.45 3.29 8.9
9/10/2021 2:00:00 AM 16.18 61.124 0.088 7.47 3.24 8.93
9/10/2021 2:15:00 AM 16.13 61.034 0.088 7.46 3.35 8.93
9/10/2021 2:30:00 AM 16.07 60.926 0.088 7.47 3.41 8.95
9/10/2021 2:45:00 AM 16.02 60.836 0.088 7.44 3.03 8.97
9/10/2021 3:00:00 AM 15.97 60.746 0.088 7.46 3.5 8.98
9/10/2021 3:15:00 AM 15.93 60.674 0.088 7.45 3.01 8.98
9/10/2021 3:30:00 AM 15.86 60.548 0.088 7.46 3 9
9/10/2021 3:45:00 AM 15.79 60.422 0.088 7.44 3.06 9.02
9/10/2021 4:00:00 AM 15.73 60.314 0.088 7.45 3.13 9.03
9/10/2021 4:15:00 AM 15.66 60.188 0.088 7.44 3.08 9.04
9/10/2021 4:30:00 AM 15.6 60.08 0.088 7.44 2.99 9.05
9/10/2021 4:45:00 AM 15.53 59.954 0.088 7.46 3.05 9.08
9/10/2021 5:00:00 AM 15.47 59.846 0.088 7.44 3.09 9.09
9/10/2021 5:15:00 AM 15.41 59.738 0.088 7.45 3.19 9.1
9/10/2021 5:30:00 AM 15.36 59.648 0.088 7.44 3.08 9.11
9/10/2021 5:45:00 AM 15.3 59.54 0.088 7.45 3.11 9.13
9/10/2021 6:00:00 AM 15.25 59.45 0.088 7.46 2.96 9.14
9/10/2021 6:15:00 AM 15.2 59.36 0.088 7.42 2.9 9.15
9/10/2021 6:30:00 AM 15.14 59.252 0.088 7.45 3.02 9.17
9/10/2021 6:45:00 AM 15.08 59.144 0.088 7.45 3.07 9.19
9/10/2021 7:00:00 AM 15.02 59.036 0.088 7.45 3.14 9.22
9/10/2021 7:15:00 AM 14.97 58.946 0.088 7.44 3.12 9.27
9/10/2021 7:30:00 AM 14.92 58.856 0.088 7.48 3.11 9.34
9/10/2021 7:45:00 AM 14.88 58.784 0.087 7.47 3.03 9.43
9/10/2021 8:00:00 AM 14.87 58.766 0.087 7.53 3 9.53
9/10/2021 8:15:00 AM 14.85 58.73 0.087 7.54 2.98 9.62
9/10/2021 8:30:00 AM 14.85 58.73 0.087 7.59 3.03 9.7
9/10/2021 8:45:00 AM 14.88 58.784 0.087 7.61 2.94 9.82
9/10/2021 9:00:00 AM 14.91 58.838 0.087 7.66 2.96 9.92
9/10/2021 9:15:00 AM 14.94 58.892 0.086 7.68 3.04 9.99
9/10/2021 9:30:00 AM 15 59 0.086 7.76 2.98 10.05
9/10/2021 9:45:00 AM 15.06 59.108 0.086 7.78 2.9 10.08
9/10/2021 10:00:00 AM 15.13 59.234 0.086 7.82 2.87 10.12
9/10/2021 10:15:00 AM 15.26 59.468 0.086 7.91 2.92 10.2
9/10/2021 10:30:00 AM 15.36 59.648 0.085 7.99 2.87 10.25
9/10/2021 10:45:00 AM 15.48 59.864 0.085 8.06 2.82 10.28
9/10/2021 11:00:00 AM 15.58 60.044 0.085 8.08 2.91 10.26
9/10/2021 11:15:00 AM 15.7 60.26 0.085 8.14 2.85 10.27
9/10/2021 11:30:00 AM 15.84 60.512 0.085 8.2 2.83 10.27
9/10/2021 11:45:00 AM 15.98 60.764 0.085 8.26 2.88 10.27
9/10/2021 12:00:00 PM 16.18 61.124 0.086 8.31 2.9 10.28
9/10/2021 12:15:00 PM 16.39 61.502 0.086 8.39 3.06 10.27
9/10/2021 12:30:00 PM 16.64 61.952 0.086 8.46 2.97 10.27
9/10/2021 12:45:00 PM 16.87 62.366 0.086 8.53 2.89 10.23
9/10/2021 1:00:00 PM 17.08 62.744 0.085 8.56 2.9 10.19
9/10/2021 1:15:00 PM 17.34 63.212 0.085 8.63 2.9 10.13
9/10/2021 1:30:00 PM 17.79 64.022 0.085 8.7 2.84 10.14
9/10/2021 1:45:00 PM 18.08 64.544 0.085 8.74 2.9 10.04
9/10/2021 2:00:00 PM 18.34 65.012 0.085 8.78 2.92 9.97
9/10/2021 2:15:00 PM 18.52 65.336 0.084 8.81 3.07 9.88
9/10/2021 2:30:00 PM 18.58 65.444 0.084 8.76 3.1 9.75
9/10/2021 2:45:00 PM 18.62 65.516 0.084 8.76 3.11 9.7
9/10/2021 3:00:00 PM 18.61 65.498 0.084 8.77 3.08 9.7
9/10/2021 3:15:00 PM 18.61 65.498 0.084 8.79 3.17 9.73
9/10/2021 3:30:00 PM 18.65 65.57 0.084 8.84 3.06 9.79
9/10/2021 3:45:00 PM 18.69 65.642 0.084 8.88 3.1 9.78
9/10/2021 4:00:00 PM 18.67 65.606 0.084 8.85 3.1 9.67
9/10/2021 4:15:00 PM 18.67 65.606 0.084 8.83 3.11 9.62
9/10/2021 4:30:00 PM 18.61 65.498 0.084 8.79 3.13 9.54
9/10/2021 4:45:00 PM 18.55 65.39 0.084 8.75 3.12 9.5
9/10/2021 5:00:00 PM 18.49 65.282 0.084 8.69 3.15 9.48
9/10/2021 5:15:00 PM 18.45 65.21 0.085 8.64 3.13 9.42
9/10/2021 5:30:00 PM 18.36 65.048 0.085 8.54 3.06 9.34
9/10/2021 5:45:00 PM 18.28 64.904 0.085 8.38 3.2 9.24
9/10/2021 6:00:00 PM 18.18 64.724 0.085 8.25 2.91 9.21
9/10/2021 6:15:00 PM 18.1 64.58 0.085 8.15 2.95 9.15
9/10/2021 6:30:00 PM 18.02 64.436 0.085 8.03 2.93 9.1
9/10/2021 6:45:00 PM 17.93 64.274 0.085 7.95 2.82 9.05
9/10/2021 7:00:00 PM 17.85 64.13 0.086 7.89 2.98 8.99
9/10/2021 7:15:00 PM 17.78 64.004 0.086 7.83 3.09 8.93
9/10/2021 7:30:00 PM 17.71 63.878 0.087 7.77 2.98 8.87
9/10/2021 7:45:00 PM 17.64 63.752 0.087 7.71 3.03 8.81
9/10/2021 8:00:00 PM 17.58 63.644 0.088 7.64 3.23 8.76
9/10/2021 8:15:00 PM 17.52 63.536 0.088 7.62 3.52 8.73
9/10/2021 8:30:00 PM 17.45 63.41 0.088 7.6 3.16 8.71
9/10/2021 8:45:00 PM 17.38 63.284 0.088 7.57 2.99 8.71
9/10/2021 9:00:00 PM 17.3 63.14 0.088 7.57 3.06 8.71
9/10/2021 9:15:00 PM 17.22 62.996 0.088 7.55 2.96 8.71
9/10/2021 9:30:00 PM 17.13 62.834 0.088 7.51 3.05 8.73
9/10/2021 9:45:00 PM 17.05 62.69 0.089 7.51 3.05 8.74
9/10/2021 10:00:00 PM 16.96 62.528 0.089 7.52 3.12 8.76
9/10/2021 10:15:00 PM 16.86 62.348 0.089 7.49 3.08 8.77
9/10/2021 10:30:00 PM 16.76 62.168 0.089 7.52 3.13 8.8
9/10/2021 10:45:00 PM 16.67 62.006 0.089 7.46 3.36 8.82
9/10/2021 11:00:00 PM 16.58 61.844 0.089 7.5 3.19 8.83
9/10/2021 11:15:00 PM 16.49 61.682 0.089 7.48 3.11 8.86
9/10/2021 11:30:00 PM 16.4 61.52 0.089 7.5 3.55 8.88
9/10/2021 11:45:00 PM 16.31 61.358 0.089 7.46 3.12 8.89
9/11/2021 12:00:00 AM 16.23 61.214 0.09 7.48 3.23 8.92
9/11/2021 12:15:00 AM 16.15 61.07 0.09 7.47 3.16 8.94
9/11/2021 12:30:00 AM 16.07 60.926 0.09 7.47 3.33 8.95
9/11/2021 12:45:00 AM 16 60.8 0.09 7.49 3.4 8.97
9/11/2021 1:00:00 AM 15.92 60.656 0.09 7.46 3.41 9
9/11/2021 1:15:00 AM 15.83 60.494 0.091 7.49 3.39 9.02
9/11/2021 1:30:00 AM 15.73 60.314 0.091 7.46 3.38 9.04
9/11/2021 1:45:00 AM 15.65 60.17 0.092 7.48 3.32 9.05
9/11/2021 2:00:00 AM 15.56 60.008 0.093 7.48 3.41 9.09
9/11/2021 2:15:00 AM 15.47 59.846 0.094 7.48 3.35 9.11
9/11/2021 2:30:00 AM 15.4 59.72 0.095 7.48 3.35 9.12
9/11/2021 2:45:00 AM 15.32 59.576 0.096 7.44 3.38 9.15
9/11/2021 3:00:00 AM 15.24 59.432 0.098 7.47 3.38 9.17
9/11/2021 3:15:00 AM 15.17 59.306 0.1 7.47 3.26 9.19
9/11/2021 3:30:00 AM 15.1 59.18 0.103 7.46 3.08 9.2
9/11/2021 3:45:00 AM 15.01 59.018 0.106 7.47 3.12 9.22
9/11/2021 4:00:00 AM 14.93 58.874 0.11 7.46 3.04 9.24
9/11/2021 4:15:00 AM 14.86 58.748 0.114 7.47 3.55 9.26
9/11/2021 4:30:00 AM 14.79 58.622 0.118 7.44 3.16 9.28
9/11/2021 4:45:00 AM 14.74 58.532 0.121 7.46 3.18 9.29
9/11/2021 5:00:00 AM 14.69 58.442 0.125 7.46 3.16 9.3
9/11/2021 5:15:00 AM 14.63 58.334 0.129 7.46 3.37 9.32
9/11/2021 5:30:00 AM 14.58 58.244 0.132 7.43 3.01 9.34
9/11/2021 5:45:00 AM 14.53 58.154 0.134 7.44 2.72 9.34
9/11/2021 6:00:00 AM 14.48 58.064 0.137 7.44 2.68 9.36
9/11/2021 6:15:00 AM 14.43 57.974 0.139 7.46 2.69 9.37
9/11/2021 6:30:00 AM 14.39 57.902 0.141 7.43 2.89 9.37
9/11/2021 6:45:00 AM 14.34 57.812 0.142 7.46 3 9.4
9/11/2021 7:00:00 AM 14.28 57.704 0.144 7.44 3.06 9.42
9/11/2021 7:15:00 AM 14.23 57.614 0.145 7.47 2.71 9.46
9/11/2021 7:30:00 AM 14.19 57.542 0.146 7.45 2.78 9.53
9/11/2021 7:45:00 AM 14.16 57.488 0.147 7.49 3.25 9.58
9/11/2021 8:00:00 AM 14.13 57.434 0.148 7.49 3.05 9.67
9/11/2021 8:15:00 AM 14.12 57.416 0.149 7.54 2.64 9.79
9/11/2021 8:30:00 AM 14.12 57.416 0.149 7.54 2.89 9.93
9/11/2021 8:45:00 AM 14.14 57.452 0.15 7.61 2.98 10.07
9/11/2021 9:00:00 AM 14.14 57.452 0.15 7.65 3.04 10.18
9/11/2021 9:15:00 AM 14.16 57.488 0.15 7.7 2.96 10.26
9/11/2021 9:30:00 AM 14.21 57.578 0.151 7.74 3.01 10.37
9/11/2021 9:45:00 AM 14.27 57.686 0.151 7.83 2.99 10.47
9/11/2021 10:00:00 AM 14.35 57.83 0.151 7.86 2.89 10.48
9/11/2021 10:15:00 AM 14.39 57.902 0.151 7.88 2.92 10.45
9/11/2021 10:30:00 AM 14.52 58.136 0.151 7.92 2.91 10.43
9/11/2021 10:45:00 AM 14.66 58.388 0.152 7.92 2.86 10.42
9/11/2021 11:00:00 AM 14.83 58.694 0.152 7.98 2.84 10.41
9/11/2021 11:15:00 AM 15.01 59.018 0.152 7.99 2.88 10.41
9/11/2021 11:30:00 AM 15.21 59.378 0.152 8.06 2.84 10.4
9/11/2021 11:45:00 AM 15.41 59.738 0.152 8.1 2.84 10.39
9/11/2021 12:00:00 PM 15.56 60.008 0.153 8.13 2.68 10.36
9/11/2021 12:15:00 PM 15.61 60.098 0.153 8.15 2.54 10.32
9/11/2021 12:30:00 PM 15.81 60.458 0.153 8.2 2.42 10.31
9/11/2021 12:45:00 PM 15.91 60.638 0.153 8.23 2.29 10.29
9/11/2021 1:00:00 PM 16.21 61.178 0.153 8.3 2.26 10.26
9/11/2021 1:15:00 PM 16.43 61.574 0.153 8.38 2.21 10.24
9/11/2021 1:30:00 PM 16.71 62.078 0.152 8.43 2.27 10.19
9/11/2021 1:45:00 PM 16.9 62.42 0.152 8.45 2.26 10.1
9/11/2021 2:00:00 PM 17.2 62.96 0.152 8.46 2.24 10.06
9/11/2021 2:15:00 PM 17.6 63.68 0.151 8.53 2.19 10.05
9/11/2021 2:30:00 PM 18.04 64.472 0.15 8.6 3.2 9.99
9/11/2021 2:45:00 PM 18.43 65.174 0.148 8.65 3.35 9.93
9/11/2021 3:00:00 PM 18.74 65.732 0.146 8.69 2.32 9.86
9/11/2021 3:15:00 PM 18.88 65.984 0.143 8.71 2.58 9.78
9/11/2021 3:30:00 PM 18.96 66.128 0.141 8.7 3.36 9.68
9/11/2021 3:45:00 PM 19 66.2 0.138 8.69 3.63 9.65
9/11/2021 4:00:00 PM 19.05 66.29 0.135 8.72 3.39 9.59
9/11/2021 4:15:00 PM 19.05 66.29 0.132 8.71 2.58 9.52
9/11/2021 4:30:00 PM 19.05 66.29 0.128 8.68 11 9.43
9/11/2021 4:45:00 PM 19.02 66.236 0.125 8.63 7.1 9.36
9/11/2021 5:00:00 PM 19.02 66.236 0.123 8.54 8.06 9.26
9/11/2021 5:15:00 PM 19.02 66.236 0.12 8.45 7.51 9.19
9/11/2021 5:30:00 PM 19 66.2 0.118 8.36 9.2 9.09
9/11/2021 5:45:00 PM 18.93 66.074 0.116 8.23 8.79 9.02
9/11/2021 6:00:00 PM 18.84 65.912 0.115 8.1 7.16 8.95
9/11/2021 6:15:00 PM 18.76 65.768 0.113 7.99 7.23 8.91
9/11/2021 6:30:00 PM 18.65 65.57 0.112 7.9 7.6 8.87
9/11/2021 6:45:00 PM 18.53 65.354 0.111 7.84 6.98 8.83
9/11/2021 7:00:00 PM 18.42 65.156 0.11 7.77 6.78 8.8
9/11/2021 7:15:00 PM 18.31 64.958 0.109 7.74 3.07 8.76
9/11/2021 7:30:00 PM 18.2 64.76 0.108 7.7 3.19 8.71
9/11/2021 7:45:00 PM 18.11 64.598 0.107 7.65 3.23 8.67
9/11/2021 8:00:00 PM 18.02 64.436 0.106 7.62 2.29 8.63
9/11/2021 8:15:00 PM 17.95 64.31 0.106 7.59 2.42 8.59
9/11/2021 8:30:00 PM 17.88 64.184 0.105 7.57 2.63 8.58
9/11/2021 8:45:00 PM 17.82 64.076 0.105 7.56 2.98 8.58
9/11/2021 9:00:00 PM 17.76 63.968 0.105 7.49 3 8.57
9/11/2021 9:15:00 PM 17.7 63.86 0.104 7.52 3.28 8.57
9/11/2021 9:30:00 PM 17.64 63.752 0.104 7.52 3.31 8.58
9/11/2021 9:45:00 PM 17.58 63.644 0.104 7.48 3.01 8.59
9/11/2021 10:00:00 PM 17.52 63.536 0.104 7.47 2.66 8.6
9/11/2021 10:15:00 PM 17.45 63.41 0.104 7.48 2.66 8.62
9/11/2021 10:30:00 PM 17.38 63.284 0.103 7.49 2.85 8.63
9/11/2021 10:45:00 PM 17.31 63.158 0.103 7.47 3.3 8.63
9/11/2021 11:00:00 PM 17.24 63.032 0.103 7.49 3.03 8.66
9/11/2021 11:15:00 PM 17.17 62.906 0.103 7.49 3.29 8.67
9/11/2021 11:30:00 PM 17.1 62.78 0.103 7.47 3.18 8.68
9/11/2021 11:45:00 PM 17.03 62.654 0.103 7.48 3.23 8.7
9/12/2021 12:00:00 AM 16.97 62.546 0.103 7.48 3.26 8.72
9/12/2021 12:15:00 AM 16.9 62.42 0.103 7.48 3.13 8.74
9/12/2021 12:30:00 AM 16.85 62.33 0.103 7.48 3.19 8.75
9/12/2021 12:45:00 AM 16.79 62.222 0.103 7.44 3.22 8.76
9/12/2021 1:00:00 AM 16.73 62.114 0.103 7.47 3.11 8.77
9/12/2021 1:15:00 AM 16.67 62.006 0.103 7.43 2.96 8.79
9/12/2021 1:30:00 AM 16.61 61.898 0.103 7.44 3.04 8.81
9/12/2021 1:45:00 AM 16.56 61.808 0.103 7.45 3.11 8.82
9/12/2021 2:00:00 AM 16.5 61.7 0.103 7.47 3.04 8.84
9/12/2021 2:15:00 AM 16.44 61.592 0.103 7.47 3.11 8.85
9/12/2021 2:30:00 AM 16.39 61.502 0.103 7.46 3.14 8.86
9/12/2021 2:45:00 AM 16.34 61.412 0.103 7.47 2.95 8.87
9/12/2021 3:00:00 AM 16.29 61.322 0.103 7.45 2.96 8.88
9/12/2021 3:15:00 AM 16.24 61.232 0.103 7.46 2.97 8.9
9/12/2021 3:30:00 AM 16.19 61.142 0.103 7.45 3.11 8.91
9/12/2021 3:45:00 AM 16.15 61.07 0.102 7.46 3.15 8.92
9/12/2021 4:00:00 AM 16.11 60.998 0.102 7.46 3.24 8.94
9/12/2021 4:15:00 AM 16.08 60.944 0.102 7.46 3.21 8.93
9/12/2021 4:30:00 AM 16.05 60.89 0.102 7.45 3.22 8.94
9/12/2021 4:45:00 AM 16.02 60.836 0.101 7.45 3.26 8.95
9/12/2021 5:00:00 AM 15.99 60.782 0.101 7.45 3.27 8.97
9/12/2021 5:15:00 AM 15.97 60.746 0.101 7.45 3.11 8.98
9/12/2021 5:30:00 AM 15.95 60.71 0.101 7.44 3.16 8.98
9/12/2021 5:45:00 AM 15.93 60.674 0.101 7.45 3.19 8.98
9/12/2021 6:00:00 AM 15.91 60.638 0.101 7.41 3.22 8.99
9/12/2021 6:15:00 AM 15.89 60.602 0.101 7.44 3.26 8.99
9/12/2021 6:30:00 AM 15.87 60.566 0.101 7.44 3.21 8.98
9/12/2021 6:45:00 AM 15.85 60.53 0.101 7.42 4.94 9
9/12/2021 7:00:00 AM 15.84 60.512 0.101 7.42 2.76 9.01
9/12/2021 7:15:00 AM 15.83 60.494 0.101 7.45 2.93 9.03
9/12/2021 7:30:00 AM 15.83 60.494 0.101 7.43 2.54 9.06
9/12/2021 7:45:00 AM 15.84 60.512 0.101 7.47 2.78 9.12
9/12/2021 8:00:00 AM 15.85 60.53 0.101 7.47 2.72 9.21
9/12/2021 8:15:00 AM 15.86 60.548 0.1 7.48 3.13 9.35
9/12/2021 8:30:00 AM 15.88 60.584 0.1 7.54 4.04 9.47
9/12/2021 8:45:00 AM 15.91 60.638 0.1 7.57 3.03 9.52
9/12/2021 9:00:00 AM 15.93 60.674 0.1 7.58 3.8 9.53
9/12/2021 9:15:00 AM 15.95 60.71 0.1 7.55 2.77 9.51
9/12/2021 9:30:00 AM 15.97 60.746 0.1 7.57 2.56 9.54
9/12/2021 9:45:00 AM 16 60.8 0.1 7.62 2.82 9.57
9/12/2021 10:00:00 AM 16.05 60.89 0.099 7.65 2.77 9.66
9/12/2021 10:15:00 AM 16.1 60.98 0.099 7.69 2.99 9.75
9/12/2021 10:30:00 AM 16.14 61.052 0.099 7.73 3.09 9.8
9/12/2021 10:45:00 AM 16.2 61.16 0.098 7.76 2.82 9.86
9/12/2021 11:00:00 AM 16.26 61.268 0.098 7.78 3.03 9.9
9/12/2021 11:15:00 AM 16.33 61.394 0.098 7.87 3.07 9.94
9/12/2021 11:30:00 AM 16.43 61.574 0.097 7.9 3.08 10.01
9/12/2021 11:45:00 AM 16.53 61.754 0.097 8 2.96 10.07
9/12/2021 12:00:00 PM 16.67 62.006 0.097 8.13 2.94 10.14
9/12/2021 12:15:00 PM 16.78 62.204 0.097 8.19 3.46 10.15
9/12/2021 12:30:00 PM 16.95 62.51 0.096 8.31 2.98 10.19
9/12/2021 12:45:00 PM 17.03 62.654 0.096 8.37 2.89 10.16
9/12/2021 1:00:00 PM 17.13 62.834 0.096 8.41 2.92 10.14
9/12/2021 1:15:00 PM 17.32 63.176 0.096 8.46 3.27 10.13
9/12/2021 1:30:00 PM 17.5 63.5 0.096 8.53 2.97 10.16
9/12/2021 1:45:00 PM 17.71 63.878 0.096 8.61 3.46 10.14
9/12/2021 2:00:00 PM 17.93 64.274 0.095 8.67 3.36 10.11
9/12/2021 2:15:00 PM 18.14 64.652 0.095 8.69 3.3 10.09
9/12/2021 2:30:00 PM 18.36 65.048 0.094 8.77 3.25 10.04
9/12/2021 2:45:00 PM 18.52 65.336 0.094 8.8 3.25 9.99
9/12/2021 3:00:00 PM 18.73 65.714 0.094 8.81 3.42 9.94
9/12/2021 3:15:00 PM 18.87 65.966 0.094 8.85 3.32 9.86
9/12/2021 3:30:00 PM 18.93 66.074 0.095 8.8 3.34 9.74
9/12/2021 3:45:00 PM 18.98 66.164 0.094 8.83 3.04 9.69
9/12/2021 4:00:00 PM 19.05 66.29 0.094 8.85 2.93 9.69
9/12/2021 4:15:00 PM 19.11 66.398 0.094 8.86 3.12 9.64
9/12/2021 4:30:00 PM 19.19 66.542 0.094 8.87 2.83 9.6
9/12/2021 4:45:00 PM 19.3 66.74 0.093 8.87 2.91 9.55
9/12/2021 5:00:00 PM 19.41 66.938 0.093 8.87 2.91 9.49
9/12/2021 5:15:00 PM 19.5 67.1 0.092 8.83 2.95 9.39
9/12/2021 5:30:00 PM 19.56 67.208 0.092 8.8 2.97 9.31
9/12/2021 5:45:00 PM 19.59 67.262 0.092 8.73 510.45 9.21
9/12/2021 6:00:00 PM 19.6 67.28 0.092 8.64 3.52 9.11
9/12/2021 6:15:00 PM 19.61 67.298 0.092 8.45 3.58 8.99
9/12/2021 6:30:00 PM 19.61 67.298 0.092 8.32 3.27 8.87
9/12/2021 6:45:00 PM 19.59 67.262 0.092 8.15 3.24 8.76
9/12/2021 7:00:00 PM 19.57 67.226 0.092 8 3.13 8.67
9/12/2021 7:15:00 PM 19.53 67.154 0.092 7.88 3.05 8.57
9/12/2021 7:30:00 PM 19.5 67.1 0.093 7.75 3.05 8.48
9/12/2021 7:45:00 PM 19.47 67.046 0.093 7.71 3.55 8.39
9/12/2021 8:00:00 PM 19.43 66.974 0.094 7.6 3.13 8.33
9/12/2021 8:15:00 PM 19.39 66.902 0.094 7.59 2.65 8.29
9/12/2021 8:30:00 PM 19.35 66.83 0.094 7.54 2.76 8.27
9/12/2021 8:45:00 PM 19.32 66.776 0.095 7.51 3.2 8.25
9/12/2021 9:00:00 PM 19.28 66.704 0.095 7.48 3.34 8.25
9/12/2021 9:15:00 PM 19.24 66.632 0.096 7.5 3.22 8.24
9/12/2021 9:30:00 PM 19.2 66.56 0.096 7.48 3.26 8.24
9/12/2021 9:45:00 PM 19.17 66.506 0.096 7.43 3.21 8.23
9/12/2021 10:00:00 PM 19.13 66.434 0.097 7.44 3.2 8.25
9/12/2021 10:15:00 PM 19.09 66.362 0.097 7.44 3.14 8.25
9/12/2021 10:30:00 PM 19.05 66.29 0.097 7.45 3.19 8.25
9/12/2021 10:45:00 PM 19.01 66.218 0.097 7.44 3.26 8.26
9/12/2021 11:00:00 PM 18.98 66.164 0.098 7.39 3.2 8.27
9/12/2021 11:15:00 PM 18.94 66.092 0.098 7.4 3.24 8.28
9/12/2021 11:30:00 PM 18.9 66.02 0.098 7.4 3.23 8.28
9/12/2021 11:45:00 PM 18.87 65.966 0.098 7.42 3.37 8.29
9/13/2021 12:00:00 AM 18.83 65.894 0.099 7.43 3.35 8.29
9/13/2021 12:15:00 AM 18.8 65.84 0.099 7.42 2.79 8.31
9/13/2021 12:30:00 AM 18.77 65.786 0.099 7.39 2.72 8.32
9/13/2021 12:45:00 AM 18.74 65.732 0.099 7.43 2.83 8.32
9/13/2021 1:00:00 AM 18.71 65.67799 0.099 7.42 2.74 8.33
9/13/2021 1:15:00 AM 18.68 65.624 0.1 7.43 2.74 8.34
9/13/2021 1:30:00 AM 18.66 65.588 0.1 7.4 2.69 8.34
9/13/2021 1:45:00 AM 18.63 65.534 0.1 7.43 2.84 8.36
9/13/2021 2:00:00 AM 18.61 65.498 0.1 7.43 2.82 8.37
9/13/2021 2:15:00 AM 18.58 65.444 0.1 7.39 2.74 8.37
9/13/2021 2:30:00 AM 18.56 65.408 0.101 7.43 2.8 8.37
9/13/2021 2:45:00 AM 18.53 65.354 0.101 7.43 2.79 8.38
9/13/2021 3:00:00 AM 18.5 65.3 0.101 7.42 2.76 8.38
9/13/2021 3:15:00 AM 18.48 65.264 0.101 7.41 2.8 8.39
9/13/2021 3:30:00 AM 18.45 65.21 0.1 7.42 2.88 8.4
9/13/2021 3:45:00 AM 18.43 65.174 0.1 7.43 3.07 8.41
9/13/2021 4:00:00 AM 18.4 65.12 0.1 7.4 3.05 8.42
9/13/2021 4:15:00 AM 18.37 65.066 0.1 7.42 3.16 8.42
9/13/2021 4:30:00 AM 18.34 65.012 0.1 7.39 3.12 8.43
9/13/2021 4:45:00 AM 18.3 64.94 0.1 7.4 3.08 8.43
9/13/2021 5:00:00 AM 18.27 64.886 0.1 7.42 3.13 8.44
9/13/2021 5:15:00 AM 18.23 64.814 0.1 7.38 3.07 8.45
9/13/2021 5:30:00 AM 18.2 64.76 0.1 7.42 3.09 8.46
9/13/2021 5:45:00 AM 18.17 64.706 0.099 7.42 3.04 8.47
9/13/2021 6:00:00 AM 18.15 64.67 0.099 7.41 2.99 8.47
9/13/2021 6:15:00 AM 18.12 64.616 0.099 7.38 3.23 8.47
9/13/2021 6:30:00 AM 18.1 64.58 0.099 7.39 3.83 8.48
9/13/2021 6:45:00 AM 18.07 64.526 0.099 7.41 3.46 8.49
9/13/2021 7:00:00 AM 18.05 64.49 0.099 7.41 3.13 8.49
9/13/2021 7:15:00 AM 18.03 64.454 0.099 7.4 4.12 8.51
9/13/2021 7:30:00 AM 18.02 64.436 0.099 7.39 3.54 8.54
9/13/2021 7:45:00 AM 18 64.4 0.098 7.43 3.66 8.61
9/13/2021 8:00:00 AM 17.99 64.382 0.098 7.44 4.33 8.66
9/13/2021 8:15:00 AM 17.99 64.382 0.098 7.43 4.91 8.76
9/13/2021 8:30:00 AM 17.99 64.382 0.098 7.47 3.16 8.85
9/13/2021 8:45:00 AM 18 64.4 0.098 7.49 3.86 8.94
9/13/2021 9:00:00 AM 18.02 64.436 0.098 7.53 3.61 9.1
9/13/2021 9:15:00 AM 18.05 64.49 0.097 7.58 3.68 9.2
9/13/2021 9:30:00 AM 18.08 64.544 0.097 7.56 2.52 9.3
9/13/2021 9:45:00 AM 18.12 64.616 0.097 7.63 2.8 9.37
9/13/2021 10:00:00 AM 18.16 64.688 0.096 7.68 2.71 9.41
9/13/2021 10:15:00 AM 18.19 64.742 0.096 7.67 7.46 9.38
9/13/2021 10:30:00 AM 18.22 64.796 0.096 7.71 2.66 9.35
9/13/2021 10:45:00 AM 18.25 64.85 0.096 7.73 2.62 9.35
9/13/2021 11:00:00 AM 18.29 64.922 0.095 7.74 2.65 9.37
9/13/2021 11:15:00 AM 18.33 64.994 0.095 7.72 2.77 9.38
9/13/2021 11:30:00 AM 18.38 65.084 0.095 7.76 2.95 9.4
9/13/2021 11:45:00 AM 18.43 65.174 0.095 7.8 2.95 9.37
9/13/2021 12:00:00 PM 18.5 65.3 0.094 7.85 3.08 9.45
9/13/2021 12:15:00 PM 18.57 65.426 0.094 7.85 3.03 9.46
9/13/2021 12:30:00 PM 18.67 65.606 0.094 7.96 3.19 9.53
9/13/2021 12:45:00 PM 18.85 65.93 0.094 8.09 3.51 9.64
9/13/2021 1:00:00 PM 18.95 66.11 0.094 8.09 3.02 9.62
9/13/2021 1:15:00 PM 19.05 66.29 0.094 8.19 2.88 9.63
9/13/2021 1:30:00 PM 19.33 66.794 0.094 8.24 3.07 9.61
9/13/2021 1:45:00 PM 19.65 67.37 0.094 8.45 2.89 9.76
9/13/2021 2:00:00 PM 19.97 67.946 0.093 8.49 2.98 9.69
9/13/2021 2:15:00 PM 20.32 68.576 0.093 8.64 2.86 9.78
9/13/2021 2:30:00 PM 20.59 69.062 0.093 8.73 2.75 9.71
9/13/2021 2:45:00 PM 20.75 69.35 0.093 8.77 2.92 9.67
9/13/2021 3:00:00 PM 20.9 69.62 0.094 8.8 3.71 9.59
9/13/2021 3:15:00 PM 20.95 69.71 0.094 8.83 4.39 9.5
9/13/2021 3:30:00 PM 20.93 69.674 0.06 8.78 9.16 9.42
9/13/2021 3:45:00 PM 20.93 69.674 0.093 8.81 6.07 9.33
9/13/2021 4:00:00 PM 20.97 69.746 0.092 8.85 3.47 9.35
9/13/2021 4:15:00 PM 21.03 69.854 0.085 8.83 5.04 9.32
9/13/2021 4:30:00 PM 21.07 69.926 0.085 8.84 9.1 9.16
9/13/2021 4:45:00 PM 21.11 69.998 0.083 8.76 3.32 8.99
9/13/2021 5:00:00 PM 21.18 70.124 0.081 8.68 8.46 8.85
9/13/2021 5:15:00 PM 21.26 70.268 0.081 8.66 5.06 8.89
9/13/2021 5:30:00 PM 21.33 70.394 0.078 8.64 4.21 8.86
9/13/2021 5:45:00 PM 21.37 70.466 0.079 8.58 3.4 8.76
9/13/2021 6:00:00 PM 21.4 70.52 0.076 8.49 6.08 8.67
9/13/2021 6:15:00 PM 21.4 70.52 0.074 8.31 8.99 8.5
9/13/2021 6:30:00 PM 21.38 70.484 0.074 8.13 2.34 8.33
9/13/2021 6:45:00 PM 21.3 70.34 0.079 7.93 3.14 8.17
9/13/2021 7:00:00 PM 21.21 70.17799 0.08 7.8 3.45 8.05
9/13/2021 7:15:00 PM 21.11 69.998 0.075 7.71 3.03 7.99
9/13/2021 7:30:00 PM 21.03 69.854 0.076 7.65 3.45 7.93
9/13/2021 7:45:00 PM 20.94 69.692 0.075 7.61 3.81 7.89
9/13/2021 8:00:00 PM 20.86 69.548 0.075 7.59 3.44 7.89
9/13/2021 8:15:00 PM 20.77 69.386 0.074 7.57 3.53 7.88
9/13/2021 8:30:00 PM 20.68 69.224 0.074 7.5 3.58 7.91
9/13/2021 8:45:00 PM 20.6 69.08 0.07 7.49 3.97 7.89
9/13/2021 9:00:00 PM 20.53 68.954 0.077 7.51 3.32 7.91
9/13/2021 9:15:00 PM 20.46 68.828 0.078 7.5 9.92 7.9
9/13/2021 9:30:00 PM 20.39 68.702 0.075 7.47 3.8 7.94
9/13/2021 9:45:00 PM 20.33 68.594 0.082 7.49 3.17 7.94
9/13/2021 10:00:00 PM 20.26 68.468 0.077 7.44 4.13 7.94
9/13/2021 10:15:00 PM 20.2 68.36 0.077 7.48 3.54 7.98
9/13/2021 10:30:00 PM 20.13 68.234 0.078 7.43 3.35 8.02
9/13/2021 10:45:00 PM 20.07 68.126 0.077 7.45 3.3 8.04
9/13/2021 11:00:00 PM 20.02 68.036 0.077 7.44 3.86 8.06
9/13/2021 11:15:00 PM 19.96 67.92799 0.077 7.44 3.71 8.08
9/13/2021 11:30:00 PM 19.9 67.82 0.072 7.45 4.54 8.1
9/13/2021 11:45:00 PM 19.84 67.712 0.076 7.44 8.43 8.12
9/14/2021 12:00:00 AM 19.79 67.622 0.076 7.48 3.66 8.15
9/14/2021 12:15:00 AM 19.74 67.532 0.076 7.48 3.71 8.15
9/14/2021 12:30:00 AM 19.68 67.424 0.076 7.48 3.68 8.18
9/14/2021 12:45:00 AM 19.63 67.334 0.076 7.48 3.58 8.19
9/14/2021 1:00:00 AM 19.58 67.244 0.074 7.48 4.42 8.23
9/14/2021 1:15:00 AM 19.52 67.136 0.075 7.48 4.29 8.25
9/14/2021 1:30:00 AM 19.47 67.046 0.076 7.48 4.03 8.26
9/14/2021 1:45:00 AM 19.4 66.92 0.073 7.49 7.56 8.29
9/14/2021 2:00:00 AM 19.34 66.812 0.073 7.46 4.12 8.3
9/14/2021 2:15:00 AM 19.27 66.686 0.074 7.47 4.61 8.32
9/14/2021 2:30:00 AM 19.2 66.56 0.069 7.47 5.66 8.33
9/14/2021 2:45:00 AM 19.14 66.452 0.074 7.46 4.14 8.34
9/14/2021 3:00:00 AM 19.08 66.344 0.074 7.46 9.97 8.36
9/14/2021 3:15:00 AM 19.03 66.254 0.072 7.42 5.1 8.37
9/14/2021 3:30:00 AM 18.98 66.164 0.071 7.44 6.28 8.38
9/14/2021 3:45:00 AM 18.93 66.074 0.074 7.45 3.75 8.39
9/14/2021 4:00:00 AM 18.88 65.984 0.072 7.43 4.04 8.4
9/14/2021 4:15:00 AM 18.83 65.894 0.07 7.44 4.99 8.41
9/14/2021 4:30:00 AM 18.79 65.82201 0.07 7.44 4.78 8.42
9/14/2021 4:45:00 AM 18.75 65.75 0.072 7.44 9.83 8.43
9/14/2021 5:00:00 AM 18.71 65.67799 0.077 7.43 4.23 8.43
9/14/2021 5:15:00 AM 18.66 65.588 0.073 7.42 4.14 8.44
9/14/2021 5:30:00 AM 18.63 65.534 0.072 7.42 4.16 8.46
9/14/2021 5:45:00 AM 18.6 65.48 0.071 7.4 10.29 8.46
9/14/2021 6:00:00 AM 18.57 65.426 0.069 7.43 6.54 8.46
9/14/2021 6:15:00 AM 18.54 65.372 0.07 7.43 4.89 8.47
9/14/2021 6:30:00 AM 18.52 65.336 0.072 7.39 3.97 8.48
9/14/2021 6:45:00 AM 18.49 65.282 0.071 7.43 3.82 8.48
9/14/2021 7:00:00 AM 18.47 65.246 0.071 7.4 4.29 8.49
9/14/2021 7:15:00 AM 18.45 65.21 0.07 7.44 5 8.52
9/14/2021 7:30:00 AM 18.43 65.174 0.07 7.45 4.87 8.56
9/14/2021 7:45:00 AM 18.42 65.156 0.068 7.45 5.06 8.61
9/14/2021 8:00:00 AM 18.41 65.138 0.071 7.48 4.36 8.67
9/14/2021 8:15:00 AM 18.41 65.138 0.071 7.49 4.6 8.73
9/14/2021 8:30:00 AM 18.41 65.138 0.069 7.53 5.19 8.84
9/14/2021 8:45:00 AM 18.43 65.174 0.068 7.56 5.23 8.97
9/14/2021 9:00:00 AM 18.46 65.228 0.066 7.61 4.11 9.1
9/14/2021 9:15:00 AM 18.49 65.282 0.071 7.67 5.39 9.21
9/14/2021 9:30:00 AM 18.54 65.372 0.07 7.73 6.09 9.33
9/14/2021 9:45:00 AM 18.62 65.516 0.07 7.81 5.06 9.45
9/14/2021 10:00:00 AM 18.69 65.642 0.071 7.87 3.94 9.52
9/14/2021 10:15:00 AM 18.77 65.786 0.071 7.98 4.07 9.61
9/14/2021 10:30:00 AM 18.89 66.002 0.07 8.08 4.42 9.68
9/14/2021 10:45:00 AM 19.01 66.218 0.07 8.18 4.36 9.71
9/14/2021 11:00:00 AM 19.16 66.488 0.071 8.28 3.48 9.77
9/14/2021 11:15:00 AM 19.31 66.758 0.069 8.4 4.14 9.79
9/14/2021 11:30:00 AM 19.48 67.064 0.07 8.45 4.64 9.78
9/14/2021 11:45:00 AM 19.63 67.334 0.07 8.55 3.81 9.78
9/14/2021 12:00:00 PM 19.74 67.532 0.069 8.6 5.13 9.77
9/14/2021 12:15:00 PM 19.96 67.92799 0.069 8.68 6.55 9.76
9/14/2021 12:30:00 PM 20.07 68.126 0.068 8.72 3.48 9.7
9/14/2021 12:45:00 PM 20.26 68.468 0.069 8.77 5.87 9.66
9/14/2021 1:00:00 PM 20.5 68.9 0.069 8.82 3.83 9.63
9/14/2021 1:15:00 PM 20.86 69.548 0.068 8.88 5.21 9.61
9/14/2021 1:30:00 PM 21.11 69.998 0.068 8.92 3.54 9.58
9/14/2021 1:45:00 PM 21.32 70.376 0.068 8.97 4.12 9.51
9/14/2021 2:00:00 PM 21.57 70.826 0.069 8.98 3.38 9.44
9/14/2021 2:15:00 PM 21.8 71.24 0.069 9.02 4.09 9.39
9/14/2021 2:30:00 PM 22.04 71.672 0.069 9.06 3.76 9.34
9/14/2021 2:45:00 PM 22.24 72.032 0.068 9.09 3.14 9.31
9/14/2021 3:00:00 PM 22.39 72.302 0.066 9.11 4.26 9.25
9/14/2021 3:15:00 PM 22.52 72.536 0.069 9.1 4.94 9.23
9/14/2021 3:30:00 PM 22.61 72.698 0.069 9.15 3.76 9.19
9/14/2021 3:45:00 PM 22.69 72.842 0.069 9.16 3.6 9.12
9/14/2021 4:00:00 PM 22.76 72.968 0.069 9.17 3.96 9.07
9/14/2021 4:15:00 PM 22.79 73.022 0.069 9.16 8.28 8.98
9/14/2021 4:30:00 PM 22.8 73.04 0.069 9.14 4.13 8.93
9/14/2021 4:45:00 PM 22.8 73.04 0.069 9.14 3.88 8.88
9/14/2021 5:00:00 PM 22.77 72.986 0.069 9.11 3.36 8.8
9/14/2021 5:15:00 PM 22.73 72.914 0.069 9.08 3.65 8.73
9/14/2021 5:30:00 PM 22.67 72.806 0.068 9.04 3.42 8.66
9/14/2021 5:45:00 PM 22.59 72.662 0.069 8.97 3.8 8.57
9/14/2021 6:00:00 PM 22.5 72.5 0.068 8.86 3.41 8.46
9/14/2021 6:15:00 PM 22.39 72.302 0.069 8.78 3.82 8.37
9/14/2021 6:30:00 PM 22.29 72.122 0.069 8.64 4.12 8.27
9/14/2021 6:45:00 PM 22.17 71.906 0.069 8.46 4.04 8.16
9/14/2021 7:00:00 PM 22.08 71.744 0.069 8.26 5.87 8.1
9/14/2021 7:15:00 PM 21.98 71.564 0.069 8.1 3.5 8.02
9/14/2021 7:30:00 PM 21.9 71.42 0.069 7.93 4.97 7.95
9/14/2021 7:45:00 PM 21.81 71.258 0.07 7.83 4.92 7.88
9/14/2021 8:00:00 PM 21.72 71.096 0.07 7.77 6.93 7.83
9/14/2021 8:15:00 PM 21.64 70.952 0.07 7.7 3.73 7.8
9/14/2021 8:30:00 PM 21.55 70.79 0.071 7.66 3.9 7.79
9/14/2021 8:45:00 PM 21.46 70.628 0.071 7.63 3.25 7.77
9/14/2021 9:00:00 PM 21.37 70.466 0.072 7.6 3.8 7.78
9/14/2021 9:15:00 PM 21.28 70.304 0.071 7.58 3.83 7.78
9/14/2021 9:30:00 PM 21.19 70.142 0.073 7.56 3.91 7.78
9/14/2021 9:45:00 PM 21.09 69.962 0.073 7.55 6.91 7.78
9/14/2021 10:00:00 PM 21 69.8 0.074 7.54 3.53 7.81
9/14/2021 10:15:00 PM 20.9 69.62 0.073 7.53 3.2 7.83
9/14/2021 10:30:00 PM 20.81 69.458 0.075 7.52 4.91 7.83
9/14/2021 10:45:00 PM 20.71 69.278 0.074 7.51 4.36 7.87
9/14/2021 11:00:00 PM 20.62 69.116 0.075 7.51 4.14 7.87
9/14/2021 11:15:00 PM 20.53 68.954 0.075 7.51 3.91 7.9
9/14/2021 11:30:00 PM 20.45 68.81 0.075 7.5 4.31 7.89
9/14/2021 11:45:00 PM 20.36 68.648 0.075 7.51 4.03 7.93
9/15/2021 12:00:00 AM 20.28 68.504 0.074 7.5 4.7 7.94
9/15/2021 12:15:00 AM 20.2 68.36 0.075 7.5 4.83 7.96
9/15/2021 12:30:00 AM 20.11 68.198 0.075 7.47 4.62 7.99
9/15/2021 12:45:00 AM 20.03 68.054 0.076 7.5 6.52 8
9/15/2021 1:00:00 AM 19.96 67.92799 0.076 7.49 3.88 8
9/15/2021 1:15:00 AM 19.87 67.766 0.078 7.49 4.25 8.02
9/15/2021 1:30:00 AM 19.8 67.64 0.076 7.49 4.61 8.04
9/15/2021 1:45:00 AM 19.72 67.496 0.077 7.49 4.49 8.06
9/15/2021 2:00:00 AM 19.65 67.37 0.077 7.44 5.67 8.06
9/15/2021 2:15:00 AM 19.57 67.226 0.077 7.48 5.82 8.1
9/15/2021 2:30:00 AM 19.5 67.1 0.077 7.47 3.61 8.09
9/15/2021 2:45:00 AM 19.43 66.974 0.075 7.46 8.33 8.13
9/15/2021 3:00:00 AM 19.36 66.848 0.076 7.48 4.59 8.14
9/15/2021 3:15:00 AM 19.28 66.704 0.074 7.48 10.29 8.17
9/15/2021 3:30:00 AM 19.22 66.596 0.076 7.47 4.3 8.17
9/15/2021 3:45:00 AM 19.15 66.47 0.075 7.48 4.13 8.18
9/15/2021 4:00:00 AM 19.09 66.362 0.076 7.47 4.3 8.17
9/15/2021 4:15:00 AM 19.03 66.254 0.072 7.47 5.52 8.22
9/15/2021 4:30:00 AM 18.98 66.164 0.075 7.47 3.81 8.19
9/15/2021 4:45:00 AM 18.92 66.056 0.074 7.46 10.82 8.25
9/15/2021 5:00:00 AM 18.87 65.966 0.076 7.47 4.59 8.25
9/15/2021 5:15:00 AM 18.82 65.876 0.076 7.47 5.12 8.27
9/15/2021 5:30:00 AM 18.77 65.786 0.076 7.46 4.59 8.27
9/15/2021 5:45:00 AM 18.72 65.696 0.075 7.44 4.71 8.29
9/15/2021 6:00:00 AM 18.68 65.624 0.076 7.46 8.54 8.3
9/15/2021 6:15:00 AM 18.65 65.57 0.075 7.46 7.01 8.31
9/15/2021 6:30:00 AM 18.61 65.498 0.075 7.46 3.88 8.3
9/15/2021 6:45:00 AM 18.58 65.444 0.075 7.47 5.93 8.32
9/15/2021 7:00:00 AM 18.55 65.39 0.075 7.42 4.27 8.34
9/15/2021 7:15:00 AM 18.52 65.336 0.076 7.47 4.07 8.38
9/15/2021 7:30:00 AM 18.49 65.282 0.076 7.48 4.04 8.43
9/15/2021 7:45:00 AM 18.47 65.246 0.075 7.5 4.47 8.53
9/15/2021 8:00:00 AM 18.45 65.21 0.076 7.52 5.05 8.61
9/15/2021 8:15:00 AM 18.43 65.174 0.075 7.54 5.53 8.67
9/15/2021 8:30:00 AM 18.43 65.174 0.075 7.57 4.22 8.83
9/15/2021 8:45:00 AM 18.46 65.228 0.075 7.62 3.85 9
9/15/2021 9:00:00 AM 18.49 65.282 0.075 7.66 3.85 9.13
9/15/2021 9:15:00 AM 18.53 65.354 0.075 7.71 4.01 9.24
9/15/2021 9:30:00 AM 18.63 65.534 0.075 7.79 3.82 9.37
9/15/2021 9:45:00 AM 18.73 65.714 0.075 7.88 4.01 9.49
9/15/2021 10:00:00 AM 18.84 65.912 0.074 7.98 4.97 9.56
9/15/2021 10:15:00 AM 18.86 65.948 0.073 7.86 4.69 9.38
9/15/2021 10:30:00 AM 18.89 66.002 0.074 7.91 4.47 9.29
9/15/2021 10:45:00 AM 18.91 66.038 0.074 7.86 3.42 9.2
9/15/2021 11:00:00 AM 18.96 66.128 0.073 7.87 3.85 9.25
9/15/2021 11:15:00 AM 19.03 66.254 0.074 7.95 3.98 9.36
9/15/2021 11:30:00 AM 19.08 66.344 0.073 8.01 4.32 9.41
9/15/2021 11:45:00 AM 19.15 66.47 0.073 8.09 3.61 9.49
9/15/2021 12:00:00 PM 19.22 66.596 0.073 8.15 3.72 9.49
9/15/2021 12:15:00 PM 19.26 66.668 0.073 8.13 3.96 9.39
9/15/2021 12:30:00 PM 19.31 66.758 0.073 8.15 3.73 9.37
9/15/2021 12:45:00 PM 19.33 66.794 0.073 8.07 4.34 9.2
9/15/2021 1:00:00 PM 19.35 66.83 0.073 8.02 3.81 9.13
9/15/2021 1:15:00 PM 19.35 66.83 0.073 7.91 3.85 8.96
9/15/2021 1:30:00 PM 19.36 66.848 0.073 7.84 3.71 8.87
9/15/2021 1:45:00 PM 19.4 66.92 0.072 7.87 4.16 8.98
9/15/2021 2:00:00 PM 19.45 67.01 0.072 7.91 4.05 9.06
9/15/2021 2:15:00 PM 19.48 67.064 0.072 7.93 4.04 9.05
9/15/2021 2:30:00 PM 19.49 67.082 0.071 7.93 4.34 9.04
9/15/2021 2:45:00 PM 19.49 67.082 0.072 7.91 4.29 8.98
9/15/2021 3:00:00 PM 19.5 67.1 0.071 7.88 3.7 8.95
9/15/2021 3:15:00 PM 19.55 67.19 0.072 7.94 4.1 9.05
9/15/2021 3:30:00 PM 19.54 67.172 0.071 7.89 3.38 8.95
9/15/2021 3:45:00 PM 19.52 67.136 0.071 7.85 3.77 8.84
9/15/2021 4:00:00 PM 19.48 67.064 0.072 7.78 3.94 8.72
9/15/2021 4:15:00 PM 19.44 66.992 0.072 7.75 3.67 8.7
9/15/2021 4:30:00 PM 19.39 66.902 0.07 7.7 5.08 8.64
9/15/2021 4:45:00 PM 19.36 66.848 0.071 7.7 4.24 8.67
9/15/2021 5:00:00 PM 19.33 66.794 0.072 7.69 5.46 8.64
9/15/2021 5:15:00 PM 19.32 66.776 0.072 7.7 5.15 8.67
9/15/2021 5:30:00 PM 19.3 66.74 0.072 7.71 5.04 8.71
9/15/2021 5:45:00 PM 19.28 66.704 0.072 7.73 4.86 8.76
9/15/2021 6:00:00 PM 19.26 66.668 0.071 7.72 4.76 8.75
9/15/2021 6:15:00 PM 19.23 66.614 0.071 7.7 4.43 8.73
9/15/2021 6:30:00 PM 19.2 66.56 0.071 7.68 4.94 8.71
9/15/2021 6:45:00 PM 19.16 66.488 0.071 7.67 5 8.7
9/15/2021 7:00:00 PM 19.1 66.38 0.07 7.66 7.57 8.67
9/15/2021 7:15:00 PM 19.03 66.254 0.07 7.59 9.69 8.62
9/15/2021 7:30:00 PM 18.95 66.11 0.067 7.61 10.57 8.59
9/15/2021 7:45:00 PM 18.87 65.966 0.069 7.57 11.95 8.56
9/15/2021 8:00:00 PM 18.77 65.786 0.069 7.55 11.34 8.57
9/15/2021 8:15:00 PM 18.68 65.624 0.069 7.55 11.65 8.58
9/15/2021 8:30:00 PM 18.58 65.444 0.068 7.52 13.48 8.58
9/15/2021 8:45:00 PM 18.48 65.264 0.068 7.52 12.54 8.6
9/15/2021 9:00:00 PM 18.39 65.102 0.067 7.51 15.03 8.61
9/15/2021 9:15:00 PM 18.31 64.958 0.066 7.5 14.1 8.62
9/15/2021 9:30:00 PM 18.24 64.832 0.065 7.48 17.21 8.64
9/15/2021 9:45:00 PM 18.16 64.688 0.064 7.46 20.91 8.66
9/15/2021 10:00:00 PM 18.09 64.562 0.063 7.48 21.36 8.68
9/15/2021 10:15:00 PM 18.02 64.436 0.063 7.48 23.37 8.69
9/15/2021 10:30:00 PM 17.96 64.328 0.063 7.47 23.7 8.7
9/15/2021 10:45:00 PM 17.9 64.22 0.063 7.47 22.22 8.73
9/15/2021 11:00:00 PM 17.86 64.148 0.062 7.46 23.2 8.73
9/15/2021 11:15:00 PM 17.81 64.058 0.063 7.49 20.9 8.75
9/15/2021 11:30:00 PM 17.77 63.986 0.063 7.49 21.07 8.76
9/15/2021 11:45:00 PM 17.73 63.914 0.063 7.49 20.04 8.76
9/16/2021 12:00:00 AM 17.69 63.842 0.063 7.49 19.98 8.78
9/16/2021 12:15:00 AM 17.66 63.788 0.063 7.49 18.87 8.79
9/16/2021 12:30:00 AM 17.63 63.734 0.064 7.49 20.16 8.79
9/16/2021 12:45:00 AM 17.6 63.68 0.064 7.49 19.53 8.8
9/16/2021 1:00:00 AM 17.58 63.644 0.065 7.49 18.17 8.81
9/16/2021 1:15:00 AM 17.55 63.59 0.065 7.49 18.99 8.81
9/16/2021 1:30:00 AM 17.52 63.536 0.065 7.5 17.97 8.82
9/16/2021 1:45:00 AM 17.49 63.482 0.065 7.5 17.92 8.82
9/16/2021 2:00:00 AM 17.46 63.428 0.065 7.5 20.08 8.82
9/16/2021 2:15:00 AM 17.43 63.374 0.066 7.5 26.13 8.83
9/16/2021 2:30:00 AM 17.41 63.338 0.065 7.5 32.07 8.83
9/16/2021 2:45:00 AM 17.37 63.266 0.065 7.5 50.09 8.84
9/16/2021 3:00:00 AM 17.34 63.212 0.066 7.5 38.54 8.85
9/16/2021 3:15:00 AM 17.3 63.14 0.065 7.5 53.64 8.86
9/16/2021 3:30:00 AM 17.26 63.068 0.066 7.5 48.02 8.87
9/16/2021 3:45:00 AM 17.22 62.996 0.066 7.5 55.4 8.88
9/16/2021 4:00:00 AM 17.19 62.942 0.066 7.5 53.91 8.88
9/16/2021 4:15:00 AM 17.15 62.87 0.065 7.49 54.04 8.89
9/16/2021 4:30:00 AM 17.12 62.816 0.065 7.49 46.73 8.9
9/16/2021 4:45:00 AM 17.08 62.744 0.065 7.49 39.11 8.9
9/16/2021 5:00:00 AM 17.05 62.69 0.065 7.49 44.62 8.91
9/16/2021 5:15:00 AM 17 62.6 0.065 7.49 43.45 8.93
9/16/2021 5:30:00 AM 16.96 62.528 0.065 7.49 37.96 8.93
9/16/2021 5:45:00 AM 16.93 62.474 0.065 7.49 33.81 8.94
9/16/2021 6:00:00 AM 16.89 62.402 0.065 7.48 28.81 8.95
9/16/2021 6:15:00 AM 16.85 62.33 0.064 7.49 29.88 8.96
9/16/2021 6:30:00 AM 16.81 62.258 0.065 7.48 28.27 8.97
9/16/2021 6:45:00 AM 16.77 62.186 0.065 7.48 25.15 8.98
9/16/2021 7:00:00 AM 16.73 62.114 0.065 7.49 22.82 8.99
9/16/2021 7:15:00 AM 16.7 62.06 0.066 7.49 24.38 9.01
9/16/2021 7:30:00 AM 16.67 62.006 0.066 7.49 21.42 9.04
9/16/2021 7:45:00 AM 16.64 61.952 0.066 7.5 18.95 9.08
9/16/2021 8:00:00 AM 16.62 61.916 0.065 7.51 18.33 9.14
9/16/2021 8:15:00 AM 16.61 61.898 0.066 7.53 17.39 9.21
9/16/2021 8:30:00 AM 16.61 61.898 0.065 7.56 16.8 9.3
9/16/2021 8:45:00 AM 16.61 61.898 0.065 7.59 15.45 9.39
9/16/2021 9:00:00 AM 16.61 61.898 0.066 7.61 15.37 9.45
9/16/2021 9:15:00 AM 16.63 61.934 0.065 7.65 13.81 9.54
9/16/2021 9:30:00 AM 16.65 61.97 0.065 7.7 13.67 9.64
9/16/2021 9:45:00 AM 16.68 62.024 0.064 7.75 13.09 9.7
9/16/2021 10:00:00 AM 16.72 62.096 0.065 7.8 13.24 9.77
9/16/2021 10:15:00 AM 16.76 62.168 0.065 7.86 12.16 9.83
9/16/2021 10:30:00 AM 16.83 62.294 0.065 7.91 11.85 9.86
9/16/2021 10:45:00 AM 16.9 62.42 0.065 7.97 11.34 9.91
9/16/2021 11:00:00 AM 17.04 62.672 0.064 8.04 11.21 9.92
9/16/2021 11:15:00 AM 17.14 62.852 0.064 8.06 10.93 9.89
9/16/2021 11:30:00 AM 17.24 63.032 0.064 8.07 15.31 9.9
9/16/2021 11:45:00 AM 17.35 63.23 0.064 8.17 9.87 9.92
9/16/2021 12:00:00 PM 17.46 63.428 0.064 8.26 11.23 9.94
9/16/2021 12:15:00 PM 17.63 63.734 0.065 8.37 10.03 10
9/16/2021 12:30:00 PM 17.8 64.04 0.064 8.46 9.59 10
9/16/2021 12:45:00 PM 17.95 64.31 0.064 8.5 10.09 9.98
9/16/2021 1:00:00 PM 18.08 64.544 0.063 8.58 8.74 9.94
9/16/2021 1:15:00 PM 18.18 64.724 0.063 8.64 8.71 9.93
9/16/2021 1:30:00 PM 18.3 64.94 0.064 8.68 8.62 9.92
9/16/2021 1:45:00 PM 18.46 65.228 0.064 8.74 8.64 9.93
9/16/2021 2:00:00 PM 18.72 65.696 0.063 8.78 8.74 9.92
9/16/2021 2:15:00 PM 18.98 66.164 0.064 8.82 8.46 9.9
9/16/2021 2:30:00 PM 19 66.2 0.064 8.84 8.35 9.85
9/16/2021 2:45:00 PM 18.89 66.002 0.063 8.86 7.93 9.84
9/16/2021 3:00:00 PM 18.89 66.002 0.063 8.87 7.97 9.82
9/16/2021 3:15:00 PM 19.09 66.362 0.063 8.9 7.88 9.8
9/16/2021 3:30:00 PM 19.22 66.596 0.063 8.91 7.93 9.74
9/16/2021 3:45:00 PM 19.35 66.83 0.063 8.91 7.65 9.68
9/16/2021 4:00:00 PM 19.38 66.884 0.063 8.9 7.63 9.57
9/16/2021 4:15:00 PM 19.34 66.812 0.062 8.83 7.32 9.44
9/16/2021 4:30:00 PM 19.33 66.794 0.063 8.77 7.72 9.38
9/16/2021 4:45:00 PM 19.34 66.812 0.062 8.75 7.27 9.37
9/16/2021 5:00:00 PM 19.37 66.866 0.062 8.73 7.07 9.36
9/16/2021 5:15:00 PM 19.38 66.884 0.063 8.69 6.91 9.31
9/16/2021 5:30:00 PM 19.38 66.884 0.063 8.62 6.98 9.25
9/16/2021 5:45:00 PM 19.38 66.884 0.063 8.51 6.94 9.17
9/16/2021 6:00:00 PM 19.39 66.902 0.066 8.37 8.28 9.06
9/16/2021 6:15:00 PM 19.4 66.92 0.065 8.23 6.82 8.97
9/16/2021 6:30:00 PM 19.41 66.938 0.066 8.04 6.31 8.84
9/16/2021 6:45:00 PM 19.41 66.938 0.067 7.95 6.11 8.73
9/16/2021 7:00:00 PM 19.42 66.956 0.066 7.85 6.51 8.65
9/16/2021 7:15:00 PM 19.42 66.956 0.065 7.77 6.58 8.58
9/16/2021 7:30:00 PM 19.4 66.92 0.065 7.72 7.36 8.52
9/16/2021 7:45:00 PM 19.36 66.848 0.062 7.67 7.42 8.49
9/16/2021 8:00:00 PM 19.31 66.758 0.066 7.64 6.97 8.47
9/16/2021 8:15:00 PM 19.25 66.65 0.064 7.61 6.95 8.47
9/16/2021 8:30:00 PM 19.19 66.542 0.067 7.59 6.67 8.46
9/16/2021 8:45:00 PM 19.12 66.416 0.066 7.56 8.18 8.47
9/16/2021 9:00:00 PM 19.06 66.308 0.067 7.56 6.64 8.47
9/16/2021 9:15:00 PM 18.99 66.182 0.066 7.54 7.17 8.49
9/16/2021 9:30:00 PM 18.92 66.056 0.066 7.52 7.33 8.49
9/16/2021 9:45:00 PM 18.85 65.93 0.067 7.51 7.85 8.5
9/16/2021 10:00:00 PM 18.79 65.82201 0.067 7.52 6.83 8.52
9/16/2021 10:15:00 PM 18.73 65.714 0.067 7.52 6.81 8.53
9/16/2021 10:30:00 PM 18.67 65.606 0.067 7.51 6.69 8.54
9/16/2021 10:45:00 PM 18.61 65.498 0.068 7.49 6.99 8.55
9/16/2021 11:00:00 PM 18.55 65.39 0.067 7.5 7.21 8.57
9/16/2021 11:15:00 PM 18.5 65.3 0.068 7.5 6.62 8.58
9/16/2021 11:30:00 PM 18.45 65.21 0.067 7.5 8.4 8.59
9/16/2021 11:45:00 PM 18.4 65.12 0.068 7.49 6.86 8.6
9/17/2021 12:00:00 AM 18.36 65.048 0.067 7.49 6.9 8.59
9/17/2021 12:15:00 AM 18.31 64.958 0.063 7.49 7.18 8.62
9/17/2021 12:30:00 AM 18.28 64.904 0.067 7.49 7.79 8.62
9/17/2021 12:45:00 AM 18.24 64.832 0.067 7.48 6.38 8.62
9/17/2021 1:00:00 AM 18.21 64.778 0.067 7.48 6.12 8.63
9/17/2021 1:15:00 AM 18.17 64.706 0.068 7.4 7.1 8.64
9/17/2021 1:30:00 AM 18.14 64.652 0.068 7.47 6.43 8.64
9/17/2021 1:45:00 AM 18.11 64.598 0.066 7.47 6.83 8.65
9/17/2021 2:00:00 AM 18.06 64.508 0.067 7.46 6.28 8.66
9/17/2021 2:15:00 AM 18.03 64.454 0.069 7.46 7.06 8.66
9/17/2021 2:30:00 AM 18 64.4 0.067 7.46 6.57 8.67
9/17/2021 2:45:00 AM 17.97 64.346 0.068 7.41 6.48 8.69
9/17/2021 3:00:00 AM 17.94 64.292 0.068 7.42 6.38 8.67
9/17/2021 3:15:00 AM 17.91 64.238 0.067 7.45 6.2 8.69
9/17/2021 3:30:00 AM 17.87 64.166 0.067 7.45 6.26 8.69
9/17/2021 3:45:00 AM 17.84 64.112 0.065 7.45 7.1 8.7
9/17/2021 4:00:00 AM 17.81 64.058 0.065 7.44 6.54 8.7
9/17/2021 4:15:00 AM 17.78 64.004 0.067 7.45 7.72 8.71
9/17/2021 4:30:00 AM 17.74 63.932 0.068 7.45 6.19 8.73
9/17/2021 4:45:00 AM 17.71 63.878 0.067 7.44 6.26 8.73
9/17/2021 5:00:00 AM 17.69 63.842 0.067 7.45 6.15 8.73
9/17/2021 5:15:00 AM 17.66 63.788 0.067 7.44 6.8 8.74
9/17/2021 5:30:00 AM 17.64 63.752 0.067 7.44 6.05 8.75
9/17/2021 5:45:00 AM 17.62 63.716 0.068 7.44 6.04 8.76
9/17/2021 6:00:00 AM 17.6 63.68 0.067 7.44 6.09 8.76
9/17/2021 6:15:00 AM 17.58 63.644 0.068 7.4 8.38 8.77
9/17/2021 6:30:00 AM 17.55 63.59 0.068 7.4 6.72 8.78
9/17/2021 6:45:00 AM 17.53 63.554 0.069 7.44 6.35 8.79
9/17/2021 7:00:00 AM 17.51 63.518 0.068 7.38 6.62 8.79
9/17/2021 7:15:00 AM 17.5 63.5 0.069 7.44 6.48 8.8
9/17/2021 7:30:00 AM 17.48 63.464 0.068 7.38 5.82 8.82
9/17/2021 7:45:00 AM 17.47 63.446 0.069 7.39 5.66 8.85
9/17/2021 8:00:00 AM 17.46 63.428 0.067 7.41 5.78 8.89
9/17/2021 8:15:00 AM 17.46 63.428 0.067 7.47 5.82 8.91
9/17/2021 8:30:00 AM 17.47 63.446 0.067 7.49 5.89 9.03
9/17/2021 8:45:00 AM 17.48 63.464 0.066 7.49 6.79 9.08
9/17/2021 9:00:00 AM 17.49 63.482 0.067 7.52 5.59 9.1
9/17/2021 9:15:00 AM 17.5 63.5 0.067 7.48 5.48 9.15
9/17/2021 9:30:00 AM 17.52 63.536 0.068 7.55 6.15 9.2
9/17/2021 9:45:00 AM 17.55 63.59 0.067 7.58 5.89 9.33
9/17/2021 10:00:00 AM 17.59 63.662 0.066 7.57 5.6 9.43
9/17/2021 10:15:00 AM 17.63 63.734 0.066 7.66 6.44 9.52
9/17/2021 10:30:00 AM 17.7 63.86 0.065 7.76 5.76 9.63
9/17/2021 10:45:00 AM 17.82 64.076 0.066 7.87 5.24 9.77
9/17/2021 11:00:00 AM 17.9 64.22 0.066 7.97 5.46 9.85
9/17/2021 11:15:00 AM 18.01 64.418 0.066 8.1 6.54 9.9
9/17/2021 11:30:00 AM 18.12 64.616 0.063 8.21 5.99 9.94
9/17/2021 11:45:00 AM 18.28 64.904 0.065 8.31 4.97 9.94
9/17/2021 12:00:00 PM 18.35 65.03 0.065 8.37 5.62 9.89
9/17/2021 12:15:00 PM 18.43 65.174 0.065 8.39 5.34 9.84
9/17/2021 12:30:00 PM 18.56 65.408 0.065 8.46 5.34 9.85
9/17/2021 12:45:00 PM 18.69 65.642 0.064 8.56 5.24 9.87
9/17/2021 1:00:00 PM 18.78 65.804 0.064 8.58 5.33 9.83
9/17/2021 1:15:00 PM 18.89 66.002 0.065 8.69 4.91 9.85
9/17/2021 1:30:00 PM 19.06 66.308 0.064 8.74 5.59 9.87
9/17/2021 1:45:00 PM 19.22 66.596 0.064 8.81 5.26 9.85
9/17/2021 2:00:00 PM 19.41 66.938 0.064 8.91 5.37 9.87
9/17/2021 2:15:00 PM 19.61 67.298 0.064 8.95 5.06 9.84
9/17/2021 2:30:00 PM 19.81 67.658 0.064 8.98 4.69 9.78
9/17/2021 2:45:00 PM 19.92 67.856 0.064 9.01 5.42 9.72
9/17/2021 3:00:00 PM 20 68 0.065 9.02 5.54 9.67
9/17/2021 3:15:00 PM 20.07 68.126 0.064 8.99 5.2 9.61
9/17/2021 3:30:00 PM 20.19 68.342 0.064 9.03 5.21 9.51
9/17/2021 3:45:00 PM 20.31 68.558 0.064 9.02 5.12 9.42
9/17/2021 4:00:00 PM 20.38 68.684 0.064 9 5.66 9.34
9/17/2021 4:15:00 PM 20.42 68.756 0.065 8.99 4.44 9.29
9/17/2021 4:30:00 PM 20.42 68.756 0.065 8.95 4.71 9.21
9/17/2021 4:45:00 PM 20.46 68.828 0.066 8.91 5.02 9.17
9/17/2021 5:00:00 PM 20.47 68.846 0.065 8.86 9.63 9.06
9/17/2021 5:15:00 PM 20.47 68.846 0.066 8.79 5.48 8.96
9/17/2021 5:30:00 PM 20.46 68.828 0.066 8.71 5.05 8.92
9/17/2021 5:45:00 PM 20.44 68.792 0.065 8.61 5.1 8.88
9/17/2021 6:00:00 PM 20.39 68.702 0.065 8.45 5.6 8.79
9/17/2021 6:15:00 PM 20.33 68.594 0.065 8.34 5.28 8.72
9/17/2021 6:30:00 PM 20.27 68.486 0.065 8.17 5.07 8.64
9/17/2021 6:45:00 PM 20.22 68.396 0.065 8.05 4.73 8.6
9/17/2021 7:00:00 PM 20.18 68.324 0.066 7.94 4.68 8.55
9/17/2021 7:15:00 PM 20.15 68.27 0.063 7.85 4.7 8.47
9/17/2021 7:30:00 PM 20.12 68.216 0.067 7.77 5.91 8.4
9/17/2021 7:45:00 PM 20.07 68.126 0.066 7.71 5.42 8.35
9/17/2021 8:00:00 PM 20.02 68.036 0.067 7.65 5.22 8.31
9/17/2021 8:15:00 PM 19.95 67.91 0.067 7.62 5.16 8.29
9/17/2021 8:30:00 PM 19.88 67.784 0.067 7.6 5.06 8.28
9/17/2021 8:45:00 PM 19.8 67.64 0.067 7.58 5.11 8.28
9/17/2021 9:00:00 PM 19.74 67.532 0.067 7.56 5.38 8.28
9/17/2021 9:15:00 PM 19.67 67.406 0.068 7.51 5.77 8.29
9/17/2021 9:30:00 PM 19.61 67.298 0.068 7.5 5.55 8.29
9/17/2021 9:45:00 PM 19.54 67.172 0.068 7.52 5.66 8.31
9/17/2021 10:00:00 PM 19.47 67.046 0.066 7.52 5.53 8.31
9/17/2021 10:15:00 PM 19.41 66.938 0.068 7.51 6.55 8.32
9/17/2021 10:30:00 PM 19.34 66.812 0.069 7.51 7.31 8.34
9/17/2021 10:45:00 PM 19.27 66.686 0.068 7.49 5.33 8.34
9/17/2021 11:00:00 PM 19.21 66.578 0.069 7.49 6.09 8.37
9/17/2021 11:15:00 PM 19.14 66.452 0.069 7.48 5.6 8.39
9/17/2021 11:30:00 PM 19.07 66.326 0.068 7.46 6 8.4
9/17/2021 11:45:00 PM 19 66.2 0.069 7.48 5.73 8.41
9/18/2021 12:00:00 AM 18.94 66.092 0.07 7.47 5.57 8.42
9/18/2021 12:15:00 AM 18.87 65.966 0.069 7.47 5.68 8.45
9/18/2021 12:30:00 AM 18.81 65.858 0.068 7.46 5.73 8.45
9/18/2021 12:45:00 AM 18.75 65.75 0.069 7.47 6.03 8.44
9/18/2021 1:00:00 AM 18.7 65.66 0.069 7.45 5.54 8.45
9/18/2021 1:15:00 AM 18.65 65.57 0.069 7.45 5.58 8.46
9/18/2021 1:30:00 AM 18.6 65.48 0.069 7.47 5.36 8.49
9/18/2021 1:45:00 AM 18.56 65.408 0.069 7.46 5.28 8.48
9/18/2021 2:00:00 AM 18.53 65.354 0.07 7.46 6.26 8.51
9/18/2021 2:15:00 AM 18.49 65.282 0.069 7.43 5.37 8.5
9/18/2021 2:30:00 AM 18.46 65.228 0.069 7.44 5.29 8.5
9/18/2021 2:45:00 AM 18.43 65.174 0.069 7.43 5.29 8.52
9/18/2021 3:00:00 AM 18.4 65.12 0.069 7.45 6.05 8.51
9/18/2021 3:15:00 AM 18.37 65.066 0.069 7.45 6.06 8.51
9/18/2021 3:30:00 AM 18.35 65.03 0.069 7.44 5.55 8.53
9/18/2021 3:45:00 AM 18.32 64.976 0.069 7.46 5.41 8.54
9/18/2021 4:00:00 AM 18.31 64.958 0.069 7.42 5.54 8.54
9/18/2021 4:15:00 AM 18.29 64.922 0.069 7.45 5.7 8.52
9/18/2021 4:30:00 AM 18.27 64.886 0.07 7.41 5.28 8.55
9/18/2021 4:45:00 AM 18.25 64.85 0.069 7.42 5.44 8.55
9/18/2021 5:00:00 AM 18.23 64.814 0.07 7.42 5.63 8.55
9/18/2021 5:15:00 AM 18.21 64.778 0.068 7.44 5.96 8.57
9/18/2021 5:30:00 AM 18.19 64.742 0.07 7.43 5.98 8.54
9/18/2021 5:45:00 AM 18.17 64.706 0.067 7.42 5.62 8.59
9/18/2021 6:00:00 AM 18.15 64.67 0.066 7.4 6.02 8.6
9/18/2021 6:15:00 AM 18.13 64.634 0.068 7.43 5.41 8.59
9/18/2021 6:30:00 AM 18.11 64.598 0.068 7.45 5.53 8.58
9/18/2021 6:45:00 AM 18.09 64.562 0.061 7.43 6.86 8.6
9/18/2021 7:00:00 AM 18.07 64.526 0.068 7.4 6.62 8.6
9/18/2021 7:15:00 AM 18.05 64.49 0.069 7.42 5.61 8.63
9/18/2021 7:30:00 AM 18.04 64.472 0.069 7.46 6.02 8.72
9/18/2021 7:45:00 AM 18.03 64.454 0.068 7.48 5.68 8.73
9/18/2021 8:00:00 AM 18.02 64.436 0.069 7.44 5.48 8.75
9/18/2021 8:15:00 AM 18 64.4 0.069 7.46 5.16 8.8
9/18/2021 8:30:00 AM 18 64.4 0.068 7.5 5.27 8.9
9/18/2021 8:45:00 AM 17.99 64.382 0.068 7.53 5.66 8.95
9/18/2021 9:00:00 AM 18 64.4 0.068 7.53 5.12 9.09
9/18/2021 9:15:00 AM 18.05 64.49 0.067 7.61 5.64 9.26
9/18/2021 9:30:00 AM 18.12 64.616 0.067 7.71 5.75 9.46
9/18/2021 9:45:00 AM 18.22 64.796 0.066 7.76 5.27 9.59
9/18/2021 10:00:00 AM 18.31 64.958 0.067 7.88 4.98 9.65
9/18/2021 10:15:00 AM 18.41 65.138 0.066 7.92 4.87 9.59
9/18/2021 10:30:00 AM 18.5 65.3 0.066 7.93 5.55 9.56
9/18/2021 10:45:00 AM 18.58 65.444 0.066 7.94 5.94 9.55
9/18/2021 11:00:00 AM 18.68 65.624 0.067 8.01 5.03 9.55
9/18/2021 11:15:00 AM 18.79 65.82201 0.066 8.03 5.42 9.56
9/18/2021 11:30:00 AM 18.91 66.038 0.066 8.07 4.95 9.56
9/18/2021 11:45:00 AM 19.01 66.218 0.065 8.12 4.91 9.62
9/18/2021 12:00:00 PM 19.18 66.524 0.066 8.26 5.26 9.7
9/18/2021 12:15:00 PM 19.3 66.74 0.065 8.37 5.42 9.67
9/18/2021 12:30:00 PM 19.46 67.028 0.065 8.47 7.1 9.7
9/18/2021 12:45:00 PM 19.74 67.532 0.065 8.56 9.18 9.66
9/18/2021 1:00:00 PM 19.94 67.892 0.065 8.65 4.58 9.61
9/18/2021 1:15:00 PM 20.29 68.522 0.065 8.7 4.93 9.6
9/18/2021 1:30:00 PM 20.53 68.954 0.065 8.79 4.41 9.51
9/18/2021 1:45:00 PM 20.69 69.242 0.063 8.81 4.83 9.45
9/18/2021 2:00:00 PM 20.87 69.566 0.065 8.81 5.02 9.45
9/18/2021 2:15:00 PM 21.04 69.872 0.064 8.9 4.96 9.41
9/18/2021 2:30:00 PM 21.14 70.052 0.065 8.89 5.63 9.29
9/18/2021 2:45:00 PM 21.22 70.196 0.064 8.9 5.48 9.28
9/18/2021 3:00:00 PM 21.27 70.286 0.064 8.95 5.2 9.27
9/18/2021 3:15:00 PM 21.29 70.32201 0.064 8.93 4.71 9.15
9/18/2021 3:30:00 PM 21.37 70.466 0.065 8.96 4.92 9.21
9/18/2021 3:45:00 PM 21.43 70.574 0.065 8.99 4.54 9.18
9/18/2021 4:00:00 PM 21.44 70.592 0.066 9 4.75 9.15
9/18/2021 4:15:00 PM 21.46 70.628 0.066 9.01 4.87 9.15
9/18/2021 4:30:00 PM 21.45 70.61 0.066 9.03 4.85 9.11
9/18/2021 4:45:00 PM 21.45 70.61 0.063 9.03 4.28 9.15
9/18/2021 5:00:00 PM 21.39 70.502 0.065 9.02 4.24 9.05
9/18/2021 5:15:00 PM 21.3 70.34 0.064 8.95 4.32 8.91
9/18/2021 5:30:00 PM 21.2 70.16 0.064 8.86 4.59 8.79
9/18/2021 5:45:00 PM 21.12 70.016 0.064 8.76 4.96 8.69
9/18/2021 6:00:00 PM 21.06 69.908 0.063 8.66 4.65 8.64
9/18/2021 6:15:00 PM 21.01 69.818 0.064 8.53 4.73 8.53
9/18/2021 6:30:00 PM 20.96 69.728 0.065 8.39 5.39 8.51
9/18/2021 6:45:00 PM 20.93 69.674 0.064 8.22 5.3 8.45
9/18/2021 7:00:00 PM 20.88 69.584 0.065 8.03 4.86 8.36
9/18/2021 7:15:00 PM 20.83 69.494 0.065 7.91 5.05 8.28
9/18/2021 7:30:00 PM 20.78 69.404 0.066 7.8 5.14 8.22
9/18/2021 7:45:00 PM 20.72 69.296 0.066 7.74 5.23 8.17
9/18/2021 8:00:00 PM 20.67 69.206 0.067 7.63 4.94 8.11
9/18/2021 8:15:00 PM 20.61 69.098 0.066 7.61 4.68 8.12
9/18/2021 8:30:00 PM 20.54 68.972 0.067 7.59 4.89 8.09
9/18/2021 8:45:00 PM 20.46 68.828 0.067 7.59 5.04 8.1
9/18/2021 9:00:00 PM 20.39 68.702 0.067 7.55 4.99 8.09
9/18/2021 9:15:00 PM 20.3 68.54 0.067 7.53 5.88 8.13
9/18/2021 9:30:00 PM 20.22 68.396 0.069 7.53 5.81 8.12
9/18/2021 9:45:00 PM 20.14 68.252 0.069 7.51 7.05 8.15
9/18/2021 10:00:00 PM 20.06 68.108 0.069 7.51 5.08 8.12
9/18/2021 10:15:00 PM 19.98 67.964 0.069 7.51 4.98 8.16
9/18/2021 10:30:00 PM 19.89 67.802 0.069 7.48 5.5 8.18
9/18/2021 10:45:00 PM 19.81 67.658 0.069 7.5 5.32 8.18
9/18/2021 11:00:00 PM 19.72 67.496 0.069 7.48 5.25 8.24
9/18/2021 11:15:00 PM 19.63 67.334 0.07 7.47 5.46 8.23
9/18/2021 11:30:00 PM 19.53 67.154 0.073 7.5 5.97 8.29
9/18/2021 11:45:00 PM 19.45 67.01 0.071 7.47 6.88 8.29
9/19/2021 12:00:00 AM 19.36 66.848 0.072 7.48 5.21 8.32
9/19/2021 12:15:00 AM 19.27 66.686 0.071 7.47 6.34 8.34
9/19/2021 12:30:00 AM 19.16 66.488 0.07 7.48 6.57 8.34
9/19/2021 12:45:00 AM 19.07 66.326 0.07 7.44 5.64 8.38
9/19/2021 1:00:00 AM 18.98 66.164 0.071 7.46 7.53 8.41
9/19/2021 1:15:00 AM 18.89 66.002 0.07 7.48 5.8 8.43
9/19/2021 1:30:00 AM 18.8 65.84 0.07 7.44 5.46 8.43
9/19/2021 1:45:00 AM 18.71 65.67799 0.069 7.47 5.53 8.47
9/19/2021 2:00:00 AM 18.63 65.534 0.069 7.44 5.34 8.48
9/19/2021 2:15:00 AM 18.54 65.372 0.07 7.47 5.27 8.51
9/19/2021 2:30:00 AM 18.47 65.246 0.07 7.45 5.65 8.52
9/19/2021 2:45:00 AM 18.39 65.102 0.071 7.45 5.77 8.53
9/19/2021 3:00:00 AM 18.32 64.976 0.07 7.48 5.37 8.54
9/19/2021 3:15:00 AM 18.25 64.85 0.069 7.44 5.36 8.57
9/19/2021 3:30:00 AM 18.18 64.724 0.069 7.45 5.38 8.58
9/19/2021 3:45:00 AM 18.11 64.598 0.069 7.45 6.61 8.6
9/19/2021 4:00:00 AM 18.05 64.49 0.07 7.45 5.38 8.61
9/19/2021 4:15:00 AM 17.98 64.364 0.069 7.45 5.27 8.63
9/19/2021 4:30:00 AM 17.92 64.256 0.068 7.45 5.98 8.63
9/19/2021 4:45:00 AM 17.87 64.166 0.069 7.43 5.58 8.63
9/19/2021 5:00:00 AM 17.81 64.058 0.069 7.44 5.43 8.67
9/19/2021 5:15:00 AM 17.76 63.968 0.069 7.46 5.5 8.67
9/19/2021 5:30:00 AM 17.7 63.86 0.068 7.45 5.1 8.69
9/19/2021 5:45:00 AM 17.65 63.77 0.068 7.45 5.25 8.69
9/19/2021 6:00:00 AM 17.6 63.68 0.069 7.45 10.98 8.7
9/19/2021 6:15:00 AM 17.55 63.59 0.068 7.45 5.19 8.72
9/19/2021 6:30:00 AM 17.5 63.5 0.069 7.47 6.79 8.73
9/19/2021 6:45:00 AM 17.45 63.41 0.069 7.45 5.3 8.74
9/19/2021 7:00:00 AM 17.4 63.32 0.069 7.46 5.08 8.76
9/19/2021 7:15:00 AM 17.36 63.248 0.069 7.45 5.04 8.76
9/19/2021 7:30:00 AM 17.3 63.14 0.068 7.45 5.72 8.81
9/19/2021 7:45:00 AM 17.25 63.05 0.069 7.45 5.2 8.87
9/19/2021 8:00:00 AM 17.21 62.978 0.068 7.47 5.02 8.93
9/19/2021 8:15:00 AM 17.17 62.906 0.068 7.5 5.16 8.99
9/19/2021 8:30:00 AM 17.13 62.834 0.068 7.51 5.44 9.06
9/19/2021 8:45:00 AM 17.1 62.78 0.068 7.55 4.98 9.14
9/19/2021 9:00:00 AM 17.07 62.726 0.068 7.55 5.28 9.21
9/19/2021 9:15:00 AM 17.05 62.69 0.069 7.6 5.14 9.32
9/19/2021 9:30:00 AM 17.04 62.672 0.068 7.62 5.09 9.44
9/19/2021 9:45:00 AM 17.03 62.654 0.068 7.66 4.38 9.55
9/19/2021 10:00:00 AM 17.04 62.672 0.069 7.73 4.66 9.65
9/19/2021 10:15:00 AM 17.04 62.672 0.068 7.8 4.83 9.75
9/19/2021 10:30:00 AM 17.06 62.708 0.067 7.89 4.82 9.87
9/19/2021 10:45:00 AM 17.11 62.798 0.066 7.98 4.7 10
9/19/2021 11:00:00 AM 17.17 62.906 0.066 8.11 4.81 10.08
9/19/2021 11:15:00 AM 17.23 63.014 0.066 8.26 4.83 10.18
9/19/2021 11:30:00 AM 17.34 63.212 0.066 8.39 4.94 10.22
9/19/2021 11:45:00 AM 17.46 63.428 0.067 8.49 4.91 10.22
9/19/2021 12:00:00 PM 17.67 63.806 0.066 8.55 4.84 10.17
9/19/2021 12:15:00 PM 17.82 64.076 0.066 8.58 4.78 10.07
9/19/2021 12:30:00 PM 17.97 64.346 0.066 8.56 7.68 10
9/19/2021 12:45:00 PM 18.18 64.724 0.068 8.57 10.84 9.95
9/19/2021 1:00:00 PM 18.44 65.192 0.069 8.63 4.87 9.88
9/19/2021 1:15:00 PM 18.75 65.75 0.068 8.7 7.24 9.85
9/19/2021 1:30:00 PM 19.04 66.272 0.066 8.74 5.17 9.83
9/19/2021 1:45:00 PM 19.41 66.938 0.067 8.83 4.76 9.8
9/19/2021 2:00:00 PM 19.78 67.604 0.066 8.9 5.49 9.75
9/19/2021 2:15:00 PM 20.1 68.18 0.066 8.95 4.77 9.69
9/19/2021 2:30:00 PM 20.42 68.756 0.066 8.99 4.77 9.61
9/19/2021 2:45:00 PM 20.69 69.242 0.065 9.03 4.77 9.54
9/19/2021 3:00:00 PM 20.88 69.584 0.065 9.03 4.61 9.46
9/19/2021 3:15:00 PM 21.03 69.854 0.063 9.05 5 9.38
9/19/2021 3:30:00 PM 21.11 69.998 0.065 9.05 4.37 9.28
9/19/2021 3:45:00 PM 21.13 70.034 0.065 9.03 4.26 9.17
9/19/2021 4:00:00 PM 21.13 70.034 0.064 8.98 4.82 9.07
9/19/2021 4:15:00 PM 21.08 69.944 0.065 8.96 4.79 8.97
9/19/2021 4:30:00 PM 21.02 69.836 0.066 8.9 5.25 8.87
9/19/2021 4:45:00 PM 20.96 69.728 0.065 8.82 4.78 8.77
9/19/2021 5:00:00 PM 20.87 69.566 0.065 8.72 6.25 8.74
9/19/2021 5:15:00 PM 20.75 69.35 0.066 8.61 4.34 8.68
9/19/2021 5:30:00 PM 20.61 69.098 0.066 8.47 4.47 8.62
9/19/2021 5:45:00 PM 20.43 68.774 0.067 8.25 4.34 8.58
9/19/2021 6:00:00 PM 20.26 68.468 0.066 8.12 4.45 8.56
9/19/2021 6:15:00 PM 20.1 68.18 0.066 8.01 4.46 8.53
9/19/2021 6:30:00 PM 19.95 67.91 0.066 7.88 4.28 8.51
9/19/2021 6:45:00 PM 19.81 67.658 0.067 7.83 4.6 8.5
9/19/2021 7:00:00 PM 19.71 67.478 0.067 7.78 4.58 8.44
9/19/2021 7:15:00 PM 19.62 67.316 0.067 7.74 4.91 8.42
9/19/2021 7:30:00 PM 19.54 67.172 0.068 7.68 5.53 8.36
9/19/2021 7:45:00 PM 19.46 67.028 0.068 7.64 4.37 8.38
9/19/2021 8:00:00 PM 19.39 66.902 0.07 7.61 4.76 8.33
9/19/2021 8:15:00 PM 19.31 66.758 0.07 7.58 5.03 8.33
9/19/2021 8:30:00 PM 19.22 66.596 0.071 7.57 5.12 8.35
9/19/2021 8:45:00 PM 19.12 66.416 0.071 7.54 5.09 8.32
9/19/2021 9:00:00 PM 19.01 66.218 0.07 7.54 5.11 8.35
9/19/2021 9:15:00 PM 18.89 66.002 0.07 7.56 4.94 8.39
9/19/2021 9:30:00 PM 18.79 65.82201 0.07 7.52 4.84 8.4
9/19/2021 9:45:00 PM 18.67 65.606 0.07 7.51 5.08 8.43
9/19/2021 10:00:00 PM 18.55 65.39 0.071 7.51 5.42 8.46
9/19/2021 10:15:00 PM 18.44 65.192 0.07 7.5 4.82 8.49
9/19/2021 10:30:00 PM 18.33 64.994 0.071 7.49 5.27 8.5
9/19/2021 10:45:00 PM 18.22 64.796 0.07 7.49 5.27 8.54
9/19/2021 11:00:00 PM 18.11 64.598 0.07 7.5 4.68 8.56
9/19/2021 11:15:00 PM 18.01 64.418 0.071 7.48 5.02 8.58
9/19/2021 11:30:00 PM 17.91 64.238 0.071 7.48 4.82 8.6
9/19/2021 11:45:00 PM 17.81 64.058 0.071 7.5 4.91 8.62
9/20/2021 12:00:00 AM 17.72 63.896 0.07 7.47 4.65 8.64
9/20/2021 12:15:00 AM 17.65 63.77 0.07 7.48 5.32 8.67
9/20/2021 12:30:00 AM 17.57 63.626 0.071 7.48 5.31 8.69
9/20/2021 12:45:00 AM 17.48 63.464 0.071 7.48 5.26 8.71
9/20/2021 1:00:00 AM 17.4 63.32 0.071 7.47 4.98 8.74
9/20/2021 1:15:00 AM 17.32 63.176 0.071 7.47 4.98 8.75
9/20/2021 1:30:00 AM 17.23 63.014 0.073 7.47 5.09 8.78
9/20/2021 1:45:00 AM 17.15 62.87 0.071 7.49 6.1 8.8
9/20/2021 2:00:00 AM 17.07 62.726 0.072 7.45 4.87 8.8
9/20/2021 2:15:00 AM 16.98 62.564 0.071 7.47 5.04 8.83
9/20/2021 2:30:00 AM 16.9 62.42 0.071 7.48 5.07 8.84
9/20/2021 2:45:00 AM 16.81 62.258 0.072 7.47 5.18 8.87
9/20/2021 3:00:00 AM 16.73 62.114 0.073 7.46 4.57 8.88
9/20/2021 3:15:00 AM 16.67 62.006 0.073 7.48 4.7 8.88
9/20/2021 3:30:00 AM 16.59 61.862 0.074 7.46 5.29 8.91
9/20/2021 3:45:00 AM 16.52 61.736 0.073 7.48 5.15 8.93
9/20/2021 4:00:00 AM 16.44 61.592 0.073 7.48 5.73 8.94
9/20/2021 4:15:00 AM 16.38 61.484 0.072 7.47 4.91 8.94
9/20/2021 4:30:00 AM 16.31 61.358 0.072 7.45 6.45 8.97
9/20/2021 4:45:00 AM 16.24 61.232 0.071 7.45 10.81 9
9/20/2021 5:00:00 AM 16.17 61.106 0.071 7.47 6.83 9.01
9/20/2021 5:15:00 AM 16.11 60.998 0.071 7.45 5.3 9.02
9/20/2021 5:30:00 AM 16.05 60.89 0.07 7.47 5.15 9.01
9/20/2021 5:45:00 AM 15.99 60.782 0.07 7.47 4.85 9.05
9/20/2021 6:00:00 AM 15.92 60.656 0.07 7.45 7.75 9.07
9/20/2021 6:15:00 AM 15.87 60.566 0.071 7.48 5.23 9.05
9/20/2021 6:30:00 AM 15.79 60.422 0.071 7.43 5.3 9.09
9/20/2021 6:45:00 AM 15.74 60.332 0.07 7.45 5.11 9.11
9/20/2021 7:00:00 AM 15.68 60.224 0.07 7.43 4.68 9.13
9/20/2021 7:15:00 AM 15.63 60.134 0.07 7.46 5.4 9.16
9/20/2021 7:30:00 AM 15.58 60.044 0.069 7.48 5.17 9.21
9/20/2021 7:45:00 AM 15.53 59.954 0.069 7.49 5.13 9.3
9/20/2021 8:00:00 AM 15.48 59.864 0.07 7.53 5.04 9.39
9/20/2021 8:15:00 AM 15.44 59.792 0.069 7.5 5.06 9.51
9/20/2021 8:30:00 AM 15.41 59.738 0.069 7.55 5.58 9.64
9/20/2021 8:45:00 AM 15.4 59.72 0.069 7.62 5.05 9.78
9/20/2021 9:00:00 AM 15.4 59.72 0.069 7.7 4.83 9.97
9/20/2021 9:15:00 AM 15.39 59.702 0.069 7.71 4.34 10.02
9/20/2021 9:30:00 AM 15.39 59.702 0.068 7.75 4.13 10.04
9/20/2021 9:45:00 AM 15.41 59.738 0.068 7.79 4.12 10.06
9/20/2021 10:00:00 AM 15.46 59.828 0.068 7.81 4.43 10.1
9/20/2021 10:15:00 AM 15.52 59.936 0.068 7.87 4.01 10.14
9/20/2021 10:30:00 AM 15.6 60.08 0.069 7.91 4.58 10.17
9/20/2021 10:45:00 AM 15.72 60.296 0.069 7.98 5.21 10.19
9/20/2021 11:00:00 AM 15.83 60.494 0.069 7.99 4.75 10.21
9/20/2021 11:15:00 AM 15.96 60.728 0.07 8.06 4.88 10.22
9/20/2021 11:30:00 AM 16.11 60.998 0.069 8.12 4.67 10.25
9/20/2021 11:45:00 AM 16.26 61.268 0.069 8.19 4.52 10.26
9/20/2021 12:00:00 PM 16.42 61.556 0.068 8.28 6.37 10.28
9/20/2021 12:15:00 PM 16.6 61.88 0.068 8.34 4.28 10.29
9/20/2021 12:30:00 PM 16.83 62.294 0.067 8.43 4.73 10.3
9/20/2021 12:45:00 PM 17.14 62.852 0.067 8.54 7.85 10.31
9/20/2021 1:00:00 PM 17.49 63.482 0.059 8.66 4.3 10.32
9/20/2021 1:15:00 PM 17.87 64.166 0.066 8.79 4.91 10.31
9/20/2021 1:30:00 PM 18.21 64.778 0.068 8.88 5.33 10.3
9/20/2021 1:45:00 PM 18.43 65.174 0.068 8.97 5.51 10.25
9/20/2021 2:00:00 PM 18.6 65.48 0.066 9.02 5.35 10.18
9/20/2021 2:15:00 PM 18.74 65.732 0.067 9.09 5.28 10.14
9/20/2021 2:30:00 PM 18.8 65.84 0.066 9.12 6.02 10.1
9/20/2021 2:45:00 PM 18.87 65.966 0.067 9.16 6.56 10.06
9/20/2021 3:00:00 PM 18.98 66.164 0.067 9.2 5.22 10.05
9/20/2021 3:15:00 PM 19.16 66.488 0.066 9.23 5.13 10.02
9/20/2021 3:30:00 PM 19.3 66.74 0.066 9.25 5.52 9.91
9/20/2021 3:45:00 PM 19.35 66.83 0.067 9.25 5.36 9.9
9/20/2021 4:00:00 PM 19.34 66.812 0.065 9.28 5.63 9.83
9/20/2021 4:15:00 PM 19.33 66.794 0.066 9.29 5.23 9.84
9/20/2021 4:30:00 PM 19.3 66.74 0.066 9.29 5.62 9.74
9/20/2021 4:45:00 PM 19.25 66.65 0.065 9.27 6.27 9.65
9/20/2021 5:00:00 PM 19.21 66.578 0.066 9.24 5.44 9.57
9/20/2021 5:15:00 PM 19.18 66.524 0.065 9.22 5.34 9.53
9/20/2021 5:30:00 PM 19.13 66.434 0.065 9.19 4.73 9.44
9/20/2021 5:45:00 PM 19.08 66.344 0.065 9.13 4.63 9.33
9/20/2021 6:00:00 PM 19.03 66.254 0.066 9.03 6.12 9.16
9/20/2021 6:15:00 PM 18.98 66.164 0.066 8.89 5.54 8.98
9/20/2021 6:30:00 PM 18.93 66.074 0.067 8.74 4.87 8.86
9/20/2021 6:45:00 PM 18.9 66.02 0.066 8.53 5.13 8.77
9/20/2021 7:00:00 PM 18.87 65.966 0.066 8.32 5.72 8.68
9/20/2021 7:15:00 PM 18.85 65.93 0.065 8.12 6.3 8.61
9/20/2021 7:30:00 PM 18.83 65.894 0.067 7.96 5.81 8.55
9/20/2021 7:45:00 PM 18.81 65.858 0.067 7.85 5.94 8.51
9/20/2021 8:00:00 PM 18.79 65.82201 0.067 7.76 3.69 8.47
9/20/2021 8:15:00 PM 18.77 65.786 0.067 7.72 5.01 8.44
9/20/2021 8:30:00 PM 18.74 65.732 0.065 7.64 4.12 8.44
9/20/2021 8:45:00 PM 18.7 65.66 0.069 7.61 4.09 8.43
9/20/2021 9:00:00 PM 18.66 65.588 0.069 7.59 5.3 8.44
9/20/2021 9:15:00 PM 18.62 65.516 0.07 7.57 3.82 8.42
9/20/2021 9:30:00 PM 18.57 65.426 0.071 7.55 3.94 8.44
9/20/2021 9:45:00 PM 18.51 65.318 0.071 7.54 14.48 8.44
9/20/2021 10:00:00 PM 18.46 65.228 0.074 7.54 3.89 8.45
9/20/2021 10:15:00 PM 18.39 65.102 0.074 7.52 3.91 8.47
9/20/2021 10:30:00 PM 18.34 65.012 0.073 7.52 3.96 8.48
9/20/2021 10:45:00 PM 18.28 64.904 0.073 7.52 8.61 8.49
9/20/2021 11:00:00 PM 18.21 64.778 0.073 7.51 5.39 8.5
9/20/2021 11:15:00 PM 18.15 64.67 0.073 7.51 4.94 8.51
9/20/2021 11:30:00 PM 18.08 64.544 0.073 7.5 4.85 8.54
9/20/2021 11:45:00 PM 18.01 64.418 0.073 7.5 4.74 8.53
9/21/2021 12:00:00 AM 17.94 64.292 0.073 7.5 5.09 8.54
9/21/2021 12:15:00 AM 17.87 64.166 0.073 7.5 4.97 8.57
9/21/2021 12:30:00 AM 17.8 64.04 0.071 7.51 5.22 8.59
9/21/2021 12:45:00 AM 17.73 63.914 0.073 7.48 5.76 8.58
9/21/2021 1:00:00 AM 17.66 63.788 0.073 7.5 4.84 8.62
9/21/2021 1:15:00 AM 17.6 63.68 0.073 7.51 9.12 8.62
9/21/2021 1:30:00 AM 17.54 63.572 0.073 7.5 4.62 8.65
9/21/2021 1:45:00 AM 17.47 63.446 0.073 7.48 4.56 8.68
9/21/2021 2:00:00 AM 17.4 63.32 0.073 7.48 4.95 8.68
9/21/2021 2:15:00 AM 17.34 63.212 0.073 7.47 6.79 8.7
9/21/2021 2:30:00 AM 17.27 63.086 0.075 7.49 6.14 8.7
9/21/2021 2:45:00 AM 17.22 62.996 0.074 7.46 5.5 8.72
9/21/2021 3:00:00 AM 17.17 62.906 0.074 7.47 5.37 8.73
9/21/2021 3:15:00 AM 17.14 62.852 0.074 7.48 4.59 8.75
9/21/2021 3:30:00 AM 17.11 62.798 0.073 7.47 5.15 8.76
9/21/2021 3:45:00 AM 17.08 62.744 0.073 7.46 5.57 8.76
9/21/2021 4:00:00 AM 17.06 62.708 0.073 7.46 5.33 8.79
9/21/2021 4:15:00 AM 17.04 62.672 0.073 7.48 4.44 8.78
9/21/2021 4:30:00 AM 17.02 62.636 0.072 7.45 7.01 8.79
9/21/2021 4:45:00 AM 17 62.6 0.073 7.46 4.88 8.79
9/21/2021 5:00:00 AM 16.97 62.546 0.073 7.49 5.26 8.8
9/21/2021 5:15:00 AM 16.95 62.51 0.073 7.48 4.83 8.8
9/21/2021 5:30:00 AM 16.94 62.492 0.073 7.45 4.83 8.82
9/21/2021 5:45:00 AM 16.92 62.456 0.073 7.46 4.61 8.81
9/21/2021 6:00:00 AM 16.91 62.438 0.073 7.46 4.86 8.8
9/21/2021 6:15:00 AM 16.89 62.402 0.073 7.48 4.69 8.83
9/21/2021 6:30:00 AM 16.88 62.384 0.072 7.46 5.76 8.83
9/21/2021 6:45:00 AM 16.86 62.348 0.073 7.49 4.92 8.84
9/21/2021 7:00:00 AM 16.85 62.33 0.072 7.46 4.83 8.83
9/21/2021 7:15:00 AM 16.83 62.294 0.072 7.46 4.8 8.85
9/21/2021 7:30:00 AM 16.81 62.258 0.072 7.49 5.64 8.88
9/21/2021 7:45:00 AM 16.8 62.24 0.072 7.5 5.59 8.94
9/21/2021 8:00:00 AM 16.8 62.24 0.072 7.52 5.71 9.05
9/21/2021 8:15:00 AM 16.8 62.24 0.072 7.53 6.01 9.12
9/21/2021 8:30:00 AM 16.79 62.222 0.071 7.56 4.96 9.21
9/21/2021 8:45:00 AM 16.79 62.222 0.074 7.58 5.4 9.27
9/21/2021 9:00:00 AM 16.79 62.222 0.073 7.63 4.51 9.34
9/21/2021 9:15:00 AM 16.79 62.222 0.072 7.63 4.36 9.43
9/21/2021 9:30:00 AM 16.84 62.312 0.072 7.7 4.78 9.64
9/21/2021 9:45:00 AM 16.9 62.42 0.071 7.82 4.72 9.82
9/21/2021 10:00:00 AM 16.93 62.474 0.072 7.9 4.59 9.89
9/21/2021 10:15:00 AM 17.03 62.654 0.071 8 4.76 10.02
9/21/2021 10:30:00 AM 17.12 62.816 0.07 8.12 5 10.12
9/21/2021 10:45:00 AM 17.19 62.942 0.071 8.23 4.46 10.14
9/21/2021 11:00:00 AM 17.27 63.086 0.07 8.36 4.36 10.21
9/21/2021 11:15:00 AM 17.34 63.212 0.07 8.44 4.47 10.23
9/21/2021 11:30:00 AM 17.42 63.356 0.071 8.55 4.36 10.24
9/21/2021 11:45:00 AM 17.5 63.5 0.071 8.63 4.42 10.22
9/21/2021 12:00:00 PM 17.56 63.608 0.07 8.69 9.47 10.23
9/21/2021 12:15:00 PM 17.62 63.716 0.071 8.74 5 10.18
9/21/2021 12:30:00 PM 17.69 63.842 0.07 8.79 4.63 10.18
9/21/2021 12:45:00 PM 17.78 64.004 0.07 8.84 4.66 10.19
9/21/2021 1:00:00 PM 17.86 64.148 0.067 8.89 4.88 10.15
9/21/2021 1:15:00 PM 17.96 64.328 0.068 8.95 4.52 10.14
9/21/2021 1:30:00 PM 18.04 64.472 0.068 9.02 4.38 10.14
9/21/2021 1:45:00 PM 18.2 64.76 0.07 9.08 4.52 10.12
9/21/2021 2:00:00 PM 18.3 64.94 0.068 9.13 4.5 10.12
9/21/2021 2:15:00 PM 18.37 65.066 0.069 9.14 4.25 10.02
9/21/2021 2:30:00 PM 18.49 65.282 0.065 9.19 4.75 10.03
9/21/2021 2:45:00 PM 18.63 65.534 0.067 9.21 4.9 10
9/21/2021 3:00:00 PM 18.78 65.804 0.067 9.26 4.67 9.99
9/21/2021 3:15:00 PM 18.89 66.002 0.067 9.29 5.64 9.97
9/21/2021 3:30:00 PM 18.95 66.11 0.068 9.31 5.25 9.95
9/21/2021 3:45:00 PM 19.01 66.218 0.068 9.35 5.19 9.92
9/21/2021 4:00:00 PM 19.02 66.236 0.066 9.35 4.7 9.87
9/21/2021 4:15:00 PM 19.03 66.254 0.067 9.36 4.78 9.79
9/21/2021 4:30:00 PM 19.04 66.272 0.067 9.36 5.15 9.71
9/21/2021 4:45:00 PM 19.06 66.308 0.067 9.35 4.7 9.66
9/21/2021 5:00:00 PM 19.08 66.344 0.066 9.35 5.78 9.61
9/21/2021 5:15:00 PM 19.09 66.362 0.066 9.33 9.2 9.53
9/21/2021 5:30:00 PM 19.1 66.38 0.066 9.31 4.44 9.43
9/21/2021 5:45:00 PM 19.09 66.362 0.067 9.27 5.31 9.32
9/21/2021 6:00:00 PM 19.07 66.326 0.066 9.21 4.37 9.17
9/21/2021 6:15:00 PM 19.05 66.29 0.068 9.15 4.66 9.08
9/21/2021 6:30:00 PM 19.03 66.254 0.068 9.08 4.68 8.97
9/21/2021 6:45:00 PM 19 66.2 0.067 8.97 4.74 8.85
9/21/2021 7:00:00 PM 18.97 66.146 0.067 8.84 4.85 8.71
9/21/2021 7:15:00 PM 18.93 66.074 0.066 8.67 4.16 8.61
9/21/2021 7:30:00 PM 18.9 66.02 0.07 8.46 4.15 8.54
9/21/2021 7:45:00 PM 18.86 65.948 0.071 8.24 4.75 8.47
9/21/2021 8:00:00 PM 18.82 65.876 0.069 8.06 4.43 8.44
9/21/2021 8:15:00 PM 18.79 65.82201 0.071 7.92 4.52 8.36
9/21/2021 8:30:00 PM 18.75 65.75 0.073 7.82 4.4 8.37
9/21/2021 8:45:00 PM 18.71 65.67799 0.073 7.74 5.02 8.38
9/21/2021 9:00:00 PM 18.68 65.624 0.074 7.69 8.74 8.34
9/21/2021 9:15:00 PM 18.64 65.552 0.072 7.65 4.79 8.37
9/21/2021 9:30:00 PM 18.6 65.48 0.073 7.62 4.51 8.33
9/21/2021 9:45:00 PM 18.56 65.408 0.074 7.6 3.94 8.37
9/21/2021 10:00:00 PM 18.52 65.336 0.075 7.59 5.22 8.36
9/21/2021 10:15:00 PM 18.48 65.264 0.075 7.56 4.74 8.37
9/21/2021 10:30:00 PM 18.44 65.192 0.075 7.55 4.36 8.34
9/21/2021 10:45:00 PM 18.41 65.138 0.075 7.54 4.79 8.38
9/21/2021 11:00:00 PM 18.38 65.084 0.074 7.53 11.51 8.38
9/21/2021 11:15:00 PM 18.35 65.03 0.074 7.52 4.95 8.39
9/21/2021 11:30:00 PM 18.32 64.976 0.074 7.52 5.01 8.39
9/21/2021 11:45:00 PM 18.3 64.94 0.077 7.5 5.47 8.37
9/22/2021 12:00:00 AM 18.27 64.886 0.077 7.5 4.95 8.38
9/22/2021 12:15:00 AM 18.25 64.85 0.076 7.48 4.97 8.39
9/22/2021 12:30:00 AM 18.23 64.814 0.076 7.49 5.08 8.41
9/22/2021 12:45:00 AM 18.21 64.778 0.078 7.49 4.76 8.4
9/22/2021 1:00:00 AM 18.19 64.742 0.075 7.48 4.5 8.41
9/22/2021 1:15:00 AM 18.17 64.706 0.077 7.48 4.8 8.41
9/22/2021 1:30:00 AM 18.15 64.67 0.077 7.48 4.82 8.43
9/22/2021 1:45:00 AM 18.13 64.634 0.074 7.48 6.05 8.41
9/22/2021 2:00:00 AM 18.1 64.58 0.075 7.48 5.76 8.42
9/22/2021 2:15:00 AM 18.08 64.544 0.074 7.48 5.13 8.43
9/22/2021 2:30:00 AM 18.05 64.49 0.074 7.47 5.09 8.45
9/22/2021 2:45:00 AM 18.03 64.454 0.075 7.46 4.29 8.44
9/22/2021 3:00:00 AM 18.01 64.418 0.074 7.46 4.72 8.46
9/22/2021 3:15:00 AM 17.99 64.382 0.075 7.47 4.88 8.44
9/22/2021 3:30:00 AM 17.97 64.346 0.074 7.46 4.98 8.42
9/22/2021 3:45:00 AM 17.94 64.292 0.074 7.46 4.46 8.44
9/22/2021 4:00:00 AM 17.92 64.256 0.075 7.46 4.47 8.46
9/22/2021 4:15:00 AM 17.9 64.22 0.074 7.45 4.78 8.45
9/22/2021 4:30:00 AM 17.88 64.184 0.077 7.46 4.96 8.49
9/22/2021 4:45:00 AM 17.85 64.13 0.077 7.45 4.99 8.49
9/22/2021 5:00:00 AM 17.83 64.094 0.076 7.45 4.87 8.41
9/22/2021 5:15:00 AM 17.81 64.058 0.076 7.46 4.58 8.45
9/22/2021 5:30:00 AM 17.78 64.004 0.075 7.45 4.67 8.51
9/22/2021 5:45:00 AM 17.76 63.968 0.074 7.45 5.05 8.51
9/22/2021 6:00:00 AM 17.74 63.932 0.074 7.46 5.11 8.54
9/22/2021 6:15:00 AM 17.72 63.896 0.073 7.45 5.16 8.54
9/22/2021 6:30:00 AM 17.7 63.86 0.073 7.45 6.4 8.56
9/22/2021 6:45:00 AM 17.69 63.842 0.073 7.46 5.78 8.5
9/22/2021 7:00:00 AM 17.67 63.806 0.073 7.46 8.89 8.57
9/22/2021 7:15:00 AM 17.65 63.77 0.073 7.45 4.45 8.58
9/22/2021 7:30:00 AM 17.64 63.752 0.072 7.45 5.06 8.59
9/22/2021 7:45:00 AM 17.63 63.734 0.074 7.47 5.15 8.66
9/22/2021 8:00:00 AM 17.62 63.716 0.072 7.47 4.91 8.7
9/22/2021 8:15:00 AM 17.62 63.716 0.072 7.49 4.28 8.74
9/22/2021 8:30:00 AM 17.61 63.698 0.072 7.5 4.43 8.75
9/22/2021 8:45:00 AM 17.61 63.698 0.072 7.5 4.25 8.78
9/22/2021 9:00:00 AM 17.61 63.698 0.072 7.5 4.17 8.79
9/22/2021 9:15:00 AM 17.61 63.698 0.072 7.52 4.75 8.84
9/22/2021 9:30:00 AM 17.63 63.734 0.072 7.54 4.48 8.96
9/22/2021 9:45:00 AM 17.66 63.788 0.071 7.59 4.68 9.12
9/22/2021 10:00:00 AM 17.7 63.86 0.073 7.64 4.61 9.26
9/22/2021 10:15:00 AM 17.74 63.932 0.074 7.7 4.55 9.38
9/22/2021 10:30:00 AM 17.77 63.986 0.072 7.72 4.04 9.38
9/22/2021 10:45:00 AM 17.8 64.04 0.071 7.74 4.46 9.34
9/22/2021 11:00:00 AM 17.82 64.076 0.071 7.75 6.81 9.34
9/22/2021 11:15:00 AM 17.86 64.148 0.071 7.77 8.37 9.41
9/22/2021 11:30:00 AM 17.9 64.22 0.07 7.83 5.45 9.47
9/22/2021 11:45:00 AM 17.94 64.292 0.068 7.88 4.16 9.51
9/22/2021 12:00:00 PM 17.98 64.364 0.068 7.91 4.35 9.53
9/22/2021 12:15:00 PM 18.03 64.454 0.069 7.95 4.57 9.54
9/22/2021 12:30:00 PM 18.09 64.562 0.068 8.01 5.06 9.57
9/22/2021 12:45:00 PM 18.14 64.652 0.068 8.06 4.96 9.59
9/22/2021 1:00:00 PM 18.19 64.742 0.067 8.12 4.86 9.61
9/22/2021 1:15:00 PM 18.23 64.814 0.07 8.11 4.9 9.53
9/22/2021 1:30:00 PM 18.25 64.85 0.071 8.06 5.81 9.39
9/22/2021 1:45:00 PM 18.28 64.904 0.067 8 5.21 9.31
9/22/2021 2:00:00 PM 18.31 64.958 0.066 7.98 4.7 9.3
9/22/2021 2:15:00 PM 18.36 65.048 0.068 8.02 4.85 9.38
9/22/2021 2:30:00 PM 18.41 65.138 0.068 8.14 5.27 9.42
9/22/2021 2:45:00 PM 18.46 65.228 0.067 8.17 5.21 9.44
9/22/2021 3:00:00 PM 18.5 65.3 0.066 8.23 5.17 9.44
9/22/2021 3:15:00 PM 18.55 65.39 0.067 8.3 2459.14 9.48
9/22/2021 3:30:00 PM 18.57 65.426 0.068 8.29 4.39 9.45
9/22/2021 3:45:00 PM 18.61 65.498 0.069 8.29 4.49 9.43
9/22/2021 4:00:00 PM 18.66 65.588 0.07 8.3 6.65 9.44
9/22/2021 4:15:00 PM 18.71 65.67799 0.067 8.34 4.72 9.42
9/22/2021 4:30:00 PM 18.75 65.75 0.066 8.32 4.57 9.34
9/22/2021 4:45:00 PM 18.76 65.768 0.066 8.23 4.54 9.18
9/22/2021 5:00:00 PM 18.78 65.804 0.066 8.16 5.56 9.1
9/22/2021 5:15:00 PM 18.79 65.82201 0.066 8.05 6.11 8.97
9/22/2021 5:30:00 PM 18.78 65.804 0.066 7.98 5.96 8.89
9/22/2021 5:45:00 PM 18.77 65.786 0.066 7.88 6.16 8.85
9/22/2021 6:00:00 PM 18.76 65.768 0.067 7.85 5.67 8.82
9/22/2021 6:15:00 PM 18.73 65.714 0.066 7.8 6.18 8.77
9/22/2021 6:30:00 PM 18.7 65.66 0.067 7.67 5.89 8.71
9/22/2021 6:45:00 PM 18.66 65.588 0.067 7.66 6.14 8.64
9/22/2021 7:00:00 PM 18.62 65.516 0.067 7.65 5.75 8.6
9/22/2021 7:15:00 PM 18.58 65.444 0.067 7.62 6.17 8.57
9/22/2021 7:30:00 PM 18.55 65.39 0.068 7.6 6.11 8.55
9/22/2021 7:45:00 PM 18.51 65.318 0.068 7.58 7.14 8.53
9/22/2021 8:00:00 PM 18.46 65.228 0.068 7.56 6.52 8.52
9/22/2021 8:15:00 PM 18.43 65.174 0.067 7.55 6.28 8.5
9/22/2021 8:30:00 PM 18.4 65.12 0.067 7.53 6.58 8.5
9/22/2021 8:45:00 PM 18.37 65.066 0.067 7.51 6.7 8.51
9/22/2021 9:00:00 PM 18.35 65.03 0.068 7.53 6.98 8.51
9/22/2021 9:15:00 PM 18.33 64.994 0.066 7.51 7.5 8.51
9/22/2021 9:30:00 PM 18.33 64.994 0.066 7.49 7.61 8.52
9/22/2021 9:45:00 PM 18.31 64.958 0.066 7.49 8.19 8.52
9/22/2021 10:00:00 PM 18.3 64.94 0.066 7.48 8.7 8.52
9/22/2021 10:15:00 PM 18.31 64.958 0.065 7.49 8.47 8.53
9/22/2021 10:30:00 PM 18.28 64.904 0.066 7.47 8.93 8.53
9/22/2021 10:45:00 PM 18.25 64.85 0.067 7.48 9.39 8.53
9/22/2021 11:00:00 PM 18.23 64.814 0.067 7.48 10.67 8.53
9/22/2021 11:15:00 PM 18.19 64.742 0.067 7.48 9.75 8.53
9/22/2021 11:30:00 PM 18.16 64.688 0.067 7.47 8.58 8.54
9/22/2021 11:45:00 PM 18.13 64.634 0.068 7.46 8.93 8.53
9/23/2021 12:00:00 AM 18.09 64.562 0.067 7.46 10.36 8.54
9/23/2021 12:15:00 AM 18.05 64.49 0.068 7.48 9.25 8.55
9/23/2021 12:30:00 AM 18 64.4 0.068 7.46 9.34 8.57
9/23/2021 12:45:00 AM 17.95 64.31 0.067 7.47 11.33 8.58
9/23/2021 1:00:00 AM 17.91 64.238 0.066 7.47 10.86 8.61
9/23/2021 1:15:00 AM 17.86 64.148 0.066 7.47 11 8.62
9/23/2021 1:30:00 AM 17.81 64.058 0.066 7.46 14.05 8.65
9/23/2021 1:45:00 AM 17.77 63.986 0.066 7.46 16.26 8.65
9/23/2021 2:00:00 AM 17.73 63.914 0.066 7.46 16.47 8.66
9/23/2021 2:15:00 AM 17.69 63.842 0.067 7.44 18.68 8.66
9/23/2021 2:30:00 AM 17.64 63.752 0.066 7.43 19.12 8.67
9/23/2021 2:45:00 AM 17.59 63.662 0.066 7.43 20.46 8.68
9/23/2021 3:00:00 AM 17.52 63.536 0.066 7.41 23.92 8.71
9/23/2021 3:15:00 AM 17.46 63.428 0.065 7.43 30.47 8.73
9/23/2021 3:30:00 AM 17.4 63.32 0.063 7.39 32.99 8.75
9/23/2021 3:45:00 AM 17.34 63.212 0.063 7.42 38.25 8.75
9/23/2021 4:00:00 AM 17.27 63.086 0.063 7.39 43.7 8.77
9/23/2021 4:15:00 AM 17.2 62.96 0.063 7.38 47.98 8.79
9/23/2021 4:30:00 AM 17.11 62.798 0.061 7.39 44.35 8.8
9/23/2021 4:45:00 AM 17.03 62.654 0.06 7.38 45.59 8.82
9/23/2021 5:00:00 AM 16.94 62.492 0.059 7.35 69.76 8.86
9/23/2021 5:15:00 AM 16.85 62.33 0.059 7.38 72.89 8.87
9/23/2021 5:30:00 AM 16.77 62.186 0.057 7.37 75.09 8.9
9/23/2021 5:45:00 AM 16.69 62.042 0.056 7.35 62.76 8.92
9/23/2021 6:00:00 AM 16.61 61.898 0.054 7.33 93.75 8.93
9/23/2021 6:15:00 AM 16.53 61.754 0.053 7.31 100.1 8.94
9/23/2021 6:30:00 AM 16.45 61.61 0.052 7.28 97.84 8.96
9/23/2021 6:45:00 AM 16.38 61.484 0.05 7.25 89.81 8.98
9/23/2021 7:00:00 AM 16.32 61.376 0.05 7.29 103.23 8.99
9/23/2021 7:15:00 AM 16.26 61.268 0.049 7.19 8432.14 9
9/23/2021 7:30:00 AM 16.21 61.178 0.047 7.13 108.11 8.99
9/23/2021 7:45:00 AM 16.15 61.07 0.048 7.15 122.76 9.01
9/23/2021 8:00:00 AM 16.08 60.944 0.047 7.1 2598.92 9.02
9/23/2021 8:15:00 AM 16.01 60.818 0.047 7.11 119.69 9.04
9/23/2021 8:30:00 AM 15.94 60.692 0.046 7.11 57.7 9.06
9/23/2021 8:45:00 AM 15.87 60.566 0.044 7.1 776 9.07
9/23/2021 9:00:00 AM 15.81 60.458 0.043 7.1 173.67 9.09
9/23/2021 9:15:00 AM 15.75 60.35 0.042 7.15 1804.46 9.1
9/23/2021 9:30:00 AM 15.7 60.26 0.042 7.14 7458.53 9.1
9/23/2021 9:45:00 AM 15.66 60.188 0.042 7.14 9641.47 9.11
9/23/2021 10:00:00 AM 15.62 60.116 0.041 7.14 2269.87 9.09
9/23/2021 10:15:00 AM 15.58 60.044 0.041 7.11 10553.82 9.04
9/23/2021 10:30:00 AM 15.54 59.972 0.041 7.08 14795.95 9.14
9/23/2021 10:45:00 AM 15.51 59.918 0.04 7.07 14230.07 9.17
9/23/2021 11:00:00 AM 15.49 59.882 0.04 7.05 2644.08 9.17
9/23/2021 11:15:00 AM 15.45 59.81 0.04 7.05 2678.23 9.18
9/23/2021 11:30:00 AM 15.42 59.756 0.04 7.05 2614.84 9.2
9/23/2021 11:45:00 AM 15.4 59.72 0.039 7.04 2158.38 9.23
9/23/2021 12:00:00 PM 15.38 59.684 0.039 7.03 714.59 9.23
9/23/2021 12:15:00 PM 15.36 59.648 0.039 7.03 228.8 9.23
9/23/2021 12:30:00 PM 15.34 59.612 0.039 7.02 3573.21 9.23
9/23/2021 12:45:00 PM 15.35 59.63 0.039 7.02 3373.46 9.23
9/23/2021 1:00:00 PM 15.33 59.594 0.038 7 2881.17 9.26
9/23/2021 1:15:00 PM 15.29 59.522 0.038 7 2212.98 9.28
9/23/2021 1:30:00 PM 15.27 59.486 0.038 6.99 12904.23 9.3
9/23/2021 1:45:00 PM 15.24 59.432 0.038 6.98 5951.57 9.31
9/23/2021 2:00:00 PM 15.21 59.378 0.038 6.97 3675.42 9.33
9/23/2021 2:15:00 PM 15.19 59.342 0.038 6.95 22669.09 9.34
9/23/2021 2:30:00 PM 15.18 59.324 0.038 6.96 14012.92 9.34
9/23/2021 2:45:00 PM 15.14 59.252 0.039 6.95 15850.49 9.35
9/23/2021 3:00:00 PM 15.07 59.126 0.039 6.96 374.79 9.36
9/23/2021 3:15:00 PM 15.02 59.036 0.039 6.97 162.88 9.38
9/23/2021 3:30:00 PM 14.97 58.946 0.04 6.94 44.94 9.39
9/23/2021 3:45:00 PM 14.91 58.838 0.039 6.96 38.09 9.4
9/23/2021 4:00:00 PM 14.84 58.712 0.04 6.97 42.61 9.41
9/23/2021 4:15:00 PM 14.78 58.604 0.038 6.99 426.28 9.42
9/23/2021 4:30:00 PM 14.71 58.478 0.038 6.98 40.97 9.44
9/23/2021 4:45:00 PM 14.64 58.352 0.038 7 32.73 9.45
9/23/2021 5:00:00 PM 14.57 58.226 0.038 7.01 39.99 9.48
9/23/2021 5:15:00 PM 14.5 58.1 0.038 6.97 1203.07 9.49
9/23/2021 5:30:00 PM 14.43 57.974 0.038 6.96 36.47 9.51
9/23/2021 5:45:00 PM 14.35 57.83 0.038 6.97 35.81 9.53
9/23/2021 6:00:00 PM 14.27 57.686 0.038 6.99 1460.75 9.54
9/23/2021 6:15:00 PM 14.19 57.542 0.038 6.91 33.21 9.56
9/23/2021 6:30:00 PM 14.11 57.398 0.038 6.98 44.24 9.58
9/23/2021 6:45:00 PM 14.03 57.254 0.038 6.96 35.03 9.6
9/23/2021 7:00:00 PM 13.97 57.146 0.038 6.96 32.82 9.61
9/23/2021 7:15:00 PM 13.9 57.02 0.038 6.94 56.07 9.62
9/23/2021 7:30:00 PM 13.83 56.894 0.038 6.98 33.3 9.65
9/23/2021 7:45:00 PM 13.77 56.786 0.039 6.95 35.12 9.65
9/23/2021 8:00:00 PM 13.71 56.678 0.038 6.96 30.26 9.66
9/23/2021 8:15:00 PM 13.65 56.57 0.038 6.96 31.1 9.68
9/23/2021 8:30:00 PM 13.59 56.462 0.038 6.95 27.3 9.69
9/23/2021 8:45:00 PM 13.53 56.354 0.038 6.95 25.47 9.7
9/23/2021 9:00:00 PM 13.47 56.246 0.038 6.96 27.17 9.72
9/23/2021 9:15:00 PM 13.42 56.156 0.038 6.96 27.38 9.74
9/23/2021 9:30:00 PM 13.36 56.048 0.038 6.96 785.7 9.75
9/23/2021 9:45:00 PM 13.31 55.958 0.038 6.96 784.46 9.76
9/23/2021 10:00:00 PM 13.27 55.886 0.038 6.96 712.79 9.77
9/23/2021 10:15:00 PM 13.22 55.796 0.038 6.96 50.86 9.79
9/23/2021 10:30:00 PM 13.17 55.706 0.038 6.97 210.45 9.79
9/23/2021 10:45:00 PM 13.13 55.634 0.038 6.96 20343.17 9.81
9/23/2021 11:00:00 PM 13.09 55.562 0.038 6.96 23.4 9.83
9/23/2021 11:15:00 PM 13.05 55.49 0.038 6.94 1397.46 9.83
9/23/2021 11:30:00 PM 13.01 55.418 0.038 6.95 18661.5 9.83
9/23/2021 11:45:00 PM 12.98 55.364 0.039 6.99 23.37 9.85
9/24/2021 12:00:00 AM 12.94 55.292 0.038 6.98 23.18 9.85
9/24/2021 12:15:00 AM 12.9 55.22 0.039 6.94 6595.15 9.86
9/24/2021 12:30:00 AM 12.87 55.166 0.039 6.95 13087.75 9.87
9/24/2021 12:45:00 AM 12.83 55.094 0.04 6.95 4020.19 9.88
9/24/2021 1:00:00 AM 12.8 55.04 0.039 6.99 21.18 9.88
9/24/2021 1:15:00 AM 12.76 54.968 0.039 6.97 23.13 9.89
9/24/2021 1:30:00 AM 12.73 54.914 0.039 6.97 21.01 9.9
9/24/2021 1:45:00 AM 12.7 54.86 0.039 6.97 956.85 9.9
9/24/2021 2:00:00 AM 12.68 54.824 0.04 6.98 1464.35 9.92
9/24/2021 2:15:00 AM 12.66 54.788 0.039 6.98 428.28 9.92
9/24/2021 2:30:00 AM 12.63 54.734 0.039 6.98 410.28 9.93
9/24/2021 2:45:00 AM 12.61 54.698 0.039 6.99 415.6 9.93
9/24/2021 3:00:00 AM 12.59 54.662 0.039 6.98 445.4 9.94
9/24/2021 3:15:00 AM 12.57 54.626 0.04 6.99 431.93 9.94
9/24/2021 3:30:00 AM 12.54 54.572 0.04 6.98 20.29 9.95
9/24/2021 3:45:00 AM 12.52 54.536 0.04 6.98 20.22 9.96
9/24/2021 4:00:00 AM 12.49 54.482 0.039 6.99 19.45 9.96
9/24/2021 4:15:00 AM 12.46 54.428 0.04 6.98 20.02 9.97
9/24/2021 4:30:00 AM 12.43 54.374 0.04 6.99 19.63 9.99
9/24/2021 4:45:00 AM 12.41 54.338 0.04 6.98 20.1 10
9/24/2021 5:00:00 AM 12.38 54.284 0.04 6.99 19.84 10
9/24/2021 5:15:00 AM 12.35 54.23 0.04 6.98 18.76 10.02
9/24/2021 5:30:00 AM 12.32 54.176 0.04 6.99 18.92 10.02
9/24/2021 5:45:00 AM 12.29 54.122 0.04 6.99 18.5 10.01
9/24/2021 6:00:00 AM 12.25 54.05 0.04 6.99 16.74 10.03
9/24/2021 6:15:00 AM 12.22 53.996 0.04 6.99 17.79 10.04
9/24/2021 6:30:00 AM 12.19 53.942 0.04 6.99 17.89 10.05
9/24/2021 6:45:00 AM 12.16 53.888 0.04 6.99 17.82 10.05
9/24/2021 7:00:00 AM 12.13 53.834 0.04 7 18.65 10.06
9/24/2021 7:15:00 AM 12.1 53.78 0.041 6.99 21.11 10.08
9/24/2021 7:30:00 AM 12.07 53.726 0.04 7 15.67 10.09
9/24/2021 7:45:00 AM 12.05 53.69 0.043 6.98 23.68 10.11
9/24/2021 8:00:00 AM 12.04 53.672 0.038 6.97 16.7 10.13
9/24/2021 8:15:00 AM 12.02 53.636 0.042 6.98 15.48 10.14
9/24/2021 8:30:00 AM 12.02 53.636 0.04 7.01 16.82 10.15
9/24/2021 8:45:00 AM 12.01 53.618 0.042 7.01 17.44 10.16
9/24/2021 9:00:00 AM 12 53.6 0.041 6.99 38.36 10.17
9/24/2021 9:15:00 AM 12.01 53.618 0.04 7 36.78 10.19
9/24/2021 9:30:00 AM 12.02 53.636 0.04 7.01 23.8 10.21
9/24/2021 9:45:00 AM 12.03 53.654 0.041 7.02 792.62 10.24
9/24/2021 10:00:00 AM 12.06 53.708 0.041 7.03 33.25 10.25
9/24/2021 10:15:00 AM 12.08 53.744 0.04 7.04 3265.78 10.26
9/24/2021 10:30:00 AM 12.1 53.78 0.04 7.06 37.58 10.28
9/24/2021 10:45:00 AM 12.15 53.87 0.04 7.07 43.37 10.26
9/24/2021 11:00:00 AM 12.2 53.96 0.04 7.07 305.22 10.26
9/24/2021 11:15:00 AM 12.26 54.068 0.04 7.07 35.38 10.27
9/24/2021 11:30:00 AM 12.32 54.176 0.04 7.07 43.01 10.26
9/24/2021 11:45:00 AM 12.4 54.32 0.04 7.08 22.93 10.27
9/24/2021 12:00:00 PM 12.49 54.482 0.042 7.08 19.02 10.24
9/24/2021 12:15:00 PM 12.59 54.662 0.041 7.06 16.73 10.25
9/24/2021 12:30:00 PM 12.71 54.878 0.041 7.07 24.65 10.23
9/24/2021 12:45:00 PM 12.83 55.094 0.04 7.03 11.78 10.21
9/24/2021 1:00:00 PM 12.94 55.292 0.04 7.11 34.74 10.19
9/24/2021 1:15:00 PM 13.07 55.526 0.04 7.11 34.84 10.18
9/24/2021 1:30:00 PM 13.19 55.742 0.04 7.13 51.04 10.15
9/24/2021 1:45:00 PM 13.33 55.994 0.04 7.13 61.04 10.14
9/24/2021 2:00:00 PM 13.48 56.264 0.04 7.13 748.22 10.12
9/24/2021 2:15:00 PM 13.6 56.48 0.041 7.15 20403.61 10.1
9/24/2021 2:30:00 PM 13.7 56.66 0.042 7.2 126.63 10.07
9/24/2021 2:45:00 PM 13.73 56.714 0.041 7.14 92.64 10.05
9/24/2021 3:00:00 PM 13.81 56.858 0.041 7.19 14.21 10.04
9/24/2021 3:15:00 PM 13.85 56.93 0.041 7.16 15.38 10.02
9/24/2021 3:30:00 PM 13.91 57.038 0.041 7.16 13.28 10.01
9/24/2021 3:45:00 PM 13.92 57.056 0.04 7.15 41.83 9.99
9/24/2021 4:00:00 PM 13.89 57.002 0.041 7.16 15.08 9.98
9/24/2021 4:15:00 PM 13.85 56.93 0.041 7.14 13.15 9.97
9/24/2021 4:30:00 PM 13.81 56.858 0.041 7.14 32.27 9.95
9/24/2021 4:45:00 PM 13.81 56.858 0.041 7.13 23.63 9.93
9/24/2021 5:00:00 PM 13.77 56.786 0.041 7.12 23.12 9.93
9/24/2021 5:15:00 PM 13.74 56.732 0.041 7.12 24.82 9.91
9/24/2021 5:30:00 PM 13.72 56.696 0.041 7.12 19.98 9.91
9/24/2021 5:45:00 PM 13.7 56.66 0.041 7.1 65.17 9.88
9/24/2021 6:00:00 PM 13.69 56.642 0.041 7.09 9789.04 9.87
9/24/2021 6:15:00 PM 13.65 56.57 0.041 7.08 23417.86 9.85
9/24/2021 6:30:00 PM 13.63 56.534 0.041 7.08 69.24 9.85
9/24/2021 6:45:00 PM 13.63 56.534 0.041 7.09 165 9.83
9/24/2021 7:00:00 PM 13.61 56.498 0.042 7.09 28.3 9.82
9/24/2021 7:15:00 PM 13.58 56.444 0.042 7 10.76 9.81
9/24/2021 7:30:00 PM 13.55 56.39 0.042 7.06 9.81 9.8
9/24/2021 7:45:00 PM 13.5 56.3 0.042 7.05 10.16 9.79
9/24/2021 8:00:00 PM 13.45 56.21 0.041 7.04 11.64 9.79
9/24/2021 8:15:00 PM 13.41 56.138 0.042 7.04 12.01 9.8
9/24/2021 8:30:00 PM 13.36 56.048 0.041 7.02 11.77 9.79
9/24/2021 8:45:00 PM 13.31 55.958 0.041 7.03 11.96 9.79
9/24/2021 9:00:00 PM 13.26 55.868 0.042 7.03 11.88 9.83
9/24/2021 9:15:00 PM 13.21 55.778 0.042 7.05 12.27 9.83
9/24/2021 9:30:00 PM 13.16 55.688 0.042 7.02 11.52 9.85
9/24/2021 9:45:00 PM 13.1 55.58 0.042 7.05 11.93 9.85
9/24/2021 10:00:00 PM 13.05 55.49 0.042 7.02 12.57 9.87
9/24/2021 10:15:00 PM 12.99 55.382 0.042 7.01 11.07 9.86
9/24/2021 10:30:00 PM 12.94 55.292 0.042 7.04 11.23 9.9
9/24/2021 10:45:00 PM 12.89 55.202 0.042 7.03 11.34 9.9
9/24/2021 11:00:00 PM 12.84 55.112 0.042 7.02 10.98 9.92
9/24/2021 11:15:00 PM 12.79 55.022 0.042 7.03 11.11 9.94
9/24/2021 11:30:00 PM 12.75 54.95 0.042 7.03 11.69 9.94
9/24/2021 11:45:00 PM 12.71 54.878 0.042 7.02 10.83 9.94
9/25/2021 12:00:00 AM 12.67 54.806 0.042 7.05 11.08 9.96
9/25/2021 12:15:00 AM 12.62 54.716 0.042 7.03 10.85 9.97
9/25/2021 12:30:00 AM 12.58 54.644 0.042 7.03 10.64 10
9/25/2021 12:45:00 AM 12.53 54.554 0.042 7.02 10.9 10.01
9/25/2021 1:00:00 AM 12.49 54.482 0.042 7.03 10.75 10.01
9/25/2021 1:15:00 AM 12.44 54.392 0.042 7.01 10.47 10.03
9/25/2021 1:30:00 AM 12.4 54.32 0.042 7.01 10.39 10.04
9/25/2021 1:45:00 AM 12.35 54.23 0.043 7.05 9.68 10.04
9/25/2021 2:00:00 AM 12.31 54.158 0.042 7.05 9.98 10.06
9/25/2021 2:15:00 AM 12.27 54.086 0.042 7.06 8.77 10.08
9/25/2021 2:30:00 AM 12.23 54.014 0.042 7.04 10.01 10.08
9/25/2021 2:45:00 AM 12.2 53.96 0.043 7.05 8.9 10.09
9/25/2021 3:00:00 AM 12.16 53.888 0.042 7.03 9.87 10.1
9/25/2021 3:15:00 AM 12.13 53.834 0.042 7.03 12560.03 10.11
9/25/2021 3:30:00 AM 12.09 53.762 0.042 7.06 8105.81 10.12
9/25/2021 3:45:00 AM 12.06 53.708 0.042 7.02 14595.66 10.12
9/25/2021 4:00:00 AM 12.03 53.654 0.042 7.03 13401.71 10.13
9/25/2021 4:15:00 AM 11.99 53.582 0.042 7.03 9122.98 10.14
9/25/2021 4:30:00 AM 11.96 53.528 0.043 7.04 10492.73 10.14
9/25/2021 4:45:00 AM 11.93 53.474 0.043 7.03 8187.87 10.15
9/25/2021 5:00:00 AM 11.9 53.42 0.043 7.05 8479.16 10.16
9/25/2021 5:15:00 AM 11.87 53.366 0.043 7.04 8762.98 10.17
9/25/2021 5:30:00 AM 11.84 53.312 0.043 7.03 7996.7 10.17
9/25/2021 5:45:00 AM 11.82 53.276 0.043 7.04 10253.68 10.18
9/25/2021 6:00:00 AM 11.79 53.222 0.043 7.04 8308.71 10.19
9/25/2021 6:15:00 AM 11.76 53.168 0.043 7.03 7700.78 10.2
9/25/2021 6:30:00 AM 11.74 53.132 0.043 7.04 4570.47 10.2
9/25/2021 6:45:00 AM 11.71 53.078 0.043 7.03 8888.63 10.21
9/25/2021 7:00:00 AM 11.69 53.042 0.043 7.04 9346.48 10.21
9/25/2021 7:15:00 AM 11.67 53.006 0.044 7.04 6093.46 10.22
9/25/2021 7:30:00 AM 11.65 52.97 0.043 7.04 17776.94 10.24
9/25/2021 7:45:00 AM 11.63 52.934 0.043 7.04 8751.01 10.25
9/25/2021 8:00:00 AM 11.61 52.898 0.043 7.1 12828.85 10.28
9/25/2021 8:15:00 AM 11.59 52.862 0.043 7.1 6302.36 10.31
9/25/2021 8:30:00 AM 11.58 52.844 0.043 7.12 5793.05 10.33
9/25/2021 8:45:00 AM 11.57 52.826 0.043 7.04 5721.03 10.36
9/25/2021 9:00:00 AM 11.56 52.808 0.043 7.09 7192.14 10.38
9/25/2021 9:15:00 AM 11.57 52.826 0.043 7.1 5989.63 10.43
9/25/2021 9:30:00 AM 11.58 52.844 0.043 7.15 9485.81 10.47
9/25/2021 9:45:00 AM 11.6 52.88 0.043 7.16 7271.17 10.49
9/25/2021 10:00:00 AM 11.64 52.952 0.043 7.11 6279.98 10.51
9/25/2021 10:15:00 AM 11.68 53.024 0.044 7.14 9283.2 10.52
9/25/2021 10:30:00 AM 11.7 53.06 0.043 7.14 11777.17 10.52
9/25/2021 10:45:00 AM 11.76 53.168 0.043 7.18 7036.21 10.51
9/25/2021 11:00:00 AM 11.82 53.276 0.043 7.18 7396.93 10.5
9/25/2021 11:15:00 AM 11.9 53.42 0.043 7.14 7844.15 10.48
9/25/2021 11:30:00 AM 11.99 53.582 0.044 7.22 3985.4 10.48
9/25/2021 11:45:00 AM 12.09 53.762 0.043 7.22 18899.85 10.47
9/25/2021 12:00:00 PM 12.2 53.96 0.043 7.14 15953.57 10.46
9/25/2021 12:15:00 PM 12.32 54.176 0.044 7.21 18797.25 10.44
9/25/2021 12:30:00 PM 12.45 54.41 0.043 7.19 19299.59 10.41
9/25/2021 12:45:00 PM 12.58 54.644 0.044 7.2 22643.42 10.41
9/25/2021 1:00:00 PM 12.72 54.896 0.043 7.22 23035.14 10.4
9/25/2021 1:15:00 PM 12.86 55.148 0.043 7.18 21015.12 10.38
9/25/2021 1:30:00 PM 13.02 55.436 0.043 7.27 18978.37 10.35
9/25/2021 1:45:00 PM 13.19 55.742 0.043 7.23 20883.58 10.33
9/25/2021 2:00:00 PM 13.35 56.03 0.043 7.25 21129.98 10.3
9/25/2021 2:15:00 PM 13.49 56.282 0.043 7.28 21511.54 10.27
9/25/2021 2:30:00 PM 13.63 56.534 0.044 7.23 21328.99 10.24
9/25/2021 2:45:00 PM 13.7 56.66 0.043 7.31 21480.72 10.21
9/25/2021 3:00:00 PM 13.78 56.804 0.043 7.28 21639.93 10.17
9/25/2021 3:15:00 PM 13.85 56.93 0.044 7.27 21513.97 10.16
9/25/2021 3:30:00 PM 13.92 57.056 0.043 7.32 10705.38 10.14
9/25/2021 3:45:00 PM 13.96 57.128 0.044 7.33 9152.22 10.11
9/25/2021 4:00:00 PM 13.98 57.164 0.043 7.25 9507.18 10.1
9/25/2021 4:15:00 PM 13.99 57.182 0.044 7.33 8937.07 10.06
9/25/2021 4:30:00 PM 13.99 57.182 0.043 7.25 8681.66 10.03
9/25/2021 4:45:00 PM 13.98 57.164 0.043 7.26 9199.71 10.02
9/25/2021 5:00:00 PM 13.98 57.164 0.039 7.27 7807.09 10.03
9/25/2021 5:15:00 PM 13.96 57.128 0.044 7.25 7959.26 10.01
9/25/2021 5:30:00 PM 13.94 57.092 0.044 7.3 11021.86 9.97
9/25/2021 5:45:00 PM 13.91 57.038 0.044 7.21 8424.86 9.93
9/25/2021 6:00:00 PM 13.89 57.002 0.044 7.27 12030.23 9.89
9/25/2021 6:15:00 PM 13.85 56.93 0.044 7.25 8971.78 9.88
9/25/2021 6:30:00 PM 13.81 56.858 0.044 7.24 8423.91 9.85
9/25/2021 6:45:00 PM 13.79 56.822 0.044 7.22 10403.4 9.82
9/25/2021 7:00:00 PM 13.78 56.804 0.044 7.12 10661.82 9.78
9/25/2021 7:15:00 PM 13.77 56.786 0.044 7.2 10066.13 9.76
9/25/2021 7:30:00 PM 13.75 56.75 0.044 7.19 13826.26 9.73
9/25/2021 7:45:00 PM 13.72 56.696 0.044 7.15 12229.72 9.72
9/25/2021 8:00:00 PM 13.7 56.66 0.044 7.18 10767.58 9.72
9/25/2021 8:15:00 PM 13.67 56.606 0.044 7.16 8851.33 9.71
9/25/2021 8:30:00 PM 13.64 56.552 0.044 7.16 13789.61 9.71
9/25/2021 8:45:00 PM 13.61 56.498 0.045 7.17 9308.29 9.72
9/25/2021 9:00:00 PM 13.59 56.462 0.044 7.16 13781.07 9.72
9/25/2021 9:15:00 PM 13.56 56.408 0.044 7.15 8904.69 9.73
9/25/2021 9:30:00 PM 13.54 56.372 0.045 7.1 11361.25 9.73
9/25/2021 9:45:00 PM 13.52 56.336 0.045 7.08 7.23 9.74
9/25/2021 10:00:00 PM 13.5 56.3 0.045 7.09 7.3 9.74
9/25/2021 10:15:00 PM 13.48 56.264 0.045 7.17 6.78 9.75
9/25/2021 10:30:00 PM 13.46 56.228 0.044 7.16 7.79 9.76
9/25/2021 10:45:00 PM 13.43 56.174 0.045 7.15 6.82 9.76
9/25/2021 11:00:00 PM 13.41 56.138 0.045 7.21 6.4 9.76
9/25/2021 11:15:00 PM 13.37 56.066 0.045 7.14 6.24 9.78
9/25/2021 11:30:00 PM 13.34 56.012 0.044 7.14 6.86 9.79
9/25/2021 11:45:00 PM 13.3 55.94 0.045 7.04 6.61 9.79
9/26/2021 12:00:00 AM 13.27 55.886 0.045 7.15 6.59 9.8
9/26/2021 12:15:00 AM 13.22 55.796 0.045 7.09 6.46 9.82
9/26/2021 12:30:00 AM 13.18 55.724 0.045 7.16 6.54 9.82
9/26/2021 12:45:00 AM 13.14 55.652 0.045 7.17 7.07 9.84
9/26/2021 1:00:00 AM 13.09 55.562 0.045 7.18 7.88 9.84
9/26/2021 1:15:00 AM 13.04 55.472 0.045 7.18 9.67 9.86
9/26/2021 1:30:00 AM 12.99 55.382 0.045 7.16 7.2 9.87
9/26/2021 1:45:00 AM 12.93 55.274 0.046 7.17 6.85 9.88
9/26/2021 2:00:00 AM 12.88 55.184 0.045 7.15 6.95 9.89
9/26/2021 2:15:00 AM 12.83 55.094 0.045 7.16 9.43 9.9
9/26/2021 2:30:00 AM 12.77 54.986 0.045 7.16 9.63 9.92
9/26/2021 2:45:00 AM 12.71 54.878 0.045 7.15 8.65 9.93
9/26/2021 3:00:00 AM 12.66 54.788 0.045 7.15 6.41 9.94
9/26/2021 3:15:00 AM 12.62 54.716 0.045 7.15 6.52 9.95
9/26/2021 3:30:00 AM 12.58 54.644 0.045 7.15 6.59 9.96
9/26/2021 3:45:00 AM 12.54 54.572 0.046 7.16 6.48 9.97
9/26/2021 4:00:00 AM 12.51 54.518 0.046 7.12 7.33 9.98
9/26/2021 4:15:00 AM 12.47 54.446 0.046 7.16 6.28 9.99
9/26/2021 4:30:00 AM 12.43 54.374 0.046 6.99 5.79 10
9/26/2021 4:45:00 AM 12.41 54.338 0.045 7.15 6.51 10.01
9/26/2021 5:00:00 AM 12.38 54.284 0.045 7.14 6.25 10.02
9/26/2021 5:15:00 AM 12.35 54.23 0.045 7.15 6.08 10.03
9/26/2021 5:30:00 AM 12.31 54.158 0.045 7.15 6.24 10.04
9/26/2021 5:45:00 AM 12.28 54.104 0.045 7.15 6.33 10.04
9/26/2021 6:00:00 AM 12.24 54.032 0.045 7.15 6.05 10.06
9/26/2021 6:15:00 AM 12.2 53.96 0.045 7.15 6.17 10.07
9/26/2021 6:30:00 AM 12.16 53.888 0.046 7.15 6.48 10.07
9/26/2021 6:45:00 AM 12.13 53.834 0.045 7.15 6.4 10.1
9/26/2021 7:00:00 AM 12.1 53.78 0.046 7.15 7.09 10.1
9/26/2021 7:15:00 AM 12.06 53.708 0.046 7.15 5.95 10.11
9/26/2021 7:30:00 AM 12.03 53.654 0.046 7.14 6.43 10.13
9/26/2021 7:45:00 AM 11.99 53.582 0.045 7.15 5.85 10.15
9/26/2021 8:00:00 AM 11.98 53.564 0.046 7.15 5.71 10.19
9/26/2021 8:15:00 AM 11.96 53.528 0.046 7.17 5.96 10.23
9/26/2021 8:30:00 AM 11.94 53.492 0.046 7.19 5.92 10.26
9/26/2021 8:45:00 AM 11.94 53.492 0.045 7.19 5.75 10.29
9/26/2021 9:00:00 AM 11.94 53.492 0.045 7.19 5.65 10.32
9/26/2021 9:15:00 AM 11.95 53.51 0.046 7.21 5.66 10.35
9/26/2021 9:30:00 AM 11.97 53.546 0.045 7.22 5.67 10.38
9/26/2021 9:45:00 AM 11.98 53.564 0.045 7.24 5.99 10.4
9/26/2021 10:00:00 AM 11.99 53.582 0.045 7.23 5.82 10.4
9/26/2021 10:15:00 AM 12.01 53.618 0.045 7.24 5.84 10.4
9/26/2021 10:30:00 AM 12.04 53.672 0.045 7.24 5.68 10.41
9/26/2021 10:45:00 AM 12.09 53.762 0.045 7.26 5.66 10.42
9/26/2021 11:00:00 AM 12.15 53.87 0.045 7.25 5.46 10.44
9/26/2021 11:15:00 AM 12.24 54.032 0.046 7.29 4.79 10.44
9/26/2021 11:30:00 AM 12.33 54.194 0.046 7.29 4.88 10.44
9/26/2021 11:45:00 AM 12.44 54.392 0.046 7.3 5.27 10.43
9/26/2021 12:00:00 PM 12.56 54.608 0.046 7.23 6.4 10.42
9/26/2021 12:15:00 PM 12.69 54.842 0.047 7.23 4.65 10.42
9/26/2021 12:30:00 PM 12.82 55.076 0.046 7.34 4.72 10.4
9/26/2021 12:45:00 PM 12.97 55.346 0.046 7.29 4.76 10.38
9/26/2021 1:00:00 PM 13.11 55.598 0.045 7.34 5.01 10.35
9/26/2021 1:15:00 PM 13.28 55.904 0.045 7.36 5.12 10.34
9/26/2021 1:30:00 PM 13.47 56.246 0.045 7.37 5.38 10.31
9/26/2021 1:45:00 PM 13.63 56.534 0.045 7.39 5.24 10.29
9/26/2021 2:00:00 PM 13.8 56.84 0.045 7.4 5.48 10.27
9/26/2021 2:15:00 PM 13.96 57.128 0.045 7.39 5.31 10.24
9/26/2021 2:30:00 PM 14.03 57.254 0.045 7.4 5.11 10.19
9/26/2021 2:45:00 PM 14.18 57.524 0.045 7.42 5.28 10.16
9/26/2021 3:00:00 PM 14.27 57.686 0.045 7.39 5.3 10.14
9/26/2021 3:15:00 PM 14.37 57.866 0.046 7.42 5.28 10.11
9/26/2021 3:30:00 PM 14.45 58.01 0.047 7.4 5.29 10.08
9/26/2021 3:45:00 PM 14.53 58.154 0.046 7.45 5.02 10.04
9/26/2021 4:00:00 PM 14.64 58.352 0.046 7.34 4.46 10.02
9/26/2021 4:15:00 PM 14.7 58.46 0.046 7.42 15364.68 10
9/26/2021 4:30:00 PM 14.69 58.442 0.046 7.44 6.91 9.97
9/26/2021 4:45:00 PM 14.63 58.334 0.046 7.44 4.45 9.95
9/26/2021 5:00:00 PM 14.55 58.19 0.046 7.43 5.03 9.93
9/26/2021 5:15:00 PM 14.48 58.064 0.046 7.37 4.49 9.91
9/26/2021 5:30:00 PM 14.41 57.938 0.046 7.35 5.23 9.89
9/26/2021 5:45:00 PM 14.35 57.83 0.046 7.35 5.14 9.88
9/26/2021 6:00:00 PM 14.31 57.758 0.046 7.34 5.28 9.87
9/26/2021 6:15:00 PM 14.25 57.65 0.046 7.3 4.65 9.84
9/26/2021 6:30:00 PM 14.18 57.524 0.047 7.34 4.48 9.82
9/26/2021 6:45:00 PM 14.11 57.398 0.047 7.32 6.65 9.79
9/26/2021 7:00:00 PM 14.05 57.29 0.046 7.26 4.91 9.77
9/26/2021 7:15:00 PM 13.99 57.182 0.046 7.23 5.33 9.74
9/26/2021 7:30:00 PM 13.95 57.11 0.047 7.26 63.67 9.72
9/26/2021 7:45:00 PM 13.91 57.038 0.047 7.26 17.78 9.71
9/26/2021 8:00:00 PM 13.86 56.948 0.047 7.16 9.01 9.7
9/26/2021 8:15:00 PM 13.82 56.876 0.047 7.24 5.22 9.69
9/26/2021 8:30:00 PM 13.77 56.786 0.047 7.24 5.34 9.69
9/26/2021 8:45:00 PM 13.74 56.732 0.047 7.16 4.85 9.69
9/26/2021 9:00:00 PM 13.7 56.66 0.047 7.2 4.88 9.7
9/26/2021 9:15:00 PM 13.66 56.588 0.047 7.21 5.59 9.7
9/26/2021 9:30:00 PM 13.62 56.516 0.047 7.21 5.55 9.71
9/26/2021 9:45:00 PM 13.59 56.462 0.047 7.17 418.09 9.72
9/26/2021 10:00:00 PM 13.55 56.39 0.047 7.16 4.99 9.72
9/26/2021 10:15:00 PM 13.5 56.3 0.047 7.15 6.18 9.73
9/26/2021 10:30:00 PM 13.46 56.228 0.047 7.21 5.85 9.74
9/26/2021 10:45:00 PM 13.4 56.12 0.047 7.2 5.44 9.75
9/26/2021 11:00:00 PM 13.36 56.048 0.048 7.2 5.35 9.76
9/26/2021 11:15:00 PM 13.31 55.958 0.047 7.2 5.76 9.78
9/26/2021 11:30:00 PM 13.26 55.868 0.047 7.21 5.26 9.78
9/26/2021 11:45:00 PM 13.22 55.796 0.047 7.21 5.4 9.8
9/27/2021 12:00:00 AM 13.17 55.706 0.047 7.2 5.48 9.81
9/27/2021 12:15:00 AM 13.12 55.616 0.047 7.2 5.38 9.82
9/27/2021 12:30:00 AM 13.07 55.526 0.048 7.2 6.04 9.83
9/27/2021 12:45:00 AM 13.03 55.454 0.048 7.2 5.41 9.84
9/27/2021 1:00:00 AM 12.98 55.364 0.048 7.2 4.61 9.86
9/27/2021 1:15:00 AM 12.93 55.274 0.048 7.2 5.18 9.87
9/27/2021 1:30:00 AM 12.88 55.184 0.048 7.23 1182.32 9.87
9/27/2021 1:45:00 AM 12.84 55.112 0.047 7.21 497.9 9.89
9/27/2021 2:00:00 AM 12.79 55.022 0.047 7.2 706.22 9.9
9/27/2021 2:15:00 AM 12.74 54.932 0.048 7.18 6.63 9.91
9/27/2021 2:30:00 AM 12.7 54.86 0.047 7.2 5.35 9.93
9/27/2021 2:45:00 AM 12.65 54.77 0.047 7.2 4.99 9.94
9/27/2021 3:00:00 AM 12.61 54.698 0.047 7.2 5.25 9.95
9/27/2021 3:15:00 AM 12.57 54.626 0.047 7.2 5.38 9.96
9/27/2021 3:30:00 AM 12.53 54.554 0.047 7.16 5.2 9.97
9/27/2021 3:45:00 AM 12.5 54.5 0.048 7.2 4.84 9.99
9/27/2021 4:00:00 AM 12.47 54.446 0.047 7.19 5.12 9.99
9/27/2021 4:15:00 AM 12.45 54.41 0.048 7.11 5.55 9.99
9/27/2021 4:30:00 AM 12.43 54.374 0.048 7.21 5.2 10
9/27/2021 4:45:00 AM 12.4 54.32 0.048 7.15 5.09 10.01
9/27/2021 5:00:00 AM 12.38 54.284 0.048 7.2 8.42 10.02
9/27/2021 5:15:00 AM 12.36 54.248 0.048 7.2 4.66 10.02
9/27/2021 5:30:00 AM 12.34 54.212 0.048 7.11 4.9 10.03
9/27/2021 5:45:00 AM 12.33 54.194 0.048 7.14 5.55 10.03
9/27/2021 6:00:00 AM 12.31 54.158 0.048 7.15 5.03 10.04
9/27/2021 6:15:00 AM 12.28 54.104 0.048 7.14 5.02 10.05
9/27/2021 6:30:00 AM 12.26 54.068 0.048 7.15 4.48 10.05
9/27/2021 6:45:00 AM 12.24 54.032 0.048 7.2 7.64 10.06
9/27/2021 7:00:00 AM 12.21 53.978 0.049 7.11 4.44 10.07
9/27/2021 7:15:00 AM 12.18 53.924 0.048 7.16 4.91 10.08
9/27/2021 7:30:00 AM 12.14 53.852 0.048 7.13 5.08 10.09
9/27/2021 7:45:00 AM 12.11 53.798 0.048 7.17 4.72 10.12
9/27/2021 8:00:00 AM 12.09 53.762 0.048 7.23 4.75 10.14
9/27/2021 8:15:00 AM 12.07 53.726 0.048 7.21 4.47 10.17
9/27/2021 8:30:00 AM 12.06 53.708 0.048 7.22 4.75 10.21
9/27/2021 8:45:00 AM 12.06 53.708 0.048 7.24 4.56 10.25
9/27/2021 9:00:00 AM 12.08 53.744 0.048 7.25 4.59 10.29
9/27/2021 9:15:00 AM 12.1 53.78 0.048 7.27 4.5 10.32
9/27/2021 9:30:00 AM 12.13 53.834 0.048 7.27 4.45 10.34
9/27/2021 9:45:00 AM 12.16 53.888 0.048 7.3 4.56 10.37
9/27/2021 10:00:00 AM 12.2 53.96 0.048 7.26 4.43 10.39
9/27/2021 10:15:00 AM 12.24 54.032 0.048 7.33 4.62 10.41
9/27/2021 10:30:00 AM 12.3 54.14 0.048 7.34 4.56 10.43
9/27/2021 10:45:00 AM 12.37 54.266 0.048 7.36 4.62 10.45
9/27/2021 11:00:00 AM 12.48 54.464 0.048 7.38 4.55 10.46
9/27/2021 11:15:00 AM 12.6 54.68 0.047 7.4 4.48 10.46
9/27/2021 11:30:00 AM 12.73 54.914 0.047 7.42 9611.66 10.47
9/27/2021 11:45:00 AM 12.88 55.184 0.048 7.45 5.23 10.47
9/27/2021 12:00:00 PM 13.03 55.454 0.048 7.47 7.43 10.46
9/27/2021 12:15:00 PM 13.21 55.778 0.048 7.41 6.08 10.44
9/27/2021 12:30:00 PM 13.39 56.102 0.048 7.5 5.01 10.43
9/27/2021 12:45:00 PM 13.58 56.444 0.048 7.53 1400.42 10.4
9/27/2021 1:00:00 PM 13.77 56.786 0.047 7.55 4.28 10.38
9/27/2021 1:15:00 PM 13.97 57.146 0.047 7.58 4.47 10.35
9/27/2021 1:30:00 PM 14.17 57.506 0.047 7.49 4.53 10.32
9/27/2021 1:45:00 PM 14.37 57.866 0.047 7.6 4.39 10.29
9/27/2021 2:00:00 PM 14.56 58.208 0.047 7.6 4.52 10.27
9/27/2021 2:15:00 PM 14.74 58.532 0.049 7.62 4.04 10.23
9/27/2021 2:30:00 PM 14.92 58.856 0.047 7.59 4.73 10.19
9/27/2021 2:45:00 PM 15.08 59.144 0.048 7.6 4.69 10.15
9/27/2021 3:00:00 PM 15.15 59.27 0.058 7.52 2.84 10.35
9/27/2021 3:15:00 PM 15.27 59.486 0.058 7.48 2.77 10.31
9/27/2021 3:30:00 PM 15.38 59.684 0.058 7.47 2.81 10.27
9/27/2021 3:45:00 PM 15.48 59.864 0.058 7.47 2.8 10.21
9/27/2021 4:00:00 PM 15.55 59.99 0.058 7.45 2.86 10.15
9/27/2021 4:15:00 PM 15.62 60.116 0.058 7.39 2.84 10.1
9/27/2021 4:30:00 PM 15.68 60.224 0.058 7.39 2.8 10.05
9/27/2021 4:45:00 PM 15.74 60.332 0.058 7.38 2.89 10.01
9/27/2021 5:00:00 PM 15.79 60.422 0.058 7.36 2.9 9.97
9/27/2021 5:15:00 PM 15.82 60.476 0.058 7.32 2.89 9.93
9/27/2021 5:30:00 PM 15.84 60.512 0.059 7.31 3.05 9.89
9/27/2021 5:45:00 PM 15.84 60.512 0.059 7.3 3.2 9.85
9/27/2021 6:00:00 PM 15.82 60.476 0.059 7.27 4.56 9.81
9/27/2021 6:15:00 PM 15.76 60.368 0.059 7.2 4.59 9.78
9/27/2021 6:30:00 PM 15.69 60.242 0.059 7.18 3.83 9.75
9/27/2021 6:45:00 PM 15.61 60.098 0.059 7.18 4.05 9.71
9/27/2021 7:00:00 PM 15.52 59.936 0.059 7.14 2.99 9.68
9/27/2021 7:15:00 PM 15.43 59.774 0.06 7.14 3.01 9.64
9/27/2021 7:30:00 PM 15.35 59.63 0.06 7 3.09 9.62
9/27/2021 7:45:00 PM 15.26 59.468 0.06 6.96 3.16 9.6
9/27/2021 8:00:00 PM 15.18 59.324 0.06 6.98 3.12 9.59
9/27/2021 8:15:00 PM 15.11 59.198 0.06 6.95 3.14 9.59
9/27/2021 8:30:00 PM 15.04 59.072 0.06 6.96 3.21 9.6
9/27/2021 8:45:00 PM 14.97 58.946 0.061 6.98 3.25 9.6
9/27/2021 9:00:00 PM 14.91 58.838 0.061 6.97 3.24 9.61
9/27/2021 9:15:00 PM 14.85 58.73 0.061 6.96 3.18 9.62
9/27/2021 9:30:00 PM 14.8 58.64 0.061 6.95 3.18 9.62
9/27/2021 9:45:00 PM 14.75 58.55 0.061 6.94 3.16 9.64
9/27/2021 10:00:00 PM 14.7 58.46 0.061 6.95 3.1 9.64
9/27/2021 10:15:00 PM 14.65 58.37 0.061 6.98 3.08 9.65
9/27/2021 10:30:00 PM 14.6 58.28 0.061 6.96 3.12 9.65
9/27/2021 10:45:00 PM 14.56 58.208 0.061 6.96 3.11 9.66
9/27/2021 11:00:00 PM 14.51 58.118 0.061 6.97 3.01 9.67
9/27/2021 11:15:00 PM 14.47 58.046 0.061 7.01 3.08 9.69
9/27/2021 11:30:00 PM 14.44 57.992 0.061 7.03 3.04 9.69
9/27/2021 11:45:00 PM 14.39 57.902 0.061 7 3.09 9.7
9/28/2021 12:00:00 AM 14.36 57.848 0.061 7 3.04 9.71
9/28/2021 12:15:00 AM 14.32 57.776 0.061 6.98 3.09 9.72
9/28/2021 12:30:00 AM 14.29 57.722 0.061 6.98 3.05 9.73
9/28/2021 12:45:00 AM 14.25 57.65 0.061 6.97 3.12 9.74
9/28/2021 1:00:00 AM 14.21 57.578 0.061 7.01 3.04 9.75
9/28/2021 1:15:00 AM 14.18 57.524 0.061 6.99 3.01 9.76
9/28/2021 1:30:00 AM 14.15 57.47 0.061 7.01 3.12 9.76
9/28/2021 1:45:00 AM 14.12 57.416 0.061 7.03 3.01 9.77
9/28/2021 2:00:00 AM 14.09 57.362 0.061 7.04 3.02 9.78
9/28/2021 2:15:00 AM 14.07 57.326 0.061 7.02 3.06 9.78
9/28/2021 2:30:00 AM 14.05 57.29 0.061 7.05 2.98 9.78
9/28/2021 2:45:00 AM 14.03 57.254 0.061 6.99 3 9.78
9/28/2021 3:00:00 AM 14.01 57.218 0.061 7.05 3.01 9.79
9/28/2021 3:15:00 AM 13.99 57.182 0.061 7.03 3.01 9.79
9/28/2021 3:30:00 AM 13.97 57.146 0.061 7.01 3.02 9.79
9/28/2021 3:45:00 AM 13.94 57.092 0.061 7 3.02 9.8
9/28/2021 4:00:00 AM 13.91 57.038 0.061 7.05 3.04 9.8
9/28/2021 4:15:00 AM 13.89 57.002 0.061 7.01 3 9.8
9/28/2021 4:30:00 AM 13.87 56.966 0.061 7.06 2.96 9.81
9/28/2021 4:45:00 AM 13.84 56.912 0.061 6.99 3.01 9.82
9/28/2021 5:00:00 AM 13.82 56.876 0.061 7.01 2.95 9.82
9/28/2021 5:15:00 AM 13.8 56.84 0.061 7.07 2.94 9.83
9/28/2021 5:30:00 AM 13.78 56.804 0.061 7.05 2.94 9.84
9/28/2021 5:45:00 AM 13.75 56.75 0.061 7.05 2.94 9.84
9/28/2021 6:00:00 AM 13.73 56.714 0.062 7 2.92 9.85
9/28/2021 6:15:00 AM 13.7 56.66 0.062 6.98 3.04 9.85
9/28/2021 6:30:00 AM 13.69 56.642 0.062 7 2.91 9.86
9/28/2021 6:45:00 AM 13.67 56.606 0.062 6.98 2.91 9.87
9/28/2021 7:00:00 AM 13.66 56.588 0.062 7.02 2.9 9.87
9/28/2021 7:15:00 AM 13.65 56.57 0.062 7.01 2.93 9.88
9/28/2021 7:30:00 AM 13.65 56.57 0.062 6.97 2.89 9.88
9/28/2021 7:45:00 AM 13.65 56.57 0.062 7.04 2.81 9.89
9/28/2021 8:00:00 AM 13.64 56.552 0.062 6.99 2.83 9.9
9/28/2021 8:15:00 AM 13.64 56.552 0.062 7 2.82 9.91
9/28/2021 8:30:00 AM 13.64 56.552 0.062 7.02 2.79 9.91
9/28/2021 8:45:00 AM 13.64 56.552 0.062 7.07 2.78 9.92
9/28/2021 9:00:00 AM 13.63 56.534 0.062 7 2.77 9.94
9/28/2021 9:15:00 AM 13.63 56.534 0.062 7.03 2.71 9.95
9/28/2021 9:30:00 AM 13.64 56.552 0.062 7 2.71 9.96
9/28/2021 9:45:00 AM 13.64 56.552 0.062 7.03 2.72 9.99
9/28/2021 10:00:00 AM 13.65 56.57 0.062 7.06 2.66 10.02
9/28/2021 10:15:00 AM 13.66 56.588 0.062 7.05 2.68 10.06
9/28/2021 10:30:00 AM 13.67 56.606 0.062 7.04 2.67 10.06
9/28/2021 10:45:00 AM 13.69 56.642 0.062 7.07 2.58 10.1
9/28/2021 11:00:00 AM 13.74 56.732 0.062 7.14 2.65 10.2
9/28/2021 11:15:00 AM 13.79 56.822 0.062 7.19 2.65 10.28
9/28/2021 11:30:00 AM 13.84 56.912 0.062 7.21 2.61 10.32
9/28/2021 11:45:00 AM 13.89 57.002 0.061 7.24 2.64 10.37
9/28/2021 12:00:00 PM 13.98 57.164 0.061 7.25 2.61 10.44
9/28/2021 12:15:00 PM 14.07 57.326 0.061 7.27 2.61 10.49
9/28/2021 12:30:00 PM 14.18 57.524 0.061 7.35 2.62 10.52
9/28/2021 12:45:00 PM 14.35 57.83 0.061 7.41 2.62 10.54
9/28/2021 1:00:00 PM 14.49 58.082 0.061 7.44 2.55 10.55
9/28/2021 1:15:00 PM 14.55 58.19 0.061 7.42 2.61 10.49
9/28/2021 1:30:00 PM 14.58 58.244 0.061 7.47 2.61 10.44
9/28/2021 1:45:00 PM 14.7 58.46 0.061 7.52 2.64 10.45
9/28/2021 2:00:00 PM 14.79 58.622 0.061 7.53 2.62 10.43
9/28/2021 2:15:00 PM 14.91 58.838 0.061 7.54 2.68 10.44
9/28/2021 2:30:00 PM 15.03 59.054 0.061 7.58 2.68 10.42
9/28/2021 2:45:00 PM 15.12 59.216 0.061 7.64 2.72 10.4
9/28/2021 3:00:00 PM 15.19 59.342 0.061 7.68 2.91 10.38
9/28/2021 3:15:00 PM 15.37 59.666 0.061 7.64 2.99 10.36
9/28/2021 3:30:00 PM 15.47 59.846 0.061 7.66 3.19 10.32
9/28/2021 3:45:00 PM 15.49 59.882 0.061 7.65 3.5 10.28
9/28/2021 4:00:00 PM 15.51 59.918 0.06 7.53 3.33 10.22
9/28/2021 4:15:00 PM 15.56 60.008 0.061 7.58 3.39 10.19
9/28/2021 4:30:00 PM 15.55 59.99 0.061 7.45 3.43 10.1
9/28/2021 4:45:00 PM 15.56 60.008 0.06 7.44 3.39 10.04
9/28/2021 5:00:00 PM 15.53 59.954 0.061 7.45 3.32 9.96
9/28/2021 5:15:00 PM 15.52 59.936 0.061 7.37 3.51 9.89
9/28/2021 5:30:00 PM 15.53 59.954 0.062 7.3 3.68 9.84
9/28/2021 5:45:00 PM 15.54 59.972 0.062 7.32 3.67 9.81
9/28/2021 6:00:00 PM 15.55 59.99 0.062 7.26 3.87 9.76
9/28/2021 6:15:00 PM 15.55 59.99 0.062 7.28 4.49 9.73
9/28/2021 6:30:00 PM 15.53 59.954 0.062 7.28 5.37 9.7
9/28/2021 6:45:00 PM 15.48 59.864 0.062 7.26 6.05 9.66
9/28/2021 7:00:00 PM 15.4 59.72 0.062 7.17 5.75 9.64
9/28/2021 7:15:00 PM 15.31 59.558 0.062 7.21 5.07 9.62
9/28/2021 7:30:00 PM 15.21 59.378 0.063 7.16 4.26 9.61
9/28/2021 7:45:00 PM 15.11 59.198 0.063 7.2 3.75 9.61
9/28/2021 8:00:00 PM 15 59 0.063 7.15 3.52 9.63
9/28/2021 8:15:00 PM 14.89 58.802 0.063 7.14 3.42 9.64
9/28/2021 8:30:00 PM 14.77 58.586 0.063 7.15 4.12 9.66
9/28/2021 8:45:00 PM 14.65 58.37 0.063 7.11 3.27 9.67
9/28/2021 9:00:00 PM 14.54 58.172 0.063 7.15 3.3 9.69
9/28/2021 9:15:00 PM 14.44 57.992 0.063 7.13 3.26 9.71
9/28/2021 9:30:00 PM 14.35 57.83 0.063 7.12 3.31 9.73
9/28/2021 9:45:00 PM 14.27 57.686 0.063 7.12 3.25 9.75
9/28/2021 10:00:00 PM 14.19 57.542 0.064 7.1 3.2 9.77
9/28/2021 10:15:00 PM 14.11 57.398 0.063 7.11 3.21 9.79
9/28/2021 10:30:00 PM 14.04 57.272 0.063 7.09 3.29 9.8
9/28/2021 10:45:00 PM 13.98 57.164 0.063 7.16 3.42 9.81
9/28/2021 11:00:00 PM 13.92 57.056 0.063 7.06 3.45 9.82
9/28/2021 11:15:00 PM 13.86 56.948 0.063 7.12 3.74 9.84
9/28/2021 11:30:00 PM 13.81 56.858 0.064 7.1 3.79 9.85
9/28/2021 11:45:00 PM 13.75 56.75 0.064 7.09 3.78 9.87
9/29/2021 12:00:00 AM 13.69 56.642 0.064 7.12 3.88 9.89
9/29/2021 12:15:00 AM 13.63 56.534 0.064 7.13 3.83 9.91
9/29/2021 12:30:00 AM 13.58 56.444 0.064 7.08 3.64 9.92
9/29/2021 12:45:00 AM 13.52 56.336 0.064 7.07 3.56 9.94
9/29/2021 1:00:00 AM 13.46 56.228 0.064 7.07 3.41 9.95
9/29/2021 1:15:00 AM 13.39 56.102 0.064 7.1 3.34 9.96
9/29/2021 1:30:00 AM 13.33 55.994 0.064 7.05 3.25 9.97
9/29/2021 1:45:00 AM 13.27 55.886 0.064 7.06 3.23 9.98
9/29/2021 2:00:00 AM 13.2 55.76 0.064 7.06 3.1 10
9/29/2021 2:15:00 AM 13.13 55.634 0.064 7.04 3.14 10.02
9/29/2021 2:30:00 AM 13.07 55.526 0.064 7.02 3.08 10.04
9/29/2021 2:45:00 AM 13.01 55.418 0.064 7.03 3.06 10.05
9/29/2021 3:00:00 AM 12.95 55.31 0.064 7.02 3.03 10.07
9/29/2021 3:15:00 AM 12.88 55.184 0.064 6.99 3.01 10.09
9/29/2021 3:30:00 AM 12.81 55.058 0.064 7 3.07 10.1
9/29/2021 3:45:00 AM 12.76 54.968 0.064 7.04 2.97 10.11
9/29/2021 4:00:00 AM 12.7 54.86 0.064 7.06 2.94 10.12
9/29/2021 4:15:00 AM 12.65 54.77 0.064 7.05 2.84 10.13
9/29/2021 4:30:00 AM 12.59 54.662 0.064 7.08 3 10.15
9/29/2021 4:45:00 AM 12.53 54.554 0.064 7.05 2.88 10.17
9/29/2021 5:00:00 AM 12.47 54.446 0.064 7.08 2.9 10.18
9/29/2021 5:15:00 AM 12.41 54.338 0.064 7.08 2.88 10.2
9/29/2021 5:30:00 AM 12.36 54.248 0.064 7.04 2.83 10.22
9/29/2021 5:45:00 AM 12.29 54.122 0.064 7.08 2.77 10.23
9/29/2021 6:00:00 AM 12.23 54.014 0.064 7.06 2.8 10.25
9/29/2021 6:15:00 AM 12.17 53.906 0.064 7.03 2.8 10.27
9/29/2021 6:30:00 AM 12.11 53.798 0.064 7.03 2.82 10.28
9/29/2021 6:45:00 AM 12.05 53.69 0.064 7.02 2.85 10.29
9/29/2021 7:00:00 AM 12 53.6 0.064 7 2.88 10.31
9/29/2021 7:15:00 AM 11.95 53.51 0.064 7.04 2.85 10.33
9/29/2021 7:30:00 AM 11.9 53.42 0.064 7.03 2.78 10.37
9/29/2021 7:45:00 AM 11.86 53.348 0.064 7.04 2.71 10.4
9/29/2021 8:00:00 AM 11.82 53.276 0.064 7.08 2.71 10.46
9/29/2021 8:15:00 AM 11.78 53.204 0.064 7.07 2.74 10.52
9/29/2021 8:30:00 AM 11.74 53.132 0.064 7.08 2.67 10.56
9/29/2021 8:45:00 AM 11.71 53.078 0.064 7.14 2.64 10.59
9/29/2021 9:00:00 AM 11.7 53.06 0.064 7.17 2.63 10.65
9/29/2021 9:15:00 AM 11.71 53.078 0.064 7.16 2.63 10.72
9/29/2021 9:30:00 AM 11.73 53.114 0.064 7.19 2.55 10.77
9/29/2021 9:45:00 AM 11.75 53.15 0.064 7.26 2.59 10.81
9/29/2021 10:00:00 AM 11.78 53.204 0.064 7.24 2.57 10.84
9/29/2021 10:15:00 AM 11.81 53.258 0.064 7.3 2.56 10.87
9/29/2021 10:30:00 AM 11.85 53.33 0.064 7.3 2.55 10.89
9/29/2021 10:45:00 AM 11.9 53.42 0.064 7.31 2.48 10.91
9/29/2021 11:00:00 AM 11.97 53.546 0.064 7.32 2.53 10.92
9/29/2021 11:15:00 AM 12.07 53.726 0.064 7.36 2.53 10.95
9/29/2021 11:30:00 AM 12.2 53.96 0.063 7.39 2.46 10.98
9/29/2021 11:45:00 AM 12.37 54.266 0.063 7.46 2.5 11
9/29/2021 12:00:00 PM 12.53 54.554 0.063 7.48 2.48 10.98
9/29/2021 12:15:00 PM 12.71 54.878 0.063 7.51 2.43 10.96
9/29/2021 12:30:00 PM 12.9 55.22 0.063 7.5 2.39 10.96
9/29/2021 12:45:00 PM 13.12 55.616 0.063 7.56 2.42 10.91
9/29/2021 1:00:00 PM 13.33 55.994 0.063 7.55 2.41 10.87
9/29/2021 1:15:00 PM 13.59 56.462 0.063 7.59 2.4 10.87
9/29/2021 1:30:00 PM 13.76 56.768 0.063 7.58 2.4 10.81
9/29/2021 1:45:00 PM 14.01 57.218 0.063 7.65 2.46 10.78
9/29/2021 2:00:00 PM 14.26 57.668 0.063 7.7 2.38 10.76
9/29/2021 2:15:00 PM 14.33 57.794 0.063 7.65 2.33 10.7
9/29/2021 2:30:00 PM 14.41 57.938 0.063 7.67 2.35 10.66
9/29/2021 2:45:00 PM 14.51 58.118 0.063 7.67 2.43 10.64
9/29/2021 3:00:00 PM 14.67 58.406 0.063 7.73 2.62 10.62
9/29/2021 3:15:00 PM 14.73 58.514 0.063 7.71 2.91 10.6
9/29/2021 3:30:00 PM 14.76 58.568 0.063 7.73 3.21 10.56
9/29/2021 3:45:00 PM 14.79 58.622 0.063 7.68 3.53 10.51
9/29/2021 4:00:00 PM 14.79 58.622 0.063 7.68 3.49 10.45
9/29/2021 4:15:00 PM 14.79 58.622 0.063 7.67 3.36 10.39
9/29/2021 4:30:00 PM 14.8 58.64 0.063 7.6 3.26 10.32
9/29/2021 4:45:00 PM 14.81 58.658 0.063 7.58 3.13 10.25
9/29/2021 5:00:00 PM 14.84 58.712 0.063 7.52 3.07 10.16
9/29/2021 5:15:00 PM 14.88 58.784 0.063 7.45 3.12 10.09
9/29/2021 5:30:00 PM 14.92 58.856 0.063 7.46 3.2 10.02
9/29/2021 5:45:00 PM 14.94 58.892 0.064 7.37 3.36 9.97
9/29/2021 6:00:00 PM 14.94 58.892 0.064 7.36 3.36 9.92
9/29/2021 6:15:00 PM 14.94 58.892 0.064 7.35 3.42 9.88
9/29/2021 6:30:00 PM 14.91 58.838 0.064 7.34 3.45 9.85
9/29/2021 6:45:00 PM 14.86 58.748 0.064 7.29 3.75 9.83
9/29/2021 7:00:00 PM 14.78 58.604 0.065 7.31 3.83 9.79
9/29/2021 7:15:00 PM 14.7 58.46 0.065 7.26 3.85 9.77
9/29/2021 7:30:00 PM 14.6 58.28 0.065 7.23 3.76 9.75
9/29/2021 7:45:00 PM 14.48 58.064 0.065 7.22 4.02 9.76
9/29/2021 8:00:00 PM 14.35 57.83 0.065 7.23 4.44 9.77
9/29/2021 8:15:00 PM 14.22 57.596 0.066 7.21 5.12 9.79
9/29/2021 8:30:00 PM 14.1 57.38 0.066 7.21 5.74 9.81
9/29/2021 8:45:00 PM 13.98 57.164 0.066 7.17 6.09 9.82
9/29/2021 9:00:00 PM 13.85 56.93 0.066 7.19 6.21 9.85
9/29/2021 9:15:00 PM 13.72 56.696 0.066 7.2 5.87 9.88
9/29/2021 9:30:00 PM 13.61 56.498 0.066 7.17 6.32 9.91
9/29/2021 9:45:00 PM 13.49 56.282 0.067 7.16 6.94 9.93
9/29/2021 10:00:00 PM 13.38 56.084 0.067 7.16 7.8 9.95
9/29/2021 10:15:00 PM 13.29 55.922 0.067 7.19 8.47 9.97
9/29/2021 10:30:00 PM 13.2 55.76 0.067 7.15 8.38 9.99
9/29/2021 10:45:00 PM 13.11 55.598 0.066 7.23 7.82 10.02
9/29/2021 11:00:00 PM 13.03 55.454 0.066 7.15 6.67 10.05
9/29/2021 11:15:00 PM 12.95 55.31 0.066 7.15 5.56 10.06
9/29/2021 11:30:00 PM 12.87 55.166 0.066 7.16 4.7 10.08
9/29/2021 11:45:00 PM 12.79 55.022 0.066 7.16 4.34 10.1
9/30/2021 12:00:00 AM 12.72 54.896 0.066 7.17 4.1 10.11
9/30/2021 12:15:00 AM 12.65 54.77 0.066 7.14 4.2 10.13
9/30/2021 12:30:00 AM 12.58 54.644 0.066 7.13 4.18 10.15
9/30/2021 12:45:00 AM 12.51 54.518 0.066 7.15 4.22 10.17
9/30/2021 1:00:00 AM 12.44 54.392 0.066 7.12 4.1 10.18
9/30/2021 1:15:00 AM 12.38 54.284 0.066 7.13 3.93 10.2
9/30/2021 1:30:00 AM 12.32 54.176 0.066 7.19 3.72 10.22
9/30/2021 1:45:00 AM 12.25 54.05 0.066 7.13 3.61 10.24
9/30/2021 2:00:00 AM 12.18 53.924 0.066 7.17 3.49 10.26
9/30/2021 2:15:00 AM 12.13 53.834 0.066 7.14 3.34 10.27
9/30/2021 2:30:00 AM 12.07 53.726 0.066 7.12 3.36 10.28
9/30/2021 2:45:00 AM 12.02 53.636 0.066 7.19 3.43 10.3
9/30/2021 3:00:00 AM 11.95 53.51 0.066 7.12 3.39 10.32
9/30/2021 3:15:00 AM 11.88 53.384 0.066 7.14 3.49 10.34
9/30/2021 3:30:00 AM 11.8 53.24 0.066 7.17 3.46 10.36
9/30/2021 3:45:00 AM 11.73 53.114 0.066 7.17 3.29 10.39
9/30/2021 4:00:00 AM 11.67 53.006 0.066 7.16 3.27 10.41
9/30/2021 4:15:00 AM 11.61 52.898 0.066 7.12 3.21 10.42
9/30/2021 4:30:00 AM 11.56 52.808 0.066 7.17 3.16 10.44
9/30/2021 4:45:00 AM 11.52 52.736 0.066 7.13 3.05 10.45
9/30/2021 5:00:00 AM 11.48 52.664 0.066 7.13 3.07 10.46
9/30/2021 5:15:00 AM 11.44 52.592 0.066 7.08 3.02 10.46
9/30/2021 5:30:00 AM 11.4 52.52 0.066 7.08 2.96 10.47
9/30/2021 5:45:00 AM 11.35 52.43 0.067 7.11 2.9 10.48
9/30/2021 6:00:00 AM 11.31 52.358 0.067 7.09 2.9 10.49
9/30/2021 6:15:00 AM 11.27 52.286 0.067 7.12 2.84 10.5
9/30/2021 6:30:00 AM 11.24 52.232 0.067 7.11 2.88 10.51
9/30/2021 6:45:00 AM 11.21 52.178 0.067 7.13 2.86 10.53
9/30/2021 7:00:00 AM 11.17 52.106 0.067 7.12 2.77 10.53
9/30/2021 7:15:00 AM 11.14 52.052 0.067 7.1 2.81 10.56
9/30/2021 7:30:00 AM 11.11 51.998 0.067 7.11 2.77 10.58
9/30/2021 7:45:00 AM 11.08 51.944 0.067 7.12 2.75 10.6
9/30/2021 8:00:00 AM 11.06 51.908 0.067 7.15 2.74 10.67
9/30/2021 8:15:00 AM 11.04 51.872 0.066 7.18 2.66 10.76
9/30/2021 8:30:00 AM 11.05 51.89 0.066 7.23 2.68 10.87
9/30/2021 8:45:00 AM 11.06 51.908 0.066 7.23 2.64 10.98
9/30/2021 9:00:00 AM 11.08 51.944 0.066 7.27 2.71 11.05
9/30/2021 9:15:00 AM 11.09 51.962 0.066 7.35 2.61 11.1
9/30/2021 9:30:00 AM 11.11 51.998 0.066 7.35 2.55 11.16
9/30/2021 9:45:00 AM 11.13 52.034 0.066 7.37 2.48 11.21
9/30/2021 10:00:00 AM 11.17 52.106 0.066 7.4<